<?xml version="1.0" encoding="UTF-8" standalone="no" ?>
<gpx xmlns="http://www.topografix.com/GPX/1/1" xmlns:xsi="http://www.w3.org/2001/XMLSchema-instance" xsi:schemaLocation="http://www.topografix.com/GPX/1/1 http://www.topografix.com/GPX/1/1/gpx.xsd" version="1.1" creator="VisuGPX - https://www.visugpx.com">
  <metadata>
    <name>Argonay-Seyssel-Rumilly</name>
    <desc><![CDATA[Sortie aprés taf. Galere autour d\'annecy, mais que des chouette routes une fois sortie de l\'agglo]]></desc>
  </metadata>
  <trk>
    <name><![CDATA[argonay-seyssel-rumilly]]></name>
    <trkseg>
      <trkpt lat="45.94078" lon="6.14703">
        <ele>506</ele>
        <time>2014-04-24T15:14:06.000Z</time>
      </trkpt>
      <trkpt lat="45.94058" lon="6.14656">
        <ele>505</ele>
        <time>2014-04-24T15:14:12.000Z</time>
      </trkpt>
      <trkpt lat="45.94032" lon="6.14615">
        <ele>503.60000610352</ele>
        <time>2014-04-24T15:14:19.000Z</time>
      </trkpt>
      <trkpt lat="45.94005" lon="6.14565">
        <ele>502.20001220703</ele>
        <time>2014-04-24T15:14:26.000Z</time>
      </trkpt>
      <trkpt lat="45.93974" lon="6.145">
        <ele>502.20001220703</ele>
        <time>2014-04-24T15:14:34.000Z</time>
      </trkpt>
      <trkpt lat="45.93971" lon="6.14491">
        <ele>502.20001220703</ele>
        <time>2014-04-24T15:14:35.000Z</time>
      </trkpt>
      <trkpt lat="45.93964" lon="6.14473">
        <ele>502.39999389648</ele>
        <time>2014-04-24T15:14:37.000Z</time>
      </trkpt>
      <trkpt lat="45.93964" lon="6.14442">
        <ele>502.60000610352</ele>
        <time>2014-04-24T15:14:41.000Z</time>
      </trkpt>
      <trkpt lat="45.93967" lon="6.14439">
        <ele>502.60000610352</ele>
        <time>2014-04-24T15:14:42.000Z</time>
      </trkpt>
      <trkpt lat="45.93968" lon="6.14424">
        <ele>502.39999389648</ele>
        <time>2014-04-24T15:14:47.000Z</time>
      </trkpt>
      <trkpt lat="45.93957" lon="6.14403">
        <ele>502.20001220703</ele>
        <time>2014-04-24T15:14:51.000Z</time>
      </trkpt>
      <trkpt lat="45.93961" lon="6.14374">
        <ele>501.20001220703</ele>
        <time>2014-04-24T15:14:55.000Z</time>
      </trkpt>
      <trkpt lat="45.93973" lon="6.14311">
        <ele>499</ele>
        <time>2014-04-24T15:15:02.000Z</time>
      </trkpt>
      <trkpt lat="45.93979" lon="6.14241">
        <ele>500.20001220703</ele>
        <time>2014-04-24T15:15:09.000Z</time>
      </trkpt>
      <trkpt lat="45.93988" lon="6.14161">
        <ele>501.79998779297</ele>
        <time>2014-04-24T15:15:17.000Z</time>
      </trkpt>
      <trkpt lat="45.93993" lon="6.14082">
        <ele>501.20001220703</ele>
        <time>2014-04-24T15:15:25.000Z</time>
      </trkpt>
      <trkpt lat="45.94005" lon="6.14003">
        <ele>499.60000610352</ele>
        <time>2014-04-24T15:15:33.000Z</time>
      </trkpt>
      <trkpt lat="45.94021" lon="6.13948">
        <ele>497.60000610352</ele>
        <time>2014-04-24T15:15:39.000Z</time>
      </trkpt>
      <trkpt lat="45.94043" lon="6.13873">
        <ele>497</ele>
        <time>2014-04-24T15:15:47.000Z</time>
      </trkpt>
      <trkpt lat="45.94051" lon="6.13843">
        <ele>498.39999389648</ele>
        <time>2014-04-24T15:15:50.000Z</time>
      </trkpt>
      <trkpt lat="45.94051" lon="6.13792">
        <ele>499.79998779297</ele>
        <time>2014-04-24T15:15:55.000Z</time>
      </trkpt>
      <trkpt lat="45.9405" lon="6.13782">
        <ele>499.79998779297</ele>
        <time>2014-04-24T15:15:56.000Z</time>
      </trkpt>
      <trkpt lat="45.94031" lon="6.13682">
        <ele>500</ele>
        <time>2014-04-24T15:16:06.000Z</time>
      </trkpt>
      <trkpt lat="45.94035" lon="6.1363">
        <ele>500</ele>
        <time>2014-04-24T15:16:11.000Z</time>
      </trkpt>
      <trkpt lat="45.94042" lon="6.13611">
        <ele>500.20001220703</ele>
        <time>2014-04-24T15:16:13.000Z</time>
      </trkpt>
      <trkpt lat="45.94051" lon="6.13594">
        <ele>500.60000610352</ele>
        <time>2014-04-24T15:16:15.000Z</time>
      </trkpt>
      <trkpt lat="45.94073" lon="6.13556">
        <ele>500.60000610352</ele>
        <time>2014-04-24T15:16:20.000Z</time>
      </trkpt>
      <trkpt lat="45.94092" lon="6.13524">
        <ele>499.79998779297</ele>
        <time>2014-04-24T15:16:24.000Z</time>
      </trkpt>
      <trkpt lat="45.94166" lon="6.13456">
        <ele>497.20001220703</ele>
        <time>2014-04-24T15:16:36.000Z</time>
      </trkpt>
      <trkpt lat="45.94193" lon="6.13439">
        <ele>496.39999389648</ele>
        <time>2014-04-24T15:16:40.000Z</time>
      </trkpt>
      <trkpt lat="45.94216" lon="6.13416">
        <ele>496</ele>
        <time>2014-04-24T15:16:44.000Z</time>
      </trkpt>
      <trkpt lat="45.94222" lon="6.13409">
        <ele>496</ele>
        <time>2014-04-24T15:16:45.000Z</time>
      </trkpt>
      <trkpt lat="45.94276" lon="6.13358">
        <ele>498</ele>
        <time>2014-04-24T15:16:54.000Z</time>
      </trkpt>
      <trkpt lat="45.94337" lon="6.13301">
        <ele>498.60000610352</ele>
        <time>2014-04-24T15:17:04.000Z</time>
      </trkpt>
      <trkpt lat="45.94367" lon="6.13254">
        <ele>499.20001220703</ele>
        <time>2014-04-24T15:17:10.000Z</time>
      </trkpt>
      <trkpt lat="45.94383" lon="6.13204">
        <ele>499.20001220703</ele>
        <time>2014-04-24T15:17:15.000Z</time>
      </trkpt>
      <trkpt lat="45.94389" lon="6.13151">
        <ele>498.20001220703</ele>
        <time>2014-04-24T15:17:20.000Z</time>
      </trkpt>
      <trkpt lat="45.94391" lon="6.13053">
        <ele>499</ele>
        <time>2014-04-24T15:17:29.000Z</time>
      </trkpt>
      <trkpt lat="45.94396" lon="6.12939">
        <ele>497.60000610352</ele>
        <time>2014-04-24T15:17:40.000Z</time>
      </trkpt>
      <trkpt lat="45.94398" lon="6.12857">
        <ele>495.39999389648</ele>
        <time>2014-04-24T15:17:48.000Z</time>
      </trkpt>
      <trkpt lat="45.94401" lon="6.12808">
        <ele>494.60000610352</ele>
        <time>2014-04-24T15:17:53.000Z</time>
      </trkpt>
      <trkpt lat="45.94395" lon="6.12744">
        <ele>492.60000610352</ele>
        <time>2014-04-24T15:17:59.000Z</time>
      </trkpt>
      <trkpt lat="45.9439" lon="6.12722">
        <ele>492</ele>
        <time>2014-04-24T15:18:01.000Z</time>
      </trkpt>
      <trkpt lat="45.94367" lon="6.12671">
        <ele>491.79998779297</ele>
        <time>2014-04-24T15:18:06.000Z</time>
      </trkpt>
      <trkpt lat="45.94322" lon="6.12598">
        <ele>488.79998779297</ele>
        <time>2014-04-24T15:18:13.000Z</time>
      </trkpt>
      <trkpt lat="45.94295" lon="6.12554">
        <ele>486.60000610352</ele>
        <time>2014-04-24T15:18:17.000Z</time>
      </trkpt>
      <trkpt lat="45.9428" lon="6.12502">
        <ele>485.20001220703</ele>
        <time>2014-04-24T15:18:21.000Z</time>
      </trkpt>
      <trkpt lat="45.94281" lon="6.12461">
        <ele>484.39999389648</ele>
        <time>2014-04-24T15:18:24.000Z</time>
      </trkpt>
      <trkpt lat="45.94292" lon="6.12424">
        <ele>484.60000610352</ele>
        <time>2014-04-24T15:18:27.000Z</time>
      </trkpt>
      <trkpt lat="45.94314" lon="6.12372">
        <ele>485</ele>
        <time>2014-04-24T15:18:32.000Z</time>
      </trkpt>
      <trkpt lat="45.94329" lon="6.12346">
        <ele>485.60000610352</ele>
        <time>2014-04-24T15:18:36.000Z</time>
      </trkpt>
      <trkpt lat="45.94346" lon="6.12336">
        <ele>487</ele>
        <time>2014-04-24T15:18:41.000Z</time>
      </trkpt>
      <trkpt lat="45.94382" lon="6.12312">
        <ele>490.20001220703</ele>
        <time>2014-04-24T15:18:48.000Z</time>
      </trkpt>
      <trkpt lat="45.94387" lon="6.12306">
        <ele>490.60000610352</ele>
        <time>2014-04-24T15:18:49.000Z</time>
      </trkpt>
      <trkpt lat="45.94399" lon="6.12286">
        <ele>490.39999389648</ele>
        <time>2014-04-24T15:18:52.000Z</time>
      </trkpt>
      <trkpt lat="45.94411" lon="6.12254">
        <ele>489.79998779297</ele>
        <time>2014-04-24T15:18:56.000Z</time>
      </trkpt>
      <trkpt lat="45.94427" lon="6.12188">
        <ele>491.79998779297</ele>
        <time>2014-04-24T15:19:04.000Z</time>
      </trkpt>
      <trkpt lat="45.94437" lon="6.12159">
        <ele>494.20001220703</ele>
        <time>2014-04-24T15:19:08.000Z</time>
      </trkpt>
      <trkpt lat="45.94461" lon="6.12119">
        <ele>497.60000610352</ele>
        <time>2014-04-24T15:19:15.000Z</time>
      </trkpt>
      <trkpt lat="45.94493" lon="6.12089">
        <ele>498.39999389648</ele>
        <time>2014-04-24T15:19:23.000Z</time>
      </trkpt>
      <trkpt lat="45.94521" lon="6.12076">
        <ele>498.39999389648</ele>
        <time>2014-04-24T15:19:30.000Z</time>
      </trkpt>
      <trkpt lat="45.94524" lon="6.12076">
        <ele>498.39999389648</ele>
        <time>2014-04-24T15:19:31.000Z</time>
      </trkpt>
      <trkpt lat="45.94527" lon="6.12075">
        <ele>498.60000610352</ele>
        <time>2014-04-24T15:19:36.000Z</time>
      </trkpt>
      <trkpt lat="45.94528" lon="6.12074">
        <ele>498.39999389648</ele>
        <time>2014-04-24T15:19:39.000Z</time>
      </trkpt>
      <trkpt lat="45.94532" lon="6.12068">
        <ele>498</ele>
        <time>2014-04-24T15:19:45.000Z</time>
      </trkpt>
      <trkpt lat="45.94536" lon="6.12054">
        <ele>496.79998779297</ele>
        <time>2014-04-24T15:19:49.000Z</time>
      </trkpt>
      <trkpt lat="45.94541" lon="6.12026">
        <ele>495.60000610352</ele>
        <time>2014-04-24T15:19:53.000Z</time>
      </trkpt>
      <trkpt lat="45.9456" lon="6.11996">
        <ele>495</ele>
        <time>2014-04-24T15:19:58.000Z</time>
      </trkpt>
      <trkpt lat="45.94597" lon="6.11955">
        <ele>495</ele>
        <time>2014-04-24T15:20:05.000Z</time>
      </trkpt>
      <trkpt lat="45.9463" lon="6.11931">
        <ele>495.79998779297</ele>
        <time>2014-04-24T15:20:10.000Z</time>
      </trkpt>
      <trkpt lat="45.94655" lon="6.11904">
        <ele>496.39999389648</ele>
        <time>2014-04-24T15:20:14.000Z</time>
      </trkpt>
      <trkpt lat="45.94677" lon="6.11887">
        <ele>496.20001220703</ele>
        <time>2014-04-24T15:20:18.000Z</time>
      </trkpt>
      <trkpt lat="45.94692" lon="6.11863">
        <ele>495.79998779297</ele>
        <time>2014-04-24T15:20:22.000Z</time>
      </trkpt>
      <trkpt lat="45.94737" lon="6.11804">
        <ele>497.60000610352</ele>
        <time>2014-04-24T15:20:30.000Z</time>
      </trkpt>
      <trkpt lat="45.94779" lon="6.11749">
        <ele>499.60000610352</ele>
        <time>2014-04-24T15:20:38.000Z</time>
      </trkpt>
      <trkpt lat="45.948" lon="6.11722">
        <ele>500.60000610352</ele>
        <time>2014-04-24T15:20:43.000Z</time>
      </trkpt>
      <trkpt lat="45.94804" lon="6.11718">
        <ele>500.79998779297</ele>
        <time>2014-04-24T15:20:46.000Z</time>
      </trkpt>
      <trkpt lat="45.94818" lon="6.11703">
        <ele>501.39999389648</ele>
        <time>2014-04-24T15:20:52.000Z</time>
      </trkpt>
      <trkpt lat="45.9483" lon="6.11688">
        <ele>501.79998779297</ele>
        <time>2014-04-24T15:20:56.000Z</time>
      </trkpt>
      <trkpt lat="45.94858" lon="6.11662">
        <ele>502</ele>
        <time>2014-04-24T15:21:02.000Z</time>
      </trkpt>
      <trkpt lat="45.94902" lon="6.11621">
        <ele>501.39999389648</ele>
        <time>2014-04-24T15:21:10.000Z</time>
      </trkpt>
      <trkpt lat="45.94946" lon="6.11578">
        <ele>499.79998779297</ele>
        <time>2014-04-24T15:21:17.000Z</time>
      </trkpt>
      <trkpt lat="45.94984" lon="6.11547">
        <ele>498.20001220703</ele>
        <time>2014-04-24T15:21:22.000Z</time>
      </trkpt>
      <trkpt lat="45.9502" lon="6.11538">
        <ele>496.60000610352</ele>
        <time>2014-04-24T15:21:26.000Z</time>
      </trkpt>
      <trkpt lat="45.95039" lon="6.11543">
        <ele>496</ele>
        <time>2014-04-24T15:21:28.000Z</time>
      </trkpt>
      <trkpt lat="45.9511" lon="6.11578">
        <ele>494.79998779297</ele>
        <time>2014-04-24T15:21:36.000Z</time>
      </trkpt>
      <trkpt lat="45.95151" lon="6.11596">
        <ele>494.39999389648</ele>
        <time>2014-04-24T15:21:41.000Z</time>
      </trkpt>
      <trkpt lat="45.95169" lon="6.11603">
        <ele>494.79998779297</ele>
        <time>2014-04-24T15:21:43.000Z</time>
      </trkpt>
      <trkpt lat="45.95198" lon="6.11602">
        <ele>495.39999389648</ele>
        <time>2014-04-24T15:21:47.000Z</time>
      </trkpt>
      <trkpt lat="45.95227" lon="6.11606">
        <ele>496.39999389648</ele>
        <time>2014-04-24T15:21:52.000Z</time>
      </trkpt>
      <trkpt lat="45.95244" lon="6.11601">
        <ele>497.39999389648</ele>
        <time>2014-04-24T15:21:56.000Z</time>
      </trkpt>
      <trkpt lat="45.95246" lon="6.11588">
        <ele>497.20001220703</ele>
        <time>2014-04-24T15:21:58.000Z</time>
      </trkpt>
      <trkpt lat="45.95259" lon="6.11547">
        <ele>497.60000610352</ele>
        <time>2014-04-24T15:22:04.000Z</time>
      </trkpt>
      <trkpt lat="45.95284" lon="6.1149">
        <ele>501.20001220703</ele>
        <time>2014-04-24T15:22:13.000Z</time>
      </trkpt>
      <trkpt lat="45.95309" lon="6.11443">
        <ele>503.39999389648</ele>
        <time>2014-04-24T15:22:20.000Z</time>
      </trkpt>
      <trkpt lat="45.95341" lon="6.11379">
        <ele>506.79998779297</ele>
        <time>2014-04-24T15:22:29.000Z</time>
      </trkpt>
      <trkpt lat="45.95367" lon="6.11324">
        <ele>510</ele>
        <time>2014-04-24T15:22:38.000Z</time>
      </trkpt>
      <trkpt lat="45.9538" lon="6.11297">
        <ele>511.79998779297</ele>
        <time>2014-04-24T15:22:43.000Z</time>
      </trkpt>
      <trkpt lat="45.95398" lon="6.11272">
        <ele>514</ele>
        <time>2014-04-24T15:22:51.000Z</time>
      </trkpt>
      <trkpt lat="45.95405" lon="6.11253">
        <ele>514.79998779297</ele>
        <time>2014-04-24T15:22:56.000Z</time>
      </trkpt>
      <trkpt lat="45.95404" lon="6.11229">
        <ele>514.79998779297</ele>
        <time>2014-04-24T15:23:00.000Z</time>
      </trkpt>
      <trkpt lat="45.95406" lon="6.11199">
        <ele>514.79998779297</ele>
        <time>2014-04-24T15:23:05.000Z</time>
      </trkpt>
      <trkpt lat="45.95415" lon="6.11187">
        <ele>515.40002441406</ele>
        <time>2014-04-24T15:23:08.000Z</time>
      </trkpt>
      <trkpt lat="45.95422" lon="6.11179">
        <ele>515.79998779297</ele>
        <time>2014-04-24T15:23:10.000Z</time>
      </trkpt>
      <trkpt lat="45.95435" lon="6.11161">
        <ele>515</ele>
        <time>2014-04-24T15:23:14.000Z</time>
      </trkpt>
      <trkpt lat="45.95461" lon="6.11132">
        <ele>513.79998779297</ele>
        <time>2014-04-24T15:23:20.000Z</time>
      </trkpt>
      <trkpt lat="45.95488" lon="6.11092">
        <ele>512.59997558594</ele>
        <time>2014-04-24T15:23:25.000Z</time>
      </trkpt>
      <trkpt lat="45.95494" lon="6.11082">
        <ele>512.40002441406</ele>
        <time>2014-04-24T15:23:26.000Z</time>
      </trkpt>
      <trkpt lat="45.95515" lon="6.11023">
        <ele>512</ele>
        <time>2014-04-24T15:23:31.000Z</time>
      </trkpt>
      <trkpt lat="45.95518" lon="6.11012">
        <ele>512</ele>
        <time>2014-04-24T15:23:32.000Z</time>
      </trkpt>
      <trkpt lat="45.95512" lon="6.10992">
        <ele>511.20001220703</ele>
        <time>2014-04-24T15:23:35.000Z</time>
      </trkpt>
      <trkpt lat="45.95494" lon="6.10986">
        <ele>510.20001220703</ele>
        <time>2014-04-24T15:23:38.000Z</time>
      </trkpt>
      <trkpt lat="45.95486" lon="6.1097">
        <ele>509.39999389648</ele>
        <time>2014-04-24T15:23:40.000Z</time>
      </trkpt>
      <trkpt lat="45.9547" lon="6.10892">
        <ele>507.79998779297</ele>
        <time>2014-04-24T15:23:47.000Z</time>
      </trkpt>
      <trkpt lat="45.95445" lon="6.10774">
        <ele>506</ele>
        <time>2014-04-24T15:23:57.000Z</time>
      </trkpt>
      <trkpt lat="45.95416" lon="6.10687">
        <ele>507</ele>
        <time>2014-04-24T15:24:05.000Z</time>
      </trkpt>
      <trkpt lat="45.95378" lon="6.10614">
        <ele>507.60000610352</ele>
        <time>2014-04-24T15:24:13.000Z</time>
      </trkpt>
      <trkpt lat="45.95352" lon="6.10572">
        <ele>508</ele>
        <time>2014-04-24T15:24:19.000Z</time>
      </trkpt>
      <trkpt lat="45.95323" lon="6.10529">
        <ele>509.20001220703</ele>
        <time>2014-04-24T15:24:26.000Z</time>
      </trkpt>
      <trkpt lat="45.95305" lon="6.105">
        <ele>510.39999389648</ele>
        <time>2014-04-24T15:24:31.000Z</time>
      </trkpt>
      <trkpt lat="45.95297" lon="6.10495">
        <ele>510.60000610352</ele>
        <time>2014-04-24T15:24:34.000Z</time>
      </trkpt>
      <trkpt lat="45.95282" lon="6.10505">
        <ele>509.60000610352</ele>
        <time>2014-04-24T15:24:37.000Z</time>
      </trkpt>
      <trkpt lat="45.95269" lon="6.10507">
        <ele>509.39999389648</ele>
        <time>2014-04-24T15:24:39.000Z</time>
      </trkpt>
      <trkpt lat="45.95255" lon="6.10508">
        <ele>509.20001220703</ele>
        <time>2014-04-24T15:24:41.000Z</time>
      </trkpt>
      <trkpt lat="45.95202" lon="6.10524">
        <ele>503.39999389648</ele>
        <time>2014-04-24T15:24:48.000Z</time>
      </trkpt>
      <trkpt lat="45.95156" lon="6.10537">
        <ele>500.79998779297</ele>
        <time>2014-04-24T15:24:53.000Z</time>
      </trkpt>
      <trkpt lat="45.95092" lon="6.10557">
        <ele>495</ele>
        <time>2014-04-24T15:24:59.000Z</time>
      </trkpt>
      <trkpt lat="45.95016" lon="6.10581">
        <ele>491.20001220703</ele>
        <time>2014-04-24T15:25:06.000Z</time>
      </trkpt>
      <trkpt lat="45.94981" lon="6.10611">
        <ele>490.39999389648</ele>
        <time>2014-04-24T15:25:10.000Z</time>
      </trkpt>
      <trkpt lat="45.94954" lon="6.10655">
        <ele>490</ele>
        <time>2014-04-24T15:25:14.000Z</time>
      </trkpt>
      <trkpt lat="45.94928" lon="6.10681">
        <ele>489.60000610352</ele>
        <time>2014-04-24T15:25:18.000Z</time>
      </trkpt>
      <trkpt lat="45.94914" lon="6.10686">
        <ele>489</ele>
        <time>2014-04-24T15:25:20.000Z</time>
      </trkpt>
      <trkpt lat="45.94865" lon="6.10693">
        <ele>489.20001220703</ele>
        <time>2014-04-24T15:25:27.000Z</time>
      </trkpt>
      <trkpt lat="45.94832" lon="6.10681">
        <ele>492</ele>
        <time>2014-04-24T15:25:32.000Z</time>
      </trkpt>
      <trkpt lat="45.94796" lon="6.10671">
        <ele>494.20001220703</ele>
        <time>2014-04-24T15:25:37.000Z</time>
      </trkpt>
      <trkpt lat="45.9475" lon="6.10657">
        <ele>495.79998779297</ele>
        <time>2014-04-24T15:25:44.000Z</time>
      </trkpt>
      <trkpt lat="45.94707" lon="6.10644">
        <ele>496.79998779297</ele>
        <time>2014-04-24T15:25:51.000Z</time>
      </trkpt>
      <trkpt lat="45.94668" lon="6.10634">
        <ele>496.79998779297</ele>
        <time>2014-04-24T15:25:57.000Z</time>
      </trkpt>
      <trkpt lat="45.94613" lon="6.10622">
        <ele>496</ele>
        <time>2014-04-24T15:26:04.000Z</time>
      </trkpt>
      <trkpt lat="45.94521" lon="6.10602">
        <ele>494</ele>
        <time>2014-04-24T15:26:15.000Z</time>
      </trkpt>
      <trkpt lat="45.94469" lon="6.10596">
        <ele>493.20001220703</ele>
        <time>2014-04-24T15:26:21.000Z</time>
      </trkpt>
      <trkpt lat="45.94428" lon="6.10578">
        <ele>492.60000610352</ele>
        <time>2014-04-24T15:26:26.000Z</time>
      </trkpt>
      <trkpt lat="45.94406" lon="6.1056">
        <ele>492.79998779297</ele>
        <time>2014-04-24T15:26:29.000Z</time>
      </trkpt>
      <trkpt lat="45.94383" lon="6.10529">
        <ele>494</ele>
        <time>2014-04-24T15:26:33.000Z</time>
      </trkpt>
      <trkpt lat="45.9437" lon="6.1049">
        <ele>495.79998779297</ele>
        <time>2014-04-24T15:26:37.000Z</time>
      </trkpt>
      <trkpt lat="45.94361" lon="6.10469">
        <ele>496.39999389648</ele>
        <time>2014-04-24T15:26:41.000Z</time>
      </trkpt>
      <trkpt lat="45.94353" lon="6.10456">
        <ele>495.79998779297</ele>
        <time>2014-04-24T15:26:44.000Z</time>
      </trkpt>
      <trkpt lat="45.94348" lon="6.10453">
        <ele>495.39999389648</ele>
        <time>2014-04-24T15:26:45.000Z</time>
      </trkpt>
      <trkpt lat="45.9432" lon="6.1042">
        <ele>493.60000610352</ele>
        <time>2014-04-24T15:26:50.000Z</time>
      </trkpt>
      <trkpt lat="45.94302" lon="6.1039">
        <ele>492.60000610352</ele>
        <time>2014-04-24T15:26:53.000Z</time>
      </trkpt>
      <trkpt lat="45.94271" lon="6.10361">
        <ele>490.39999389648</ele>
        <time>2014-04-24T15:26:57.000Z</time>
      </trkpt>
      <trkpt lat="45.94246" lon="6.10368">
        <ele>487.60000610352</ele>
        <time>2014-04-24T15:27:00.000Z</time>
      </trkpt>
      <trkpt lat="45.94231" lon="6.10386">
        <ele>485.79998779297</ele>
        <time>2014-04-24T15:27:02.000Z</time>
      </trkpt>
      <trkpt lat="45.942" lon="6.10449">
        <ele>481</ele>
        <time>2014-04-24T15:27:08.000Z</time>
      </trkpt>
      <trkpt lat="45.94167" lon="6.1049">
        <ele>477</ele>
        <time>2014-04-24T15:27:13.000Z</time>
      </trkpt>
      <trkpt lat="45.94158" lon="6.10493">
        <ele>476.20001220703</ele>
        <time>2014-04-24T15:27:14.000Z</time>
      </trkpt>
      <trkpt lat="45.94121" lon="6.10518">
        <ele>473</ele>
        <time>2014-04-24T15:27:19.000Z</time>
      </trkpt>
      <trkpt lat="45.94094" lon="6.10537">
        <ele>472.20001220703</ele>
        <time>2014-04-24T15:27:23.000Z</time>
      </trkpt>
      <trkpt lat="45.94076" lon="6.10549">
        <ele>472</ele>
        <time>2014-04-24T15:27:27.000Z</time>
      </trkpt>
      <trkpt lat="45.94068" lon="6.1054">
        <ele>471.79998779297</ele>
        <time>2014-04-24T15:27:29.000Z</time>
      </trkpt>
      <trkpt lat="45.94045" lon="6.10488">
        <ele>470.60000610352</ele>
        <time>2014-04-24T15:27:35.000Z</time>
      </trkpt>
      <trkpt lat="45.94026" lon="6.10448">
        <ele>469.20001220703</ele>
        <time>2014-04-24T15:27:39.000Z</time>
      </trkpt>
      <trkpt lat="45.94001" lon="6.104">
        <ele>467.79998779297</ele>
        <time>2014-04-24T15:27:44.000Z</time>
      </trkpt>
      <trkpt lat="45.93979" lon="6.10355">
        <ele>466.79998779297</ele>
        <time>2014-04-24T15:27:49.000Z</time>
      </trkpt>
      <trkpt lat="45.93962" lon="6.10324">
        <ele>466.39999389648</ele>
        <time>2014-04-24T15:27:53.000Z</time>
      </trkpt>
      <trkpt lat="45.93934" lon="6.10251">
        <ele>465.60000610352</ele>
        <time>2014-04-24T15:28:01.000Z</time>
      </trkpt>
      <trkpt lat="45.93914" lon="6.10199">
        <ele>465</ele>
        <time>2014-04-24T15:28:07.000Z</time>
      </trkpt>
      <trkpt lat="45.9389" lon="6.10148">
        <ele>464</ele>
        <time>2014-04-24T15:28:13.000Z</time>
      </trkpt>
      <trkpt lat="45.9388" lon="6.10121">
        <ele>463.79998779297</ele>
        <time>2014-04-24T15:28:16.000Z</time>
      </trkpt>
      <trkpt lat="45.93868" lon="6.10071">
        <ele>463.39999389648</ele>
        <time>2014-04-24T15:28:21.000Z</time>
      </trkpt>
      <trkpt lat="45.93851" lon="6.10025">
        <ele>463.39999389648</ele>
        <time>2014-04-24T15:28:26.000Z</time>
      </trkpt>
      <trkpt lat="45.93841" lon="6.10008">
        <ele>463.39999389648</ele>
        <time>2014-04-24T15:28:28.000Z</time>
      </trkpt>
      <trkpt lat="45.93818" lon="6.09952">
        <ele>463.20001220703</ele>
        <time>2014-04-24T15:28:34.000Z</time>
      </trkpt>
      <trkpt lat="45.93798" lon="6.09899">
        <ele>462.79998779297</ele>
        <time>2014-04-24T15:28:40.000Z</time>
      </trkpt>
      <trkpt lat="45.93789" lon="6.09877">
        <ele>462.60000610352</ele>
        <time>2014-04-24T15:28:45.000Z</time>
      </trkpt>
      <trkpt lat="45.93787" lon="6.09868">
        <ele>462.60000610352</ele>
        <time>2014-04-24T15:28:47.000Z</time>
      </trkpt>
      <trkpt lat="45.93786" lon="6.09831">
        <ele>463</ele>
        <time>2014-04-24T15:28:53.000Z</time>
      </trkpt>
      <trkpt lat="45.93791" lon="6.09774">
        <ele>464.60000610352</ele>
        <time>2014-04-24T15:28:59.000Z</time>
      </trkpt>
      <trkpt lat="45.93805" lon="6.09704">
        <ele>467.20001220703</ele>
        <time>2014-04-24T15:29:06.000Z</time>
      </trkpt>
      <trkpt lat="45.93827" lon="6.09636">
        <ele>467.60000610352</ele>
        <time>2014-04-24T15:29:13.000Z</time>
      </trkpt>
      <trkpt lat="45.93852" lon="6.09566">
        <ele>466.60000610352</ele>
        <time>2014-04-24T15:29:20.000Z</time>
      </trkpt>
      <trkpt lat="45.93888" lon="6.0947">
        <ele>463.79998779297</ele>
        <time>2014-04-24T15:29:29.000Z</time>
      </trkpt>
      <trkpt lat="45.93928" lon="6.09364">
        <ele>463</ele>
        <time>2014-04-24T15:29:39.000Z</time>
      </trkpt>
      <trkpt lat="45.93953" lon="6.0932">
        <ele>463.79998779297</ele>
        <time>2014-04-24T15:29:44.000Z</time>
      </trkpt>
      <trkpt lat="45.93958" lon="6.09312">
        <ele>464</ele>
        <time>2014-04-24T15:29:45.000Z</time>
      </trkpt>
      <trkpt lat="45.93971" lon="6.09274">
        <ele>465.60000610352</ele>
        <time>2014-04-24T15:29:49.000Z</time>
      </trkpt>
      <trkpt lat="45.93966" lon="6.09241">
        <ele>465.79998779297</ele>
        <time>2014-04-24T15:29:52.000Z</time>
      </trkpt>
      <trkpt lat="45.93956" lon="6.09198">
        <ele>464.39999389648</ele>
        <time>2014-04-24T15:29:56.000Z</time>
      </trkpt>
      <trkpt lat="45.93962" lon="6.09167">
        <ele>463.79998779297</ele>
        <time>2014-04-24T15:29:59.000Z</time>
      </trkpt>
      <trkpt lat="45.93966" lon="6.09157">
        <ele>463.79998779297</ele>
        <time>2014-04-24T15:30:00.000Z</time>
      </trkpt>
      <trkpt lat="45.93979" lon="6.09131">
        <ele>464.60000610352</ele>
        <time>2014-04-24T15:30:03.000Z</time>
      </trkpt>
      <trkpt lat="45.93989" lon="6.09091">
        <ele>464.79998779297</ele>
        <time>2014-04-24T15:30:07.000Z</time>
      </trkpt>
      <trkpt lat="45.94006" lon="6.09062">
        <ele>463.20001220703</ele>
        <time>2014-04-24T15:30:11.000Z</time>
      </trkpt>
      <trkpt lat="45.94018" lon="6.09042">
        <ele>463</ele>
        <time>2014-04-24T15:30:14.000Z</time>
      </trkpt>
      <trkpt lat="45.94032" lon="6.09024">
        <ele>463.20001220703</ele>
        <time>2014-04-24T15:30:17.000Z</time>
      </trkpt>
      <trkpt lat="45.94039" lon="6.09022">
        <ele>463.39999389648</ele>
        <time>2014-04-24T15:30:18.000Z</time>
      </trkpt>
      <trkpt lat="45.94065" lon="6.09002">
        <ele>464</ele>
        <time>2014-04-24T15:30:23.000Z</time>
      </trkpt>
      <trkpt lat="45.94073" lon="6.08992">
        <ele>464.20001220703</ele>
        <time>2014-04-24T15:30:25.000Z</time>
      </trkpt>
      <trkpt lat="45.94082" lon="6.08984">
        <ele>463.39999389648</ele>
        <time>2014-04-24T15:30:27.000Z</time>
      </trkpt>
      <trkpt lat="45.94117" lon="6.08951">
        <ele>464.60000610352</ele>
        <time>2014-04-24T15:30:35.000Z</time>
      </trkpt>
      <trkpt lat="45.94127" lon="6.08944">
        <ele>464.79998779297</ele>
        <time>2014-04-24T15:30:37.000Z</time>
      </trkpt>
      <trkpt lat="45.94151" lon="6.08911">
        <ele>464.79998779297</ele>
        <time>2014-04-24T15:30:43.000Z</time>
      </trkpt>
      <trkpt lat="45.94159" lon="6.08899">
        <ele>465</ele>
        <time>2014-04-24T15:30:45.000Z</time>
      </trkpt>
      <trkpt lat="45.94172" lon="6.08871">
        <ele>465.60000610352</ele>
        <time>2014-04-24T15:30:49.000Z</time>
      </trkpt>
      <trkpt lat="45.94187" lon="6.08811">
        <ele>465.79998779297</ele>
        <time>2014-04-24T15:30:56.000Z</time>
      </trkpt>
      <trkpt lat="45.94192" lon="6.08769">
        <ele>465.39999389648</ele>
        <time>2014-04-24T15:31:00.000Z</time>
      </trkpt>
      <trkpt lat="45.94211" lon="6.08688">
        <ele>464.79998779297</ele>
        <time>2014-04-24T15:31:08.000Z</time>
      </trkpt>
      <trkpt lat="45.94218" lon="6.08656">
        <ele>464.79998779297</ele>
        <time>2014-04-24T15:31:11.000Z</time>
      </trkpt>
      <trkpt lat="45.94216" lon="6.08615">
        <ele>464.39999389648</ele>
        <time>2014-04-24T15:31:15.000Z</time>
      </trkpt>
      <trkpt lat="45.94218" lon="6.08602">
        <ele>464.60000610352</ele>
        <time>2014-04-24T15:31:17.000Z</time>
      </trkpt>
      <trkpt lat="45.94223" lon="6.08594">
        <ele>465</ele>
        <time>2014-04-24T15:31:19.000Z</time>
      </trkpt>
      <trkpt lat="45.94244" lon="6.08555">
        <ele>466.20001220703</ele>
        <time>2014-04-24T15:31:25.000Z</time>
      </trkpt>
      <trkpt lat="45.94261" lon="6.08497">
        <ele>466.20001220703</ele>
        <time>2014-04-24T15:31:31.000Z</time>
      </trkpt>
      <trkpt lat="45.94286" lon="6.08433">
        <ele>466.39999389648</ele>
        <time>2014-04-24T15:31:38.000Z</time>
      </trkpt>
      <trkpt lat="45.94311" lon="6.08373">
        <ele>464.79998779297</ele>
        <time>2014-04-24T15:31:45.000Z</time>
      </trkpt>
      <trkpt lat="45.94339" lon="6.08277">
        <ele>464.60000610352</ele>
        <time>2014-04-24T15:31:55.000Z</time>
      </trkpt>
      <trkpt lat="45.9436" lon="6.08209">
        <ele>464</ele>
        <time>2014-04-24T15:32:02.000Z</time>
      </trkpt>
      <trkpt lat="45.94381" lon="6.0814">
        <ele>463.60000610352</ele>
        <time>2014-04-24T15:32:09.000Z</time>
      </trkpt>
      <trkpt lat="45.94402" lon="6.08068">
        <ele>465.79998779297</ele>
        <time>2014-04-24T15:32:17.000Z</time>
      </trkpt>
      <trkpt lat="45.94422" lon="6.08">
        <ele>468.60000610352</ele>
        <time>2014-04-24T15:32:25.000Z</time>
      </trkpt>
      <trkpt lat="45.9444" lon="6.07926">
        <ele>469.39999389648</ele>
        <time>2014-04-24T15:32:34.000Z</time>
      </trkpt>
      <trkpt lat="45.94459" lon="6.07837">
        <ele>471.20001220703</ele>
        <time>2014-04-24T15:32:45.000Z</time>
      </trkpt>
      <trkpt lat="45.94473" lon="6.07771">
        <ele>473</ele>
        <time>2014-04-24T15:32:53.000Z</time>
      </trkpt>
      <trkpt lat="45.94484" lon="6.07705">
        <ele>472.60000610352</ele>
        <time>2014-04-24T15:33:01.000Z</time>
      </trkpt>
      <trkpt lat="45.94483" lon="6.07659">
        <ele>471</ele>
        <time>2014-04-24T15:33:06.000Z</time>
      </trkpt>
      <trkpt lat="45.94482" lon="6.07639">
        <ele>470.79998779297</ele>
        <time>2014-04-24T15:33:08.000Z</time>
      </trkpt>
      <trkpt lat="45.94475" lon="6.07612">
        <ele>470</ele>
        <time>2014-04-24T15:33:11.000Z</time>
      </trkpt>
      <trkpt lat="45.9447" lon="6.07571">
        <ele>469.79998779297</ele>
        <time>2014-04-24T15:33:15.000Z</time>
      </trkpt>
      <trkpt lat="45.94472" lon="6.07561">
        <ele>469.79998779297</ele>
        <time>2014-04-24T15:33:16.000Z</time>
      </trkpt>
      <trkpt lat="45.94477" lon="6.07499">
        <ele>471</ele>
        <time>2014-04-24T15:33:22.000Z</time>
      </trkpt>
      <trkpt lat="45.94474" lon="6.07413">
        <ele>471</ele>
        <time>2014-04-24T15:33:30.000Z</time>
      </trkpt>
      <trkpt lat="45.94471" lon="6.07371">
        <ele>470.79998779297</ele>
        <time>2014-04-24T15:33:34.000Z</time>
      </trkpt>
      <trkpt lat="45.94472" lon="6.07341">
        <ele>470.79998779297</ele>
        <time>2014-04-24T15:33:37.000Z</time>
      </trkpt>
      <trkpt lat="45.94462" lon="6.07325">
        <ele>470.39999389648</ele>
        <time>2014-04-24T15:33:40.000Z</time>
      </trkpt>
      <trkpt lat="45.94454" lon="6.07324">
        <ele>470</ele>
        <time>2014-04-24T15:33:41.000Z</time>
      </trkpt>
      <trkpt lat="45.94437" lon="6.0732">
        <ele>469.20001220703</ele>
        <time>2014-04-24T15:33:43.000Z</time>
      </trkpt>
      <trkpt lat="45.94417" lon="6.07318">
        <ele>468.20001220703</ele>
        <time>2014-04-24T15:33:47.000Z</time>
      </trkpt>
      <trkpt lat="45.94416" lon="6.07313">
        <ele>468.20001220703</ele>
        <time>2014-04-24T15:33:49.000Z</time>
      </trkpt>
      <trkpt lat="45.94421" lon="6.0729">
        <ele>468.39999389648</ele>
        <time>2014-04-24T15:33:54.000Z</time>
      </trkpt>
      <trkpt lat="45.94431" lon="6.0725">
        <ele>468.79998779297</ele>
        <time>2014-04-24T15:34:00.000Z</time>
      </trkpt>
      <trkpt lat="45.9444" lon="6.07189">
        <ele>467.39999389648</ele>
        <time>2014-04-24T15:34:06.000Z</time>
      </trkpt>
      <trkpt lat="45.94435" lon="6.07139">
        <ele>466.79998779297</ele>
        <time>2014-04-24T15:34:11.000Z</time>
      </trkpt>
      <trkpt lat="45.94418" lon="6.07073">
        <ele>468</ele>
        <time>2014-04-24T15:34:18.000Z</time>
      </trkpt>
      <trkpt lat="45.94403" lon="6.07008">
        <ele>467</ele>
        <time>2014-04-24T15:34:25.000Z</time>
      </trkpt>
      <trkpt lat="45.94387" lon="6.06943">
        <ele>466.60000610352</ele>
        <time>2014-04-24T15:34:31.000Z</time>
      </trkpt>
      <trkpt lat="45.94369" lon="6.06904">
        <ele>466.39999389648</ele>
        <time>2014-04-24T15:34:35.000Z</time>
      </trkpt>
      <trkpt lat="45.94363" lon="6.06867">
        <ele>466.60000610352</ele>
        <time>2014-04-24T15:34:39.000Z</time>
      </trkpt>
      <trkpt lat="45.94378" lon="6.06829">
        <ele>469.20001220703</ele>
        <time>2014-04-24T15:34:45.000Z</time>
      </trkpt>
      <trkpt lat="45.94377" lon="6.06806">
        <ele>469.79998779297</ele>
        <time>2014-04-24T15:34:48.000Z</time>
      </trkpt>
      <trkpt lat="45.94365" lon="6.06783">
        <ele>468.60000610352</ele>
        <time>2014-04-24T15:34:51.000Z</time>
      </trkpt>
      <trkpt lat="45.94361" lon="6.06774">
        <ele>468.60000610352</ele>
        <time>2014-04-24T15:34:52.000Z</time>
      </trkpt>
      <trkpt lat="45.94337" lon="6.06709">
        <ele>468.60000610352</ele>
        <time>2014-04-24T15:34:58.000Z</time>
      </trkpt>
      <trkpt lat="45.94302" lon="6.06616">
        <ele>472</ele>
        <time>2014-04-24T15:35:06.000Z</time>
      </trkpt>
      <trkpt lat="45.94279" lon="6.06552">
        <ele>476.60000610352</ele>
        <time>2014-04-24T15:35:11.000Z</time>
      </trkpt>
      <trkpt lat="45.94277" lon="6.06495">
        <ele>479.60000610352</ele>
        <time>2014-04-24T15:35:15.000Z</time>
      </trkpt>
      <trkpt lat="45.9428" lon="6.06482">
        <ele>482</ele>
        <time>2014-04-24T15:35:16.000Z</time>
      </trkpt>
      <trkpt lat="45.94297" lon="6.06415">
        <ele>485.60000610352</ele>
        <time>2014-04-24T15:35:21.000Z</time>
      </trkpt>
      <trkpt lat="45.94302" lon="6.06361">
        <ele>480.60000610352</ele>
        <time>2014-04-24T15:35:25.000Z</time>
      </trkpt>
      <trkpt lat="45.94296" lon="6.06262">
        <ele>465</ele>
        <time>2014-04-24T15:35:33.000Z</time>
      </trkpt>
      <trkpt lat="45.94291" lon="6.06206">
        <ele>461</ele>
        <time>2014-04-24T15:35:38.000Z</time>
      </trkpt>
      <trkpt lat="45.94294" lon="6.06205">
        <ele>461.20001220703</ele>
        <time>2014-04-24T15:35:41.000Z</time>
      </trkpt>
      <trkpt lat="45.94301" lon="6.06204">
        <ele>461.39999389648</ele>
        <time>2014-04-24T15:35:44.000Z</time>
      </trkpt>
      <trkpt lat="45.94304" lon="6.062">
        <ele>461.60000610352</ele>
        <time>2014-04-24T15:35:45.000Z</time>
      </trkpt>
      <trkpt lat="45.94322" lon="6.06163">
        <ele>463</ele>
        <time>2014-04-24T15:35:52.000Z</time>
      </trkpt>
      <trkpt lat="45.94335" lon="6.06126">
        <ele>463.39999389648</ele>
        <time>2014-04-24T15:35:57.000Z</time>
      </trkpt>
      <trkpt lat="45.94343" lon="6.06087">
        <ele>463.60000610352</ele>
        <time>2014-04-24T15:36:02.000Z</time>
      </trkpt>
      <trkpt lat="45.94339" lon="6.06057">
        <ele>463.79998779297</ele>
        <time>2014-04-24T15:36:06.000Z</time>
      </trkpt>
      <trkpt lat="45.94336" lon="6.06023">
        <ele>463.60000610352</ele>
        <time>2014-04-24T15:36:11.000Z</time>
      </trkpt>
      <trkpt lat="45.94343" lon="6.06019">
        <ele>463.79998779297</ele>
        <time>2014-04-24T15:36:14.000Z</time>
      </trkpt>
      <trkpt lat="45.9435" lon="6.06016">
        <ele>464</ele>
        <time>2014-04-24T15:36:18.000Z</time>
      </trkpt>
      <trkpt lat="45.94356" lon="6.06006">
        <ele>463.60000610352</ele>
        <time>2014-04-24T15:36:23.000Z</time>
      </trkpt>
      <trkpt lat="45.94365" lon="6.05988">
        <ele>462.79998779297</ele>
        <time>2014-04-24T15:36:29.000Z</time>
      </trkpt>
      <trkpt lat="45.94374" lon="6.05965">
        <ele>462.79998779297</ele>
        <time>2014-04-24T15:36:34.000Z</time>
      </trkpt>
      <trkpt lat="45.94389" lon="6.0593">
        <ele>465.20001220703</ele>
        <time>2014-04-24T15:36:40.000Z</time>
      </trkpt>
      <trkpt lat="45.94407" lon="6.059">
        <ele>468</ele>
        <time>2014-04-24T15:36:45.000Z</time>
      </trkpt>
      <trkpt lat="45.94437" lon="6.05876">
        <ele>469.79998779297</ele>
        <time>2014-04-24T15:36:52.000Z</time>
      </trkpt>
      <trkpt lat="45.94445" lon="6.05869">
        <ele>470.60000610352</ele>
        <time>2014-04-24T15:36:54.000Z</time>
      </trkpt>
      <trkpt lat="45.9446" lon="6.05852">
        <ele>470.79998779297</ele>
        <time>2014-04-24T15:36:58.000Z</time>
      </trkpt>
      <trkpt lat="45.94483" lon="6.05807">
        <ele>472.20001220703</ele>
        <time>2014-04-24T15:37:05.000Z</time>
      </trkpt>
      <trkpt lat="45.94508" lon="6.0576">
        <ele>476.20001220703</ele>
        <time>2014-04-24T15:37:12.000Z</time>
      </trkpt>
      <trkpt lat="45.94521" lon="6.05729">
        <ele>477.60000610352</ele>
        <time>2014-04-24T15:37:17.000Z</time>
      </trkpt>
      <trkpt lat="45.94534" lon="6.05689">
        <ele>478.39999389648</ele>
        <time>2014-04-24T15:37:24.000Z</time>
      </trkpt>
      <trkpt lat="45.94538" lon="6.05678">
        <ele>478.60000610352</ele>
        <time>2014-04-24T15:37:26.000Z</time>
      </trkpt>
      <trkpt lat="45.94547" lon="6.05663">
        <ele>478.79998779297</ele>
        <time>2014-04-24T15:37:29.000Z</time>
      </trkpt>
      <trkpt lat="45.94575" lon="6.05638">
        <ele>479.79998779297</ele>
        <time>2014-04-24T15:37:35.000Z</time>
      </trkpt>
      <trkpt lat="45.94595" lon="6.05622">
        <ele>481</ele>
        <time>2014-04-24T15:37:39.000Z</time>
      </trkpt>
      <trkpt lat="45.94611" lon="6.05607">
        <ele>482.20001220703</ele>
        <time>2014-04-24T15:37:43.000Z</time>
      </trkpt>
      <trkpt lat="45.94624" lon="6.05595">
        <ele>483.39999389648</ele>
        <time>2014-04-24T15:37:49.000Z</time>
      </trkpt>
      <trkpt lat="45.94641" lon="6.05568">
        <ele>485.79998779297</ele>
        <time>2014-04-24T15:37:55.000Z</time>
      </trkpt>
      <trkpt lat="45.94666" lon="6.05527">
        <ele>487</ele>
        <time>2014-04-24T15:38:02.000Z</time>
      </trkpt>
      <trkpt lat="45.94676" lon="6.05512">
        <ele>487.39999389648</ele>
        <time>2014-04-24T15:38:06.000Z</time>
      </trkpt>
      <trkpt lat="45.94687" lon="6.05495">
        <ele>487.39999389648</ele>
        <time>2014-04-24T15:38:10.000Z</time>
      </trkpt>
      <trkpt lat="45.94707" lon="6.05468">
        <ele>487.79998779297</ele>
        <time>2014-04-24T15:38:15.000Z</time>
      </trkpt>
      <trkpt lat="45.94741" lon="6.05444">
        <ele>490.60000610352</ele>
        <time>2014-04-24T15:38:22.000Z</time>
      </trkpt>
      <trkpt lat="45.9475" lon="6.05439">
        <ele>491.39999389648</ele>
        <time>2014-04-24T15:38:24.000Z</time>
      </trkpt>
      <trkpt lat="45.9476" lon="6.05429">
        <ele>492.39999389648</ele>
        <time>2014-04-24T15:38:29.000Z</time>
      </trkpt>
      <trkpt lat="45.94774" lon="6.05421">
        <ele>492.20001220703</ele>
        <time>2014-04-24T15:38:32.000Z</time>
      </trkpt>
      <trkpt lat="45.94805" lon="6.05402">
        <ele>491.60000610352</ele>
        <time>2014-04-24T15:38:37.000Z</time>
      </trkpt>
      <trkpt lat="45.9482" lon="6.05392">
        <ele>492.20001220703</ele>
        <time>2014-04-24T15:38:39.000Z</time>
      </trkpt>
      <trkpt lat="45.9488" lon="6.05365">
        <ele>493.20001220703</ele>
        <time>2014-04-24T15:38:47.000Z</time>
      </trkpt>
      <trkpt lat="45.94923" lon="6.0534">
        <ele>494.39999389648</ele>
        <time>2014-04-24T15:38:53.000Z</time>
      </trkpt>
      <trkpt lat="45.94974" lon="6.05314">
        <ele>494.39999389648</ele>
        <time>2014-04-24T15:39:00.000Z</time>
      </trkpt>
      <trkpt lat="45.94997" lon="6.05312">
        <ele>499.39999389648</ele>
        <time>2014-04-24T15:39:03.000Z</time>
      </trkpt>
      <trkpt lat="45.95012" lon="6.05314">
        <ele>504</ele>
        <time>2014-04-24T15:39:05.000Z</time>
      </trkpt>
      <trkpt lat="45.95049" lon="6.05305">
        <ele>507.60000610352</ele>
        <time>2014-04-24T15:39:10.000Z</time>
      </trkpt>
      <trkpt lat="45.95065" lon="6.05281">
        <ele>510.79998779297</ele>
        <time>2014-04-24T15:39:13.000Z</time>
      </trkpt>
      <trkpt lat="45.95086" lon="6.05233">
        <ele>510</ele>
        <time>2014-04-24T15:39:18.000Z</time>
      </trkpt>
      <trkpt lat="45.95115" lon="6.05199">
        <ele>517.79998779297</ele>
        <time>2014-04-24T15:39:23.000Z</time>
      </trkpt>
      <trkpt lat="45.95132" lon="6.05183">
        <ele>512.20001220703</ele>
        <time>2014-04-24T15:39:26.000Z</time>
      </trkpt>
      <trkpt lat="45.95151" lon="6.05144">
        <ele>503.60000610352</ele>
        <time>2014-04-24T15:39:31.000Z</time>
      </trkpt>
      <trkpt lat="45.95151" lon="6.05125">
        <ele>501.39999389648</ele>
        <time>2014-04-24T15:39:33.000Z</time>
      </trkpt>
      <trkpt lat="45.95147" lon="6.05099">
        <ele>497.60000610352</ele>
        <time>2014-04-24T15:39:36.000Z</time>
      </trkpt>
      <trkpt lat="45.95152" lon="6.05052">
        <ele>494.20001220703</ele>
        <time>2014-04-24T15:39:41.000Z</time>
      </trkpt>
      <trkpt lat="45.95157" lon="6.0502">
        <ele>495.20001220703</ele>
        <time>2014-04-24T15:39:44.000Z</time>
      </trkpt>
      <trkpt lat="45.95154" lon="6.04977">
        <ele>491.20001220703</ele>
        <time>2014-04-24T15:39:48.000Z</time>
      </trkpt>
      <trkpt lat="45.95139" lon="6.04911">
        <ele>490.60000610352</ele>
        <time>2014-04-24T15:39:55.000Z</time>
      </trkpt>
      <trkpt lat="45.95127" lon="6.04861">
        <ele>490.39999389648</ele>
        <time>2014-04-24T15:40:01.000Z</time>
      </trkpt>
      <trkpt lat="45.95122" lon="6.04839">
        <ele>490</ele>
        <time>2014-04-24T15:40:04.000Z</time>
      </trkpt>
      <trkpt lat="45.95118" lon="6.04808">
        <ele>490</ele>
        <time>2014-04-24T15:40:08.000Z</time>
      </trkpt>
      <trkpt lat="45.95119" lon="6.04751">
        <ele>491.60000610352</ele>
        <time>2014-04-24T15:40:14.000Z</time>
      </trkpt>
      <trkpt lat="45.95131" lon="6.04669">
        <ele>492.79998779297</ele>
        <time>2014-04-24T15:40:22.000Z</time>
      </trkpt>
      <trkpt lat="45.95136" lon="6.04609">
        <ele>492.39999389648</ele>
        <time>2014-04-24T15:40:28.000Z</time>
      </trkpt>
      <trkpt lat="45.95134" lon="6.04579">
        <ele>492</ele>
        <time>2014-04-24T15:40:32.000Z</time>
      </trkpt>
      <trkpt lat="45.95123" lon="6.04572">
        <ele>491.39999389648</ele>
        <time>2014-04-24T15:40:34.000Z</time>
      </trkpt>
      <trkpt lat="45.95092" lon="6.04554">
        <ele>489.79998779297</ele>
        <time>2014-04-24T15:40:39.000Z</time>
      </trkpt>
      <trkpt lat="45.95066" lon="6.0452">
        <ele>488.79998779297</ele>
        <time>2014-04-24T15:40:44.000Z</time>
      </trkpt>
      <trkpt lat="45.95039" lon="6.04463">
        <ele>489</ele>
        <time>2014-04-24T15:40:51.000Z</time>
      </trkpt>
      <trkpt lat="45.95036" lon="6.0445">
        <ele>488.79998779297</ele>
        <time>2014-04-24T15:40:53.000Z</time>
      </trkpt>
      <trkpt lat="45.95035" lon="6.04447">
        <ele>488.79998779297</ele>
        <time>2014-04-24T15:40:57.000Z</time>
      </trkpt>
      <trkpt lat="45.95034" lon="6.04439">
        <ele>488.60000610352</ele>
        <time>2014-04-24T15:41:03.000Z</time>
      </trkpt>
      <trkpt lat="45.95016" lon="6.04412">
        <ele>488.39999389648</ele>
        <time>2014-04-24T15:41:09.000Z</time>
      </trkpt>
      <trkpt lat="45.9499" lon="6.04379">
        <ele>488.20001220703</ele>
        <time>2014-04-24T15:41:14.000Z</time>
      </trkpt>
      <trkpt lat="45.94948" lon="6.04328">
        <ele>487.39999389648</ele>
        <time>2014-04-24T15:41:21.000Z</time>
      </trkpt>
      <trkpt lat="45.94901" lon="6.04272">
        <ele>487.79998779297</ele>
        <time>2014-04-24T15:41:28.000Z</time>
      </trkpt>
      <trkpt lat="45.94848" lon="6.04212">
        <ele>484.20001220703</ele>
        <time>2014-04-24T15:41:35.000Z</time>
      </trkpt>
      <trkpt lat="45.94806" lon="6.04179">
        <ele>479.39999389648</ele>
        <time>2014-04-24T15:41:40.000Z</time>
      </trkpt>
      <trkpt lat="45.94756" lon="6.04162">
        <ele>479.20001220703</ele>
        <time>2014-04-24T15:41:46.000Z</time>
      </trkpt>
      <trkpt lat="45.94745" lon="6.04144">
        <ele>479</ele>
        <time>2014-04-24T15:41:50.000Z</time>
      </trkpt>
      <trkpt lat="45.94749" lon="6.04091">
        <ele>478.39999389648</ele>
        <time>2014-04-24T15:41:56.000Z</time>
      </trkpt>
      <trkpt lat="45.94753" lon="6.03994">
        <ele>478</ele>
        <time>2014-04-24T15:42:05.000Z</time>
      </trkpt>
      <trkpt lat="45.94755" lon="6.0395">
        <ele>479</ele>
        <time>2014-04-24T15:42:09.000Z</time>
      </trkpt>
      <trkpt lat="45.94768" lon="6.03914">
        <ele>479.39999389648</ele>
        <time>2014-04-24T15:42:13.000Z</time>
      </trkpt>
      <trkpt lat="45.94785" lon="6.03883">
        <ele>479.39999389648</ele>
        <time>2014-04-24T15:42:17.000Z</time>
      </trkpt>
      <trkpt lat="45.94811" lon="6.03854">
        <ele>479.39999389648</ele>
        <time>2014-04-24T15:42:22.000Z</time>
      </trkpt>
      <trkpt lat="45.94821" lon="6.03838">
        <ele>480.20001220703</ele>
        <time>2014-04-24T15:42:26.000Z</time>
      </trkpt>
      <trkpt lat="45.94815" lon="6.0384">
        <ele>480</ele>
        <time>2014-04-24T15:42:28.000Z</time>
      </trkpt>
      <trkpt lat="45.9481" lon="6.03845">
        <ele>479.79998779297</ele>
        <time>2014-04-24T15:42:30.000Z</time>
      </trkpt>
      <trkpt lat="45.9479" lon="6.03871">
        <ele>479.79998779297</ele>
        <time>2014-04-24T15:42:35.000Z</time>
      </trkpt>
      <trkpt lat="45.94786" lon="6.03877">
        <ele>479.60000610352</ele>
        <time>2014-04-24T15:42:36.000Z</time>
      </trkpt>
      <trkpt lat="45.94763" lon="6.03885">
        <ele>480</ele>
        <time>2014-04-24T15:42:40.000Z</time>
      </trkpt>
      <trkpt lat="45.94758" lon="6.03873">
        <ele>481</ele>
        <time>2014-04-24T15:42:42.000Z</time>
      </trkpt>
      <trkpt lat="45.94757" lon="6.03836">
        <ele>483</ele>
        <time>2014-04-24T15:42:47.000Z</time>
      </trkpt>
      <trkpt lat="45.9475" lon="6.03784">
        <ele>484.79998779297</ele>
        <time>2014-04-24T15:42:54.000Z</time>
      </trkpt>
      <trkpt lat="45.9474" lon="6.03719">
        <ele>486.20001220703</ele>
        <time>2014-04-24T15:43:03.000Z</time>
      </trkpt>
      <trkpt lat="45.9473" lon="6.03664">
        <ele>487.39999389648</ele>
        <time>2014-04-24T15:43:11.000Z</time>
      </trkpt>
      <trkpt lat="45.94718" lon="6.03604">
        <ele>489</ele>
        <time>2014-04-24T15:43:20.000Z</time>
      </trkpt>
      <trkpt lat="45.94709" lon="6.03553">
        <ele>490.39999389648</ele>
        <time>2014-04-24T15:43:28.000Z</time>
      </trkpt>
      <trkpt lat="45.94705" lon="6.03541">
        <ele>490.79998779297</ele>
        <time>2014-04-24T15:43:30.000Z</time>
      </trkpt>
      <trkpt lat="45.94696" lon="6.03524">
        <ele>491.79998779297</ele>
        <time>2014-04-24T15:43:33.000Z</time>
      </trkpt>
      <trkpt lat="45.94686" lon="6.03509">
        <ele>493.20001220703</ele>
        <time>2014-04-24T15:43:36.000Z</time>
      </trkpt>
      <trkpt lat="45.94671" lon="6.03493">
        <ele>495.39999389648</ele>
        <time>2014-04-24T15:43:40.000Z</time>
      </trkpt>
      <trkpt lat="45.9464" lon="6.03476">
        <ele>500</ele>
        <time>2014-04-24T15:43:47.000Z</time>
      </trkpt>
      <trkpt lat="45.94596" lon="6.03473">
        <ele>502.20001220703</ele>
        <time>2014-04-24T15:43:56.000Z</time>
      </trkpt>
      <trkpt lat="45.9458" lon="6.03473">
        <ele>502.79998779297</ele>
        <time>2014-04-24T15:43:59.000Z</time>
      </trkpt>
      <trkpt lat="45.94543" lon="6.03458">
        <ele>504</ele>
        <time>2014-04-24T15:44:06.000Z</time>
      </trkpt>
      <trkpt lat="45.94508" lon="6.03419">
        <ele>504</ele>
        <time>2014-04-24T15:44:13.000Z</time>
      </trkpt>
      <trkpt lat="45.94469" lon="6.0337">
        <ele>504</ele>
        <time>2014-04-24T15:44:21.000Z</time>
      </trkpt>
      <trkpt lat="45.94432" lon="6.0333">
        <ele>504.79998779297</ele>
        <time>2014-04-24T15:44:28.000Z</time>
      </trkpt>
      <trkpt lat="45.94395" lon="6.03295">
        <ele>505.60000610352</ele>
        <time>2014-04-24T15:44:35.000Z</time>
      </trkpt>
      <trkpt lat="45.94353" lon="6.03266">
        <ele>506</ele>
        <time>2014-04-24T15:44:42.000Z</time>
      </trkpt>
      <trkpt lat="45.94322" lon="6.03242">
        <ele>506</ele>
        <time>2014-04-24T15:44:47.000Z</time>
      </trkpt>
      <trkpt lat="45.94272" lon="6.03197">
        <ele>505.60000610352</ele>
        <time>2014-04-24T15:44:55.000Z</time>
      </trkpt>
      <trkpt lat="45.94232" lon="6.03158">
        <ele>505.60000610352</ele>
        <time>2014-04-24T15:45:02.000Z</time>
      </trkpt>
      <trkpt lat="45.94228" lon="6.03153">
        <ele>505.60000610352</ele>
        <time>2014-04-24T15:45:03.000Z</time>
      </trkpt>
      <trkpt lat="45.94215" lon="6.03137">
        <ele>506.79998779297</ele>
        <time>2014-04-24T15:45:06.000Z</time>
      </trkpt>
      <trkpt lat="45.94204" lon="6.03105">
        <ele>509.39999389648</ele>
        <time>2014-04-24T15:45:11.000Z</time>
      </trkpt>
      <trkpt lat="45.94207" lon="6.03077">
        <ele>510.20001220703</ele>
        <time>2014-04-24T15:45:15.000Z</time>
      </trkpt>
      <trkpt lat="45.94208" lon="6.03071">
        <ele>510.39999389648</ele>
        <time>2014-04-24T15:45:16.000Z</time>
      </trkpt>
      <trkpt lat="45.94225" lon="6.03008">
        <ele>512.59997558594</ele>
        <time>2014-04-24T15:45:26.000Z</time>
      </trkpt>
      <trkpt lat="45.94239" lon="6.02959">
        <ele>516.40002441406</ele>
        <time>2014-04-24T15:45:34.000Z</time>
      </trkpt>
      <trkpt lat="45.94245" lon="6.02943">
        <ele>518.40002441406</ele>
        <time>2014-04-24T15:45:37.000Z</time>
      </trkpt>
      <trkpt lat="45.94263" lon="6.02912">
        <ele>520.79998779297</ele>
        <time>2014-04-24T15:45:45.000Z</time>
      </trkpt>
      <trkpt lat="45.94284" lon="6.02893">
        <ele>521</ele>
        <time>2014-04-24T15:45:51.000Z</time>
      </trkpt>
      <trkpt lat="45.94301" lon="6.02871">
        <ele>521.40002441406</ele>
        <time>2014-04-24T15:45:57.000Z</time>
      </trkpt>
      <trkpt lat="45.94314" lon="6.02834">
        <ele>522.79998779297</ele>
        <time>2014-04-24T15:46:04.000Z</time>
      </trkpt>
      <trkpt lat="45.94314" lon="6.02784">
        <ele>526.79998779297</ele>
        <time>2014-04-24T15:46:13.000Z</time>
      </trkpt>
      <trkpt lat="45.94315" lon="6.02744">
        <ele>530.20001220703</ele>
        <time>2014-04-24T15:46:20.000Z</time>
      </trkpt>
      <trkpt lat="45.94319" lon="6.02721">
        <ele>532.59997558594</ele>
        <time>2014-04-24T15:46:24.000Z</time>
      </trkpt>
      <trkpt lat="45.94335" lon="6.02694">
        <ele>536.20001220703</ele>
        <time>2014-04-24T15:46:30.000Z</time>
      </trkpt>
      <trkpt lat="45.94343" lon="6.02688">
        <ele>537</ele>
        <time>2014-04-24T15:46:32.000Z</time>
      </trkpt>
      <trkpt lat="45.94354" lon="6.02683">
        <ele>537.59997558594</ele>
        <time>2014-04-24T15:46:35.000Z</time>
      </trkpt>
      <trkpt lat="45.94393" lon="6.0268">
        <ele>538.20001220703</ele>
        <time>2014-04-24T15:46:44.000Z</time>
      </trkpt>
      <trkpt lat="45.94424" lon="6.0268">
        <ele>538.40002441406</ele>
        <time>2014-04-24T15:46:51.000Z</time>
      </trkpt>
      <trkpt lat="45.94467" lon="6.0268">
        <ele>538.59997558594</ele>
        <time>2014-04-24T15:47:01.000Z</time>
      </trkpt>
      <trkpt lat="45.94502" lon="6.02673">
        <ele>541</ele>
        <time>2014-04-24T15:47:09.000Z</time>
      </trkpt>
      <trkpt lat="45.9451" lon="6.02668">
        <ele>541.59997558594</ele>
        <time>2014-04-24T15:47:11.000Z</time>
      </trkpt>
      <trkpt lat="45.94537" lon="6.02641">
        <ele>544</ele>
        <time>2014-04-24T15:47:18.000Z</time>
      </trkpt>
      <trkpt lat="45.94556" lon="6.02597">
        <ele>547.79998779297</ele>
        <time>2014-04-24T15:47:26.000Z</time>
      </trkpt>
      <trkpt lat="45.94571" lon="6.02546">
        <ele>551.20001220703</ele>
        <time>2014-04-24T15:47:35.000Z</time>
      </trkpt>
      <trkpt lat="45.94593" lon="6.02494">
        <ele>554</ele>
        <time>2014-04-24T15:47:45.000Z</time>
      </trkpt>
      <trkpt lat="45.9462" lon="6.02423">
        <ele>558.40002441406</ele>
        <time>2014-04-24T15:47:58.000Z</time>
      </trkpt>
      <trkpt lat="45.94638" lon="6.02374">
        <ele>561</ele>
        <time>2014-04-24T15:48:07.000Z</time>
      </trkpt>
      <trkpt lat="45.94656" lon="6.02326">
        <ele>563.79998779297</ele>
        <time>2014-04-24T15:48:16.000Z</time>
      </trkpt>
      <trkpt lat="45.94675" lon="6.02277">
        <ele>565</ele>
        <time>2014-04-24T15:48:25.000Z</time>
      </trkpt>
      <trkpt lat="45.94681" lon="6.02262">
        <ele>565.20001220703</ele>
        <time>2014-04-24T15:48:28.000Z</time>
      </trkpt>
      <trkpt lat="45.94692" lon="6.02236">
        <ele>565.79998779297</ele>
        <time>2014-04-24T15:48:33.000Z</time>
      </trkpt>
      <trkpt lat="45.94705" lon="6.02201">
        <ele>567</ele>
        <time>2014-04-24T15:48:40.000Z</time>
      </trkpt>
      <trkpt lat="45.94718" lon="6.02166">
        <ele>568.20001220703</ele>
        <time>2014-04-24T15:48:47.000Z</time>
      </trkpt>
      <trkpt lat="45.94731" lon="6.02133">
        <ele>569.79998779297</ele>
        <time>2014-04-24T15:48:53.000Z</time>
      </trkpt>
      <trkpt lat="45.9475" lon="6.02084">
        <ele>573.79998779297</ele>
        <time>2014-04-24T15:49:02.000Z</time>
      </trkpt>
      <trkpt lat="45.94767" lon="6.02038">
        <ele>576</ele>
        <time>2014-04-24T15:49:10.000Z</time>
      </trkpt>
      <trkpt lat="45.94785" lon="6.01987">
        <ele>578.20001220703</ele>
        <time>2014-04-24T15:49:19.000Z</time>
      </trkpt>
      <trkpt lat="45.94801" lon="6.01942">
        <ele>580</ele>
        <time>2014-04-24T15:49:28.000Z</time>
      </trkpt>
      <trkpt lat="45.94815" lon="6.01899">
        <ele>581.40002441406</ele>
        <time>2014-04-24T15:49:36.000Z</time>
      </trkpt>
      <trkpt lat="45.94822" lon="6.01876">
        <ele>581.79998779297</ele>
        <time>2014-04-24T15:49:40.000Z</time>
      </trkpt>
      <trkpt lat="45.94831" lon="6.01821">
        <ele>583</ele>
        <time>2014-04-24T15:49:49.000Z</time>
      </trkpt>
      <trkpt lat="45.94834" lon="6.0178">
        <ele>584.79998779297</ele>
        <time>2014-04-24T15:49:55.000Z</time>
      </trkpt>
      <trkpt lat="45.94837" lon="6.01735">
        <ele>587.40002441406</ele>
        <time>2014-04-24T15:50:02.000Z</time>
      </trkpt>
      <trkpt lat="45.94843" lon="6.01674">
        <ele>591</ele>
        <time>2014-04-24T15:50:11.000Z</time>
      </trkpt>
      <trkpt lat="45.94856" lon="6.01647">
        <ele>592.20001220703</ele>
        <time>2014-04-24T15:50:16.000Z</time>
      </trkpt>
      <trkpt lat="45.94863" lon="6.01639">
        <ele>592.59997558594</ele>
        <time>2014-04-24T15:50:18.000Z</time>
      </trkpt>
      <trkpt lat="45.94878" lon="6.01626">
        <ele>592.40002441406</ele>
        <time>2014-04-24T15:50:22.000Z</time>
      </trkpt>
      <trkpt lat="45.94887" lon="6.01622">
        <ele>592.79998779297</ele>
        <time>2014-04-24T15:50:24.000Z</time>
      </trkpt>
      <trkpt lat="45.94912" lon="6.01622">
        <ele>593.79998779297</ele>
        <time>2014-04-24T15:50:30.000Z</time>
      </trkpt>
      <trkpt lat="45.94942" lon="6.01626">
        <ele>594.79998779297</ele>
        <time>2014-04-24T15:50:37.000Z</time>
      </trkpt>
      <trkpt lat="45.94958" lon="6.01629">
        <ele>595.40002441406</ele>
        <time>2014-04-24T15:50:41.000Z</time>
      </trkpt>
      <trkpt lat="45.94974" lon="6.0163">
        <ele>596</ele>
        <time>2014-04-24T15:50:47.000Z</time>
      </trkpt>
      <trkpt lat="45.94988" lon="6.01629">
        <ele>596.79998779297</ele>
        <time>2014-04-24T15:50:52.000Z</time>
      </trkpt>
      <trkpt lat="45.95013" lon="6.01614">
        <ele>599.20001220703</ele>
        <time>2014-04-24T15:50:59.000Z</time>
      </trkpt>
      <trkpt lat="45.95034" lon="6.01592">
        <ele>601.79998779297</ele>
        <time>2014-04-24T15:51:05.000Z</time>
      </trkpt>
      <trkpt lat="45.95046" lon="6.01565">
        <ele>604.20001220703</ele>
        <time>2014-04-24T15:51:10.000Z</time>
      </trkpt>
      <trkpt lat="45.95053" lon="6.01531">
        <ele>605.59997558594</ele>
        <time>2014-04-24T15:51:15.000Z</time>
      </trkpt>
      <trkpt lat="45.95055" lon="6.01518">
        <ele>606</ele>
        <time>2014-04-24T15:51:17.000Z</time>
      </trkpt>
      <trkpt lat="45.95063" lon="6.0146">
        <ele>607.59997558594</ele>
        <time>2014-04-24T15:51:26.000Z</time>
      </trkpt>
      <trkpt lat="45.95072" lon="6.01405">
        <ele>609.40002441406</ele>
        <time>2014-04-24T15:51:34.000Z</time>
      </trkpt>
      <trkpt lat="45.9508" lon="6.01342">
        <ele>609.20001220703</ele>
        <time>2014-04-24T15:51:42.000Z</time>
      </trkpt>
      <trkpt lat="45.95093" lon="6.01282">
        <ele>607.20001220703</ele>
        <time>2014-04-24T15:51:49.000Z</time>
      </trkpt>
      <trkpt lat="45.9511" lon="6.01235">
        <ele>605.59997558594</ele>
        <time>2014-04-24T15:51:55.000Z</time>
      </trkpt>
      <trkpt lat="45.95134" lon="6.01174">
        <ele>604.40002441406</ele>
        <time>2014-04-24T15:52:02.000Z</time>
      </trkpt>
      <trkpt lat="45.9516" lon="6.01109">
        <ele>603.40002441406</ele>
        <time>2014-04-24T15:52:09.000Z</time>
      </trkpt>
      <trkpt lat="45.95193" lon="6.01019">
        <ele>600.59997558594</ele>
        <time>2014-04-24T15:52:18.000Z</time>
      </trkpt>
      <trkpt lat="45.95233" lon="6.00918">
        <ele>600.59997558594</ele>
        <time>2014-04-24T15:52:28.000Z</time>
      </trkpt>
      <trkpt lat="45.95263" lon="6.00861">
        <ele>601.59997558594</ele>
        <time>2014-04-24T15:52:34.000Z</time>
      </trkpt>
      <trkpt lat="45.953" lon="6.00816">
        <ele>599.59997558594</ele>
        <time>2014-04-24T15:52:40.000Z</time>
      </trkpt>
      <trkpt lat="45.95333" lon="6.00787">
        <ele>599.59997558594</ele>
        <time>2014-04-24T15:52:45.000Z</time>
      </trkpt>
      <trkpt lat="45.95391" lon="6.00756">
        <ele>597.79998779297</ele>
        <time>2014-04-24T15:52:53.000Z</time>
      </trkpt>
      <trkpt lat="45.95471" lon="6.00716">
        <ele>597</ele>
        <time>2014-04-24T15:53:04.000Z</time>
      </trkpt>
      <trkpt lat="45.95543" lon="6.00679">
        <ele>596.59997558594</ele>
        <time>2014-04-24T15:53:13.000Z</time>
      </trkpt>
      <trkpt lat="45.95598" lon="6.0064">
        <ele>596.59997558594</ele>
        <time>2014-04-24T15:53:20.000Z</time>
      </trkpt>
      <trkpt lat="45.9563" lon="6.00613">
        <ele>597.40002441406</ele>
        <time>2014-04-24T15:53:25.000Z</time>
      </trkpt>
      <trkpt lat="45.9566" lon="6.00589">
        <ele>598.40002441406</ele>
        <time>2014-04-24T15:53:31.000Z</time>
      </trkpt>
      <trkpt lat="45.95689" lon="6.00564">
        <ele>600.59997558594</ele>
        <time>2014-04-24T15:53:38.000Z</time>
      </trkpt>
      <trkpt lat="45.95724" lon="6.00535">
        <ele>603.59997558594</ele>
        <time>2014-04-24T15:53:46.000Z</time>
      </trkpt>
      <trkpt lat="45.95771" lon="6.00495">
        <ele>606.79998779297</ele>
        <time>2014-04-24T15:53:57.000Z</time>
      </trkpt>
      <trkpt lat="45.95807" lon="6.00463">
        <ele>610</ele>
        <time>2014-04-24T15:54:06.000Z</time>
      </trkpt>
      <trkpt lat="45.95833" lon="6.00426">
        <ele>611</ele>
        <time>2014-04-24T15:54:14.000Z</time>
      </trkpt>
      <trkpt lat="45.95851" lon="6.00383">
        <ele>613.20001220703</ele>
        <time>2014-04-24T15:54:21.000Z</time>
      </trkpt>
      <trkpt lat="45.95871" lon="6.00324">
        <ele>615.20001220703</ele>
        <time>2014-04-24T15:54:30.000Z</time>
      </trkpt>
      <trkpt lat="45.95875" lon="6.00311">
        <ele>615.20001220703</ele>
        <time>2014-04-24T15:54:32.000Z</time>
      </trkpt>
      <trkpt lat="45.95883" lon="6.00292">
        <ele>615.59997558594</ele>
        <time>2014-04-24T15:54:35.000Z</time>
      </trkpt>
      <trkpt lat="45.9591" lon="6.00258">
        <ele>617.20001220703</ele>
        <time>2014-04-24T15:54:41.000Z</time>
      </trkpt>
      <trkpt lat="45.95953" lon="6.00212">
        <ele>618.59997558594</ele>
        <time>2014-04-24T15:54:49.000Z</time>
      </trkpt>
      <trkpt lat="45.95963" lon="6.00202">
        <ele>618.79998779297</ele>
        <time>2014-04-24T15:54:51.000Z</time>
      </trkpt>
      <trkpt lat="45.96006" lon="6.00178">
        <ele>619.40002441406</ele>
        <time>2014-04-24T15:54:58.000Z</time>
      </trkpt>
      <trkpt lat="45.96025" lon="6.0017">
        <ele>619.40002441406</ele>
        <time>2014-04-24T15:55:01.000Z</time>
      </trkpt>
      <trkpt lat="45.96048" lon="6.00146">
        <ele>620</ele>
        <time>2014-04-24T15:55:06.000Z</time>
      </trkpt>
      <trkpt lat="45.96054" lon="6.00129">
        <ele>621</ele>
        <time>2014-04-24T15:55:09.000Z</time>
      </trkpt>
      <trkpt lat="45.96065" lon="6.0011">
        <ele>622.40002441406</ele>
        <time>2014-04-24T15:55:13.000Z</time>
      </trkpt>
      <trkpt lat="45.96085" lon="6.00077">
        <ele>625.40002441406</ele>
        <time>2014-04-24T15:55:20.000Z</time>
      </trkpt>
      <trkpt lat="45.96093" lon="6.00064">
        <ele>626.79998779297</ele>
        <time>2014-04-24T15:55:23.000Z</time>
      </trkpt>
      <trkpt lat="45.96102" lon="6.00037">
        <ele>628.59997558594</ele>
        <time>2014-04-24T15:55:28.000Z</time>
      </trkpt>
      <trkpt lat="45.96104" lon="6.00005">
        <ele>630.20001220703</ele>
        <time>2014-04-24T15:55:33.000Z</time>
      </trkpt>
      <trkpt lat="45.96103" lon="5.99952">
        <ele>633.20001220703</ele>
        <time>2014-04-24T15:55:41.000Z</time>
      </trkpt>
      <trkpt lat="45.96101" lon="5.99895">
        <ele>637.79998779297</ele>
        <time>2014-04-24T15:55:50.000Z</time>
      </trkpt>
      <trkpt lat="45.96094" lon="5.99859">
        <ele>640.40002441406</ele>
        <time>2014-04-24T15:55:56.000Z</time>
      </trkpt>
      <trkpt lat="45.96076" lon="5.99807">
        <ele>644</ele>
        <time>2014-04-24T15:56:05.000Z</time>
      </trkpt>
      <trkpt lat="45.96064" lon="5.99779">
        <ele>644.79998779297</ele>
        <time>2014-04-24T15:56:10.000Z</time>
      </trkpt>
      <trkpt lat="45.96052" lon="5.99747">
        <ele>645.79998779297</ele>
        <time>2014-04-24T15:56:16.000Z</time>
      </trkpt>
      <trkpt lat="45.96034" lon="5.99699">
        <ele>647.40002441406</ele>
        <time>2014-04-24T15:56:25.000Z</time>
      </trkpt>
      <trkpt lat="45.96024" lon="5.99674">
        <ele>648.59997558594</ele>
        <time>2014-04-24T15:56:31.000Z</time>
      </trkpt>
      <trkpt lat="45.96012" lon="5.99642">
        <ele>650.20001220703</ele>
        <time>2014-04-24T15:56:38.000Z</time>
      </trkpt>
      <trkpt lat="45.95996" lon="5.99601">
        <ele>651.20001220703</ele>
        <time>2014-04-24T15:56:46.000Z</time>
      </trkpt>
      <trkpt lat="45.9598" lon="5.99562">
        <ele>652.20001220703</ele>
        <time>2014-04-24T15:56:53.000Z</time>
      </trkpt>
      <trkpt lat="45.95965" lon="5.99517">
        <ele>654.20001220703</ele>
        <time>2014-04-24T15:57:00.000Z</time>
      </trkpt>
      <trkpt lat="45.95963" lon="5.99467">
        <ele>655.79998779297</ele>
        <time>2014-04-24T15:57:06.000Z</time>
      </trkpt>
      <trkpt lat="45.95969" lon="5.99402">
        <ele>654.20001220703</ele>
        <time>2014-04-24T15:57:13.000Z</time>
      </trkpt>
      <trkpt lat="45.95978" lon="5.99327">
        <ele>653.40002441406</ele>
        <time>2014-04-24T15:57:20.000Z</time>
      </trkpt>
      <trkpt lat="45.95992" lon="5.99224">
        <ele>652.59997558594</ele>
        <time>2014-04-24T15:57:29.000Z</time>
      </trkpt>
      <trkpt lat="45.95998" lon="5.99201">
        <ele>651.59997558594</ele>
        <time>2014-04-24T15:57:31.000Z</time>
      </trkpt>
      <trkpt lat="45.96021" lon="5.99151">
        <ele>651.79998779297</ele>
        <time>2014-04-24T15:57:36.000Z</time>
      </trkpt>
      <trkpt lat="45.96064" lon="5.99111">
        <ele>653.59997558594</ele>
        <time>2014-04-24T15:57:42.000Z</time>
      </trkpt>
      <trkpt lat="45.96129" lon="5.99064">
        <ele>654.40002441406</ele>
        <time>2014-04-24T15:57:51.000Z</time>
      </trkpt>
      <trkpt lat="45.96172" lon="5.99023">
        <ele>654.79998779297</ele>
        <time>2014-04-24T15:57:57.000Z</time>
      </trkpt>
      <trkpt lat="45.96213" lon="5.9897">
        <ele>657.20001220703</ele>
        <time>2014-04-24T15:58:04.000Z</time>
      </trkpt>
      <trkpt lat="45.96263" lon="5.98912">
        <ele>653.40002441406</ele>
        <time>2014-04-24T15:58:12.000Z</time>
      </trkpt>
      <trkpt lat="45.96293" lon="5.98872">
        <ele>650.20001220703</ele>
        <time>2014-04-24T15:58:17.000Z</time>
      </trkpt>
      <trkpt lat="45.96313" lon="5.98823">
        <ele>652.59997558594</ele>
        <time>2014-04-24T15:58:22.000Z</time>
      </trkpt>
      <trkpt lat="45.96315" lon="5.98812">
        <ele>652.79998779297</ele>
        <time>2014-04-24T15:58:23.000Z</time>
      </trkpt>
      <trkpt lat="45.96316" lon="5.98743">
        <ele>652.20001220703</ele>
        <time>2014-04-24T15:58:29.000Z</time>
      </trkpt>
      <trkpt lat="45.96313" lon="5.98664">
        <ele>649.59997558594</ele>
        <time>2014-04-24T15:58:36.000Z</time>
      </trkpt>
      <trkpt lat="45.9631" lon="5.98609">
        <ele>649.79998779297</ele>
        <time>2014-04-24T15:58:41.000Z</time>
      </trkpt>
      <trkpt lat="45.96305" lon="5.98501">
        <ele>650.59997558594</ele>
        <time>2014-04-24T15:58:51.000Z</time>
      </trkpt>
      <trkpt lat="45.96304" lon="5.98441">
        <ele>649.20001220703</ele>
        <time>2014-04-24T15:58:57.000Z</time>
      </trkpt>
      <trkpt lat="45.96314" lon="5.9839">
        <ele>649</ele>
        <time>2014-04-24T15:59:02.000Z</time>
      </trkpt>
      <trkpt lat="45.96331" lon="5.98368">
        <ele>650.20001220703</ele>
        <time>2014-04-24T15:59:05.000Z</time>
      </trkpt>
      <trkpt lat="45.96346" lon="5.98359">
        <ele>652</ele>
        <time>2014-04-24T15:59:07.000Z</time>
      </trkpt>
      <trkpt lat="45.96399" lon="5.98339">
        <ele>657</ele>
        <time>2014-04-24T15:59:14.000Z</time>
      </trkpt>
      <trkpt lat="45.96406" lon="5.98336">
        <ele>657.59997558594</ele>
        <time>2014-04-24T15:59:15.000Z</time>
      </trkpt>
      <trkpt lat="45.96432" lon="5.9831">
        <ele>658.59997558594</ele>
        <time>2014-04-24T15:59:19.000Z</time>
      </trkpt>
      <trkpt lat="45.96435" lon="5.983">
        <ele>657.40002441406</ele>
        <time>2014-04-24T15:59:20.000Z</time>
      </trkpt>
      <trkpt lat="45.96434" lon="5.98243">
        <ele>649</ele>
        <time>2014-04-24T15:59:25.000Z</time>
      </trkpt>
      <trkpt lat="45.96435" lon="5.9822">
        <ele>646.59997558594</ele>
        <time>2014-04-24T15:59:27.000Z</time>
      </trkpt>
      <trkpt lat="45.9645" lon="5.9811">
        <ele>641.79998779297</ele>
        <time>2014-04-24T15:59:36.000Z</time>
      </trkpt>
      <trkpt lat="45.96466" lon="5.98034">
        <ele>640.59997558594</ele>
        <time>2014-04-24T15:59:42.000Z</time>
      </trkpt>
      <trkpt lat="45.9649" lon="5.97992">
        <ele>636.79998779297</ele>
        <time>2014-04-24T15:59:46.000Z</time>
      </trkpt>
      <trkpt lat="45.96518" lon="5.97981">
        <ele>632.20001220703</ele>
        <time>2014-04-24T15:59:49.000Z</time>
      </trkpt>
      <trkpt lat="45.96546" lon="5.97991">
        <ele>630.59997558594</ele>
        <time>2014-04-24T15:59:52.000Z</time>
      </trkpt>
      <trkpt lat="45.96562" lon="5.98004">
        <ele>630.59997558594</ele>
        <time>2014-04-24T15:59:54.000Z</time>
      </trkpt>
      <trkpt lat="45.96609" lon="5.98049">
        <ele>631</ele>
        <time>2014-04-24T16:00:00.000Z</time>
      </trkpt>
      <trkpt lat="45.96653" lon="5.98075">
        <ele>630.20001220703</ele>
        <time>2014-04-24T16:00:05.000Z</time>
      </trkpt>
      <trkpt lat="45.96722" lon="5.98095">
        <ele>629.40002441406</ele>
        <time>2014-04-24T16:00:12.000Z</time>
      </trkpt>
      <trkpt lat="45.96853" lon="5.98128">
        <ele>627</ele>
        <time>2014-04-24T16:00:25.000Z</time>
      </trkpt>
      <trkpt lat="45.96957" lon="5.98154">
        <ele>623.20001220703</ele>
        <time>2014-04-24T16:00:35.000Z</time>
      </trkpt>
      <trkpt lat="45.9703" lon="5.98173">
        <ele>620</ele>
        <time>2014-04-24T16:00:42.000Z</time>
      </trkpt>
      <trkpt lat="45.97083" lon="5.98181">
        <ele>617.40002441406</ele>
        <time>2014-04-24T16:00:47.000Z</time>
      </trkpt>
      <trkpt lat="45.97132" lon="5.98162">
        <ele>615.20001220703</ele>
        <time>2014-04-24T16:00:52.000Z</time>
      </trkpt>
      <trkpt lat="45.97157" lon="5.98136">
        <ele>612.79998779297</ele>
        <time>2014-04-24T16:00:55.000Z</time>
      </trkpt>
      <trkpt lat="45.97182" lon="5.98088">
        <ele>610.59997558594</ele>
        <time>2014-04-24T16:00:59.000Z</time>
      </trkpt>
      <trkpt lat="45.97198" lon="5.98022">
        <ele>609.79998779297</ele>
        <time>2014-04-24T16:01:04.000Z</time>
      </trkpt>
      <trkpt lat="45.9721" lon="5.9793">
        <ele>611.79998779297</ele>
        <time>2014-04-24T16:01:12.000Z</time>
      </trkpt>
      <trkpt lat="45.97223" lon="5.97837">
        <ele>615.20001220703</ele>
        <time>2014-04-24T16:01:21.000Z</time>
      </trkpt>
      <trkpt lat="45.97235" lon="5.97738">
        <ele>617.59997558594</ele>
        <time>2014-04-24T16:01:31.000Z</time>
      </trkpt>
      <trkpt lat="45.97247" lon="5.9764">
        <ele>617.40002441406</ele>
        <time>2014-04-24T16:01:41.000Z</time>
      </trkpt>
      <trkpt lat="45.97253" lon="5.97584">
        <ele>617.40002441406</ele>
        <time>2014-04-24T16:01:47.000Z</time>
      </trkpt>
      <trkpt lat="45.97263" lon="5.9752">
        <ele>617.20001220703</ele>
        <time>2014-04-24T16:01:54.000Z</time>
      </trkpt>
      <trkpt lat="45.97276" lon="5.97469">
        <ele>617.40002441406</ele>
        <time>2014-04-24T16:02:00.000Z</time>
      </trkpt>
      <trkpt lat="45.97302" lon="5.97409">
        <ele>618</ele>
        <time>2014-04-24T16:02:08.000Z</time>
      </trkpt>
      <trkpt lat="45.97331" lon="5.97352">
        <ele>617.59997558594</ele>
        <time>2014-04-24T16:02:15.000Z</time>
      </trkpt>
      <trkpt lat="45.97353" lon="5.97275">
        <ele>612.20001220703</ele>
        <time>2014-04-24T16:02:22.000Z</time>
      </trkpt>
      <trkpt lat="45.97382" lon="5.97177">
        <ele>607.59997558594</ele>
        <time>2014-04-24T16:02:30.000Z</time>
      </trkpt>
      <trkpt lat="45.97413" lon="5.97076">
        <ele>605.40002441406</ele>
        <time>2014-04-24T16:02:38.000Z</time>
      </trkpt>
      <trkpt lat="45.97421" lon="5.97036">
        <ele>605.79998779297</ele>
        <time>2014-04-24T16:02:41.000Z</time>
      </trkpt>
      <trkpt lat="45.97425" lon="5.96966">
        <ele>603</ele>
        <time>2014-04-24T16:02:46.000Z</time>
      </trkpt>
      <trkpt lat="45.97425" lon="5.96951">
        <ele>602.40002441406</ele>
        <time>2014-04-24T16:02:47.000Z</time>
      </trkpt>
      <trkpt lat="45.97441" lon="5.96903">
        <ele>600.79998779297</ele>
        <time>2014-04-24T16:02:51.000Z</time>
      </trkpt>
      <trkpt lat="45.97455" lon="5.96886">
        <ele>600.59997558594</ele>
        <time>2014-04-24T16:02:53.000Z</time>
      </trkpt>
      <trkpt lat="45.9749" lon="5.96846">
        <ele>601.59997558594</ele>
        <time>2014-04-24T16:02:58.000Z</time>
      </trkpt>
      <trkpt lat="45.975" lon="5.96801">
        <ele>602.20001220703</ele>
        <time>2014-04-24T16:03:02.000Z</time>
      </trkpt>
      <trkpt lat="45.97499" lon="5.96789">
        <ele>602</ele>
        <time>2014-04-24T16:03:03.000Z</time>
      </trkpt>
      <trkpt lat="45.97483" lon="5.96682">
        <ele>600.40002441406</ele>
        <time>2014-04-24T16:03:12.000Z</time>
      </trkpt>
      <trkpt lat="45.97482" lon="5.96606">
        <ele>601</ele>
        <time>2014-04-24T16:03:18.000Z</time>
      </trkpt>
      <trkpt lat="45.97486" lon="5.96521">
        <ele>600.59997558594</ele>
        <time>2014-04-24T16:03:25.000Z</time>
      </trkpt>
      <trkpt lat="45.97501" lon="5.9648">
        <ele>601.79998779297</ele>
        <time>2014-04-24T16:03:29.000Z</time>
      </trkpt>
      <trkpt lat="45.97508" lon="5.96473">
        <ele>602.40002441406</ele>
        <time>2014-04-24T16:03:30.000Z</time>
      </trkpt>
      <trkpt lat="45.9752" lon="5.9646">
        <ele>603.79998779297</ele>
        <time>2014-04-24T16:03:32.000Z</time>
      </trkpt>
      <trkpt lat="45.9755" lon="5.96441">
        <ele>607.20001220703</ele>
        <time>2014-04-24T16:03:37.000Z</time>
      </trkpt>
      <trkpt lat="45.97559" lon="5.96433">
        <ele>607.20001220703</ele>
        <time>2014-04-24T16:03:39.000Z</time>
      </trkpt>
      <trkpt lat="45.9759" lon="5.96407">
        <ele>609.79998779297</ele>
        <time>2014-04-24T16:03:46.000Z</time>
      </trkpt>
      <trkpt lat="45.97621" lon="5.96377">
        <ele>611.20001220703</ele>
        <time>2014-04-24T16:03:53.000Z</time>
      </trkpt>
      <trkpt lat="45.97651" lon="5.96338">
        <ele>610.20001220703</ele>
        <time>2014-04-24T16:04:00.000Z</time>
      </trkpt>
      <trkpt lat="45.97674" lon="5.96295">
        <ele>606.79998779297</ele>
        <time>2014-04-24T16:04:06.000Z</time>
      </trkpt>
      <trkpt lat="45.97695" lon="5.96233">
        <ele>603.79998779297</ele>
        <time>2014-04-24T16:04:13.000Z</time>
      </trkpt>
      <trkpt lat="45.97722" lon="5.96139">
        <ele>604.59997558594</ele>
        <time>2014-04-24T16:04:23.000Z</time>
      </trkpt>
      <trkpt lat="45.97745" lon="5.96079">
        <ele>604.20001220703</ele>
        <time>2014-04-24T16:04:30.000Z</time>
      </trkpt>
      <trkpt lat="45.97784" lon="5.96002">
        <ele>605.79998779297</ele>
        <time>2014-04-24T16:04:40.000Z</time>
      </trkpt>
      <trkpt lat="45.97812" lon="5.95944">
        <ele>605.40002441406</ele>
        <time>2014-04-24T16:04:48.000Z</time>
      </trkpt>
      <trkpt lat="45.97828" lon="5.959">
        <ele>605</ele>
        <time>2014-04-24T16:04:54.000Z</time>
      </trkpt>
      <trkpt lat="45.97849" lon="5.95826">
        <ele>606.20001220703</ele>
        <time>2014-04-24T16:05:04.000Z</time>
      </trkpt>
      <trkpt lat="45.97861" lon="5.95769">
        <ele>607.79998779297</ele>
        <time>2014-04-24T16:05:12.000Z</time>
      </trkpt>
      <trkpt lat="45.97869" lon="5.95712">
        <ele>606.40002441406</ele>
        <time>2014-04-24T16:05:20.000Z</time>
      </trkpt>
      <trkpt lat="45.9787" lon="5.95688">
        <ele>607.20001220703</ele>
        <time>2014-04-24T16:05:23.000Z</time>
      </trkpt>
      <trkpt lat="45.97861" lon="5.95632">
        <ele>610.79998779297</ele>
        <time>2014-04-24T16:05:30.000Z</time>
      </trkpt>
      <trkpt lat="45.97857" lon="5.95602">
        <ele>616</ele>
        <time>2014-04-24T16:05:34.000Z</time>
      </trkpt>
      <trkpt lat="45.97853" lon="5.95586">
        <ele>618.40002441406</ele>
        <time>2014-04-24T16:05:36.000Z</time>
      </trkpt>
      <trkpt lat="45.97848" lon="5.95567">
        <ele>621.20001220703</ele>
        <time>2014-04-24T16:05:39.000Z</time>
      </trkpt>
      <trkpt lat="45.97843" lon="5.95535">
        <ele>625.40002441406</ele>
        <time>2014-04-24T16:05:44.000Z</time>
      </trkpt>
      <trkpt lat="45.97839" lon="5.95502">
        <ele>629.40002441406</ele>
        <time>2014-04-24T16:05:49.000Z</time>
      </trkpt>
      <trkpt lat="45.97838" lon="5.95477">
        <ele>630.20001220703</ele>
        <time>2014-04-24T16:05:53.000Z</time>
      </trkpt>
      <trkpt lat="45.97832" lon="5.95447">
        <ele>633.20001220703</ele>
        <time>2014-04-24T16:05:58.000Z</time>
      </trkpt>
      <trkpt lat="45.97841" lon="5.95406">
        <ele>633.59997558594</ele>
        <time>2014-04-24T16:06:04.000Z</time>
      </trkpt>
      <trkpt lat="45.97859" lon="5.95403">
        <ele>629.59997558594</ele>
        <time>2014-04-24T16:06:07.000Z</time>
      </trkpt>
      <trkpt lat="45.97876" lon="5.95401">
        <ele>626</ele>
        <time>2014-04-24T16:06:10.000Z</time>
      </trkpt>
      <trkpt lat="45.97891" lon="5.95394">
        <ele>623.59997558594</ele>
        <time>2014-04-24T16:06:13.000Z</time>
      </trkpt>
      <trkpt lat="45.9791" lon="5.95365">
        <ele>625</ele>
        <time>2014-04-24T16:06:18.000Z</time>
      </trkpt>
      <trkpt lat="45.97913" lon="5.95335">
        <ele>628</ele>
        <time>2014-04-24T16:06:22.000Z</time>
      </trkpt>
      <trkpt lat="45.97912" lon="5.95304">
        <ele>630</ele>
        <time>2014-04-24T16:06:26.000Z</time>
      </trkpt>
      <trkpt lat="45.9791" lon="5.95288">
        <ele>630.20001220703</ele>
        <time>2014-04-24T16:06:28.000Z</time>
      </trkpt>
      <trkpt lat="45.97908" lon="5.9526">
        <ele>630.20001220703</ele>
        <time>2014-04-24T16:06:31.000Z</time>
      </trkpt>
      <trkpt lat="45.97909" lon="5.95211">
        <ele>628.79998779297</ele>
        <time>2014-04-24T16:06:37.000Z</time>
      </trkpt>
      <trkpt lat="45.97904" lon="5.95157">
        <ele>625.79998779297</ele>
        <time>2014-04-24T16:06:42.000Z</time>
      </trkpt>
      <trkpt lat="45.97892" lon="5.9511">
        <ele>625</ele>
        <time>2014-04-24T16:06:46.000Z</time>
      </trkpt>
      <trkpt lat="45.97886" lon="5.9505">
        <ele>622.40002441406</ele>
        <time>2014-04-24T16:06:51.000Z</time>
      </trkpt>
      <trkpt lat="45.97902" lon="5.95018">
        <ele>619.20001220703</ele>
        <time>2014-04-24T16:06:54.000Z</time>
      </trkpt>
      <trkpt lat="45.9792" lon="5.95006">
        <ele>614.40002441406</ele>
        <time>2014-04-24T16:06:56.000Z</time>
      </trkpt>
      <trkpt lat="45.97989" lon="5.94955">
        <ele>609</ele>
        <time>2014-04-24T16:07:04.000Z</time>
      </trkpt>
      <trkpt lat="45.97998" lon="5.94949">
        <ele>608</ele>
        <time>2014-04-24T16:07:05.000Z</time>
      </trkpt>
      <trkpt lat="45.98037" lon="5.94941">
        <ele>604.20001220703</ele>
        <time>2014-04-24T16:07:09.000Z</time>
      </trkpt>
      <trkpt lat="45.98067" lon="5.94938">
        <ele>603</ele>
        <time>2014-04-24T16:07:12.000Z</time>
      </trkpt>
      <trkpt lat="45.98094" lon="5.94918">
        <ele>603.40002441406</ele>
        <time>2014-04-24T16:07:15.000Z</time>
      </trkpt>
      <trkpt lat="45.98103" lon="5.94892">
        <ele>603.59997558594</ele>
        <time>2014-04-24T16:07:17.000Z</time>
      </trkpt>
      <trkpt lat="45.981" lon="5.94864">
        <ele>601.40002441406</ele>
        <time>2014-04-24T16:07:19.000Z</time>
      </trkpt>
      <trkpt lat="45.98085" lon="5.94842">
        <ele>601</ele>
        <time>2014-04-24T16:07:21.000Z</time>
      </trkpt>
      <trkpt lat="45.98076" lon="5.94833">
        <ele>601.20001220703</ele>
        <time>2014-04-24T16:07:22.000Z</time>
      </trkpt>
      <trkpt lat="45.98011" lon="5.9479">
        <ele>602.79998779297</ele>
        <time>2014-04-24T16:07:29.000Z</time>
      </trkpt>
      <trkpt lat="45.97965" lon="5.94759">
        <ele>602.79998779297</ele>
        <time>2014-04-24T16:07:34.000Z</time>
      </trkpt>
      <trkpt lat="45.97937" lon="5.94714">
        <ele>600</ele>
        <time>2014-04-24T16:07:38.000Z</time>
      </trkpt>
      <trkpt lat="45.97933" lon="5.947">
        <ele>598.59997558594</ele>
        <time>2014-04-24T16:07:39.000Z</time>
      </trkpt>
      <trkpt lat="45.97915" lon="5.94613">
        <ele>593.79998779297</ele>
        <time>2014-04-24T16:07:45.000Z</time>
      </trkpt>
      <trkpt lat="45.97915" lon="5.94521">
        <ele>590.59997558594</ele>
        <time>2014-04-24T16:07:51.000Z</time>
      </trkpt>
      <trkpt lat="45.9792" lon="5.94365">
        <ele>586.79998779297</ele>
        <time>2014-04-24T16:08:01.000Z</time>
      </trkpt>
      <trkpt lat="45.97924" lon="5.94216">
        <ele>587.20001220703</ele>
        <time>2014-04-24T16:08:11.000Z</time>
      </trkpt>
      <trkpt lat="45.97925" lon="5.94147">
        <ele>587</ele>
        <time>2014-04-24T16:08:16.000Z</time>
      </trkpt>
      <trkpt lat="45.97931" lon="5.94057">
        <ele>583.59997558594</ele>
        <time>2014-04-24T16:08:23.000Z</time>
      </trkpt>
      <trkpt lat="45.97945" lon="5.93979">
        <ele>580.79998779297</ele>
        <time>2014-04-24T16:08:29.000Z</time>
      </trkpt>
      <trkpt lat="45.97963" lon="5.93917">
        <ele>577</ele>
        <time>2014-04-24T16:08:34.000Z</time>
      </trkpt>
      <trkpt lat="45.97991" lon="5.93886">
        <ele>574.40002441406</ele>
        <time>2014-04-24T16:08:38.000Z</time>
      </trkpt>
      <trkpt lat="45.9802" lon="5.9389">
        <ele>574.40002441406</ele>
        <time>2014-04-24T16:08:41.000Z</time>
      </trkpt>
      <trkpt lat="45.98088" lon="5.93911">
        <ele>573</ele>
        <time>2014-04-24T16:08:48.000Z</time>
      </trkpt>
      <trkpt lat="45.98128" lon="5.93927">
        <ele>571.59997558594</ele>
        <time>2014-04-24T16:08:52.000Z</time>
      </trkpt>
      <trkpt lat="45.98164" lon="5.93965">
        <ele>569</ele>
        <time>2014-04-24T16:08:56.000Z</time>
      </trkpt>
      <trkpt lat="45.98182" lon="5.93985">
        <ele>567</ele>
        <time>2014-04-24T16:08:58.000Z</time>
      </trkpt>
      <trkpt lat="45.98222" lon="5.93998">
        <ele>562.40002441406</ele>
        <time>2014-04-24T16:09:02.000Z</time>
      </trkpt>
      <trkpt lat="45.98243" lon="5.93986">
        <ele>560</ele>
        <time>2014-04-24T16:09:04.000Z</time>
      </trkpt>
      <trkpt lat="45.98264" lon="5.93972">
        <ele>558.20001220703</ele>
        <time>2014-04-24T16:09:06.000Z</time>
      </trkpt>
      <trkpt lat="45.98298" lon="5.93932">
        <ele>555.79998779297</ele>
        <time>2014-04-24T16:09:10.000Z</time>
      </trkpt>
      <trkpt lat="45.98333" lon="5.93878">
        <ele>560.40002441406</ele>
        <time>2014-04-24T16:09:15.000Z</time>
      </trkpt>
      <trkpt lat="45.98366" lon="5.93824">
        <ele>566.79998779297</ele>
        <time>2014-04-24T16:09:21.000Z</time>
      </trkpt>
      <trkpt lat="45.98374" lon="5.93809">
        <ele>568</ele>
        <time>2014-04-24T16:09:23.000Z</time>
      </trkpt>
      <trkpt lat="45.98383" lon="5.93772">
        <ele>570</ele>
        <time>2014-04-24T16:09:27.000Z</time>
      </trkpt>
      <trkpt lat="45.98377" lon="5.93746">
        <ele>570</ele>
        <time>2014-04-24T16:09:30.000Z</time>
      </trkpt>
      <trkpt lat="45.98371" lon="5.93738">
        <ele>569.40002441406</ele>
        <time>2014-04-24T16:09:31.000Z</time>
      </trkpt>
      <trkpt lat="45.98354" lon="5.93702">
        <ele>568.20001220703</ele>
        <time>2014-04-24T16:09:36.000Z</time>
      </trkpt>
      <trkpt lat="45.98344" lon="5.93658">
        <ele>568.40002441406</ele>
        <time>2014-04-24T16:09:42.000Z</time>
      </trkpt>
      <trkpt lat="45.98341" lon="5.9363">
        <ele>569.20001220703</ele>
        <time>2014-04-24T16:09:46.000Z</time>
      </trkpt>
      <trkpt lat="45.98335" lon="5.93604">
        <ele>569.79998779297</ele>
        <time>2014-04-24T16:09:51.000Z</time>
      </trkpt>
      <trkpt lat="45.98315" lon="5.93553">
        <ele>569.20001220703</ele>
        <time>2014-04-24T16:10:00.000Z</time>
      </trkpt>
      <trkpt lat="45.9829" lon="5.93499">
        <ele>571.59997558594</ele>
        <time>2014-04-24T16:10:10.000Z</time>
      </trkpt>
      <trkpt lat="45.98267" lon="5.93449">
        <ele>574.79998779297</ele>
        <time>2014-04-24T16:10:19.000Z</time>
      </trkpt>
      <trkpt lat="45.98244" lon="5.93398">
        <ele>578.20001220703</ele>
        <time>2014-04-24T16:10:28.000Z</time>
      </trkpt>
      <trkpt lat="45.98222" lon="5.93356">
        <ele>580.59997558594</ele>
        <time>2014-04-24T16:10:36.000Z</time>
      </trkpt>
      <trkpt lat="45.9819" lon="5.93322">
        <ele>584.20001220703</ele>
        <time>2014-04-24T16:10:44.000Z</time>
      </trkpt>
      <trkpt lat="45.9818" lon="5.93308">
        <ele>585.59997558594</ele>
        <time>2014-04-24T16:10:47.000Z</time>
      </trkpt>
      <trkpt lat="45.98171" lon="5.93285">
        <ele>586.79998779297</ele>
        <time>2014-04-24T16:10:51.000Z</time>
      </trkpt>
      <trkpt lat="45.98166" lon="5.9326">
        <ele>587.79998779297</ele>
        <time>2014-04-24T16:10:55.000Z</time>
      </trkpt>
      <trkpt lat="45.98167" lon="5.93233">
        <ele>589.59997558594</ele>
        <time>2014-04-24T16:10:59.000Z</time>
      </trkpt>
      <trkpt lat="45.98174" lon="5.93196">
        <ele>590.40002441406</ele>
        <time>2014-04-24T16:11:05.000Z</time>
      </trkpt>
      <trkpt lat="45.9818" lon="5.93182">
        <ele>590.40002441406</ele>
        <time>2014-04-24T16:11:08.000Z</time>
      </trkpt>
      <trkpt lat="45.98186" lon="5.93174">
        <ele>591</ele>
        <time>2014-04-24T16:11:10.000Z</time>
      </trkpt>
      <trkpt lat="45.98215" lon="5.9315">
        <ele>594</ele>
        <time>2014-04-24T16:11:18.000Z</time>
      </trkpt>
      <trkpt lat="45.98226" lon="5.93138">
        <ele>595</ele>
        <time>2014-04-24T16:11:21.000Z</time>
      </trkpt>
      <trkpt lat="45.98247" lon="5.93106">
        <ele>596.40002441406</ele>
        <time>2014-04-24T16:11:27.000Z</time>
      </trkpt>
      <trkpt lat="45.98267" lon="5.93074">
        <ele>598.20001220703</ele>
        <time>2014-04-24T16:11:33.000Z</time>
      </trkpt>
      <trkpt lat="45.98299" lon="5.93018">
        <ele>601.20001220703</ele>
        <time>2014-04-24T16:11:42.000Z</time>
      </trkpt>
      <trkpt lat="45.98305" lon="5.93004">
        <ele>601.59997558594</ele>
        <time>2014-04-24T16:11:44.000Z</time>
      </trkpt>
      <trkpt lat="45.98307" lon="5.92972">
        <ele>602</ele>
        <time>2014-04-24T16:11:48.000Z</time>
      </trkpt>
      <trkpt lat="45.98294" lon="5.92944">
        <ele>602</ele>
        <time>2014-04-24T16:11:52.000Z</time>
      </trkpt>
      <trkpt lat="45.98263" lon="5.92902">
        <ele>602</ele>
        <time>2014-04-24T16:12:00.000Z</time>
      </trkpt>
      <trkpt lat="45.98233" lon="5.92862">
        <ele>602</ele>
        <time>2014-04-24T16:12:08.000Z</time>
      </trkpt>
      <trkpt lat="45.98226" lon="5.92851">
        <ele>602</ele>
        <time>2014-04-24T16:12:10.000Z</time>
      </trkpt>
      <trkpt lat="45.98217" lon="5.92818">
        <ele>602.59997558594</ele>
        <time>2014-04-24T16:12:15.000Z</time>
      </trkpt>
      <trkpt lat="45.98223" lon="5.92764">
        <ele>604.20001220703</ele>
        <time>2014-04-24T16:12:23.000Z</time>
      </trkpt>
      <trkpt lat="45.9823" lon="5.92725">
        <ele>605.79998779297</ele>
        <time>2014-04-24T16:12:29.000Z</time>
      </trkpt>
      <trkpt lat="45.98234" lon="5.92705">
        <ele>607.20001220703</ele>
        <time>2014-04-24T16:12:32.000Z</time>
      </trkpt>
      <trkpt lat="45.98251" lon="5.92644">
        <ele>610</ele>
        <time>2014-04-24T16:12:42.000Z</time>
      </trkpt>
      <trkpt lat="45.98275" lon="5.9256">
        <ele>613.40002441406</ele>
        <time>2014-04-24T16:12:55.000Z</time>
      </trkpt>
      <trkpt lat="45.98289" lon="5.9251">
        <ele>615.20001220703</ele>
        <time>2014-04-24T16:13:03.000Z</time>
      </trkpt>
      <trkpt lat="45.98292" lon="5.92493">
        <ele>616.20001220703</ele>
        <time>2014-04-24T16:13:06.000Z</time>
      </trkpt>
      <trkpt lat="45.98292" lon="5.92469">
        <ele>617.59997558594</ele>
        <time>2014-04-24T16:13:10.000Z</time>
      </trkpt>
      <trkpt lat="45.98289" lon="5.92391">
        <ele>621.40002441406</ele>
        <time>2014-04-24T16:13:21.000Z</time>
      </trkpt>
      <trkpt lat="45.9828" lon="5.92327">
        <ele>624</ele>
        <time>2014-04-24T16:13:30.000Z</time>
      </trkpt>
      <trkpt lat="45.98263" lon="5.92266">
        <ele>625.79998779297</ele>
        <time>2014-04-24T16:13:38.000Z</time>
      </trkpt>
      <trkpt lat="45.98241" lon="5.92191">
        <ele>628.59997558594</ele>
        <time>2014-04-24T16:13:47.000Z</time>
      </trkpt>
      <trkpt lat="45.98217" lon="5.92154">
        <ele>630.20001220703</ele>
        <time>2014-04-24T16:13:52.000Z</time>
      </trkpt>
      <trkpt lat="45.98192" lon="5.92112">
        <ele>629.40002441406</ele>
        <time>2014-04-24T16:13:57.000Z</time>
      </trkpt>
      <trkpt lat="45.98184" lon="5.92092">
        <ele>629.40002441406</ele>
        <time>2014-04-24T16:13:59.000Z</time>
      </trkpt>
      <trkpt lat="45.98175" lon="5.92033">
        <ele>629.79998779297</ele>
        <time>2014-04-24T16:14:04.000Z</time>
      </trkpt>
      <trkpt lat="45.98177" lon="5.91984">
        <ele>630.40002441406</ele>
        <time>2014-04-24T16:14:08.000Z</time>
      </trkpt>
      <trkpt lat="45.98191" lon="5.91937">
        <ele>630.59997558594</ele>
        <time>2014-04-24T16:14:12.000Z</time>
      </trkpt>
      <trkpt lat="45.98218" lon="5.91873">
        <ele>633.79998779297</ele>
        <time>2014-04-24T16:14:18.000Z</time>
      </trkpt>
      <trkpt lat="45.98226" lon="5.91851">
        <ele>634.59997558594</ele>
        <time>2014-04-24T16:14:20.000Z</time>
      </trkpt>
      <trkpt lat="45.98227" lon="5.91789">
        <ele>633.79998779297</ele>
        <time>2014-04-24T16:14:25.000Z</time>
      </trkpt>
      <trkpt lat="45.98212" lon="5.91715">
        <ele>632</ele>
        <time>2014-04-24T16:14:31.000Z</time>
      </trkpt>
      <trkpt lat="45.98185" lon="5.91664">
        <ele>633.79998779297</ele>
        <time>2014-04-24T16:14:36.000Z</time>
      </trkpt>
      <trkpt lat="45.98149" lon="5.91623">
        <ele>632</ele>
        <time>2014-04-24T16:14:41.000Z</time>
      </trkpt>
      <trkpt lat="45.98129" lon="5.91582">
        <ele>632</ele>
        <time>2014-04-24T16:14:45.000Z</time>
      </trkpt>
      <trkpt lat="45.9813" lon="5.91556">
        <ele>634.20001220703</ele>
        <time>2014-04-24T16:14:47.000Z</time>
      </trkpt>
      <trkpt lat="45.98124" lon="5.91494">
        <ele>631.79998779297</ele>
        <time>2014-04-24T16:14:52.000Z</time>
      </trkpt>
      <trkpt lat="45.98127" lon="5.91473">
        <ele>631.40002441406</ele>
        <time>2014-04-24T16:14:54.000Z</time>
      </trkpt>
      <trkpt lat="45.98133" lon="5.91445">
        <ele>631.20001220703</ele>
        <time>2014-04-24T16:14:57.000Z</time>
      </trkpt>
      <trkpt lat="45.98135" lon="5.91426">
        <ele>630</ele>
        <time>2014-04-24T16:14:59.000Z</time>
      </trkpt>
      <trkpt lat="45.98138" lon="5.91388">
        <ele>628</ele>
        <time>2014-04-24T16:15:04.000Z</time>
      </trkpt>
      <trkpt lat="45.98123" lon="5.91376">
        <ele>628.59997558594</ele>
        <time>2014-04-24T16:15:08.000Z</time>
      </trkpt>
      <trkpt lat="45.98116" lon="5.91368">
        <ele>629</ele>
        <time>2014-04-24T16:15:12.000Z</time>
      </trkpt>
      <trkpt lat="45.98113" lon="5.91355">
        <ele>629.40002441406</ele>
        <time>2014-04-24T16:15:17.000Z</time>
      </trkpt>
      <trkpt lat="45.98108" lon="5.91323">
        <ele>630</ele>
        <time>2014-04-24T16:15:25.000Z</time>
      </trkpt>
      <trkpt lat="45.98102" lon="5.91285">
        <ele>632.59997558594</ele>
        <time>2014-04-24T16:15:33.000Z</time>
      </trkpt>
      <trkpt lat="45.98088" lon="5.91252">
        <ele>636.20001220703</ele>
        <time>2014-04-24T16:15:40.000Z</time>
      </trkpt>
      <trkpt lat="45.98073" lon="5.9124">
        <ele>637.79998779297</ele>
        <time>2014-04-24T16:15:45.000Z</time>
      </trkpt>
      <trkpt lat="45.98051" lon="5.91234">
        <ele>639.40002441406</ele>
        <time>2014-04-24T16:15:51.000Z</time>
      </trkpt>
      <trkpt lat="45.98017" lon="5.91232">
        <ele>641.20001220703</ele>
        <time>2014-04-24T16:15:59.000Z</time>
      </trkpt>
      <trkpt lat="45.97985" lon="5.91229">
        <ele>643</ele>
        <time>2014-04-24T16:16:07.000Z</time>
      </trkpt>
      <trkpt lat="45.97957" lon="5.91228">
        <ele>645.40002441406</ele>
        <time>2014-04-24T16:16:14.000Z</time>
      </trkpt>
      <trkpt lat="45.97937" lon="5.91225">
        <ele>648</ele>
        <time>2014-04-24T16:16:19.000Z</time>
      </trkpt>
      <trkpt lat="45.979" lon="5.91223">
        <ele>652.20001220703</ele>
        <time>2014-04-24T16:16:28.000Z</time>
      </trkpt>
      <trkpt lat="45.97871" lon="5.91216">
        <ele>655.40002441406</ele>
        <time>2014-04-24T16:16:36.000Z</time>
      </trkpt>
      <trkpt lat="45.97852" lon="5.91198">
        <ele>657.79998779297</ele>
        <time>2014-04-24T16:16:43.000Z</time>
      </trkpt>
      <trkpt lat="45.97836" lon="5.91175">
        <ele>659.59997558594</ele>
        <time>2014-04-24T16:16:50.000Z</time>
      </trkpt>
      <trkpt lat="45.97817" lon="5.91156">
        <ele>661.79998779297</ele>
        <time>2014-04-24T16:16:56.000Z</time>
      </trkpt>
      <trkpt lat="45.97791" lon="5.91137">
        <ele>662.20001220703</ele>
        <time>2014-04-24T16:17:02.000Z</time>
      </trkpt>
      <trkpt lat="45.97756" lon="5.91112">
        <ele>661.20001220703</ele>
        <time>2014-04-24T16:17:09.000Z</time>
      </trkpt>
      <trkpt lat="45.97715" lon="5.91084">
        <ele>660.20001220703</ele>
        <time>2014-04-24T16:17:16.000Z</time>
      </trkpt>
      <trkpt lat="45.97665" lon="5.91049">
        <ele>658.79998779297</ele>
        <time>2014-04-24T16:17:24.000Z</time>
      </trkpt>
      <trkpt lat="45.97624" lon="5.91031">
        <ele>658.79998779297</ele>
        <time>2014-04-24T16:17:30.000Z</time>
      </trkpt>
      <trkpt lat="45.97572" lon="5.91013">
        <ele>658</ele>
        <time>2014-04-24T16:17:37.000Z</time>
      </trkpt>
      <trkpt lat="45.97564" lon="5.91011">
        <ele>657.40002441406</ele>
        <time>2014-04-24T16:17:38.000Z</time>
      </trkpt>
      <trkpt lat="45.97534" lon="5.91009">
        <ele>659</ele>
        <time>2014-04-24T16:17:42.000Z</time>
      </trkpt>
      <trkpt lat="45.97512" lon="5.91018">
        <ele>658</ele>
        <time>2014-04-24T16:17:45.000Z</time>
      </trkpt>
      <trkpt lat="45.97475" lon="5.91023">
        <ele>655.20001220703</ele>
        <time>2014-04-24T16:17:50.000Z</time>
      </trkpt>
      <trkpt lat="45.97436" lon="5.91016">
        <ele>658</ele>
        <time>2014-04-24T16:17:55.000Z</time>
      </trkpt>
      <trkpt lat="45.97387" lon="5.91008">
        <ele>661.79998779297</ele>
        <time>2014-04-24T16:18:01.000Z</time>
      </trkpt>
      <trkpt lat="45.9733" lon="5.90998">
        <ele>659.79998779297</ele>
        <time>2014-04-24T16:18:08.000Z</time>
      </trkpt>
      <trkpt lat="45.97272" lon="5.90987">
        <ele>658.20001220703</ele>
        <time>2014-04-24T16:18:15.000Z</time>
      </trkpt>
      <trkpt lat="45.9723" lon="5.9098">
        <ele>656</ele>
        <time>2014-04-24T16:18:20.000Z</time>
      </trkpt>
      <trkpt lat="45.97208" lon="5.90963">
        <ele>655.79998779297</ele>
        <time>2014-04-24T16:18:23.000Z</time>
      </trkpt>
      <trkpt lat="45.97202" lon="5.9093">
        <ele>658.79998779297</ele>
        <time>2014-04-24T16:18:26.000Z</time>
      </trkpt>
      <trkpt lat="45.97202" lon="5.9092">
        <ele>660.40002441406</ele>
        <time>2014-04-24T16:18:27.000Z</time>
      </trkpt>
      <trkpt lat="45.97209" lon="5.90901">
        <ele>663.79998779297</ele>
        <time>2014-04-24T16:18:29.000Z</time>
      </trkpt>
      <trkpt lat="45.97213" lon="5.90857">
        <ele>665.79998779297</ele>
        <time>2014-04-24T16:18:34.000Z</time>
      </trkpt>
      <trkpt lat="45.97215" lon="5.9083">
        <ele>665.79998779297</ele>
        <time>2014-04-24T16:18:37.000Z</time>
      </trkpt>
      <trkpt lat="45.97212" lon="5.90798">
        <ele>664.79998779297</ele>
        <time>2014-04-24T16:18:40.000Z</time>
      </trkpt>
      <trkpt lat="45.97218" lon="5.90754">
        <ele>661</ele>
        <time>2014-04-24T16:18:44.000Z</time>
      </trkpt>
      <trkpt lat="45.97239" lon="5.90678">
        <ele>654.40002441406</ele>
        <time>2014-04-24T16:18:51.000Z</time>
      </trkpt>
      <trkpt lat="45.97247" lon="5.90659">
        <ele>652.79998779297</ele>
        <time>2014-04-24T16:18:53.000Z</time>
      </trkpt>
      <trkpt lat="45.97248" lon="5.9062">
        <ele>651.40002441406</ele>
        <time>2014-04-24T16:18:57.000Z</time>
      </trkpt>
      <trkpt lat="45.97245" lon="5.9061">
        <ele>651.40002441406</ele>
        <time>2014-04-24T16:18:58.000Z</time>
      </trkpt>
      <trkpt lat="45.97223" lon="5.90559">
        <ele>651</ele>
        <time>2014-04-24T16:19:03.000Z</time>
      </trkpt>
      <trkpt lat="45.97219" lon="5.90513">
        <ele>650.59997558594</ele>
        <time>2014-04-24T16:19:07.000Z</time>
      </trkpt>
      <trkpt lat="45.97219" lon="5.90444">
        <ele>650.59997558594</ele>
        <time>2014-04-24T16:19:13.000Z</time>
      </trkpt>
      <trkpt lat="45.97217" lon="5.90391">
        <ele>650.59997558594</ele>
        <time>2014-04-24T16:19:18.000Z</time>
      </trkpt>
      <trkpt lat="45.97202" lon="5.90345">
        <ele>653.79998779297</ele>
        <time>2014-04-24T16:19:23.000Z</time>
      </trkpt>
      <trkpt lat="45.97197" lon="5.90338">
        <ele>654</ele>
        <time>2014-04-24T16:19:24.000Z</time>
      </trkpt>
      <trkpt lat="45.97168" lon="5.9031">
        <ele>654.59997558594</ele>
        <time>2014-04-24T16:19:29.000Z</time>
      </trkpt>
      <trkpt lat="45.97127" lon="5.90297">
        <ele>654</ele>
        <time>2014-04-24T16:19:35.000Z</time>
      </trkpt>
      <trkpt lat="45.97099" lon="5.9029">
        <ele>654</ele>
        <time>2014-04-24T16:19:39.000Z</time>
      </trkpt>
      <trkpt lat="45.97067" lon="5.90265">
        <ele>656.40002441406</ele>
        <time>2014-04-24T16:19:44.000Z</time>
      </trkpt>
      <trkpt lat="45.97013" lon="5.90211">
        <ele>658.79998779297</ele>
        <time>2014-04-24T16:19:53.000Z</time>
      </trkpt>
      <trkpt lat="45.96974" lon="5.90193">
        <ele>657.59997558594</ele>
        <time>2014-04-24T16:19:59.000Z</time>
      </trkpt>
      <trkpt lat="45.96926" lon="5.9018">
        <ele>659.40002441406</ele>
        <time>2014-04-24T16:20:06.000Z</time>
      </trkpt>
      <trkpt lat="45.96886" lon="5.90165">
        <ele>659.79998779297</ele>
        <time>2014-04-24T16:20:12.000Z</time>
      </trkpt>
      <trkpt lat="45.96841" lon="5.90145">
        <ele>661.40002441406</ele>
        <time>2014-04-24T16:20:19.000Z</time>
      </trkpt>
      <trkpt lat="45.96834" lon="5.90142">
        <ele>661.79998779297</ele>
        <time>2014-04-24T16:20:20.000Z</time>
      </trkpt>
      <trkpt lat="45.96794" lon="5.90109">
        <ele>664.79998779297</ele>
        <time>2014-04-24T16:20:27.000Z</time>
      </trkpt>
      <trkpt lat="45.96752" lon="5.90065">
        <ele>667.20001220703</ele>
        <time>2014-04-24T16:20:35.000Z</time>
      </trkpt>
      <trkpt lat="45.96716" lon="5.90026">
        <ele>668.20001220703</ele>
        <time>2014-04-24T16:20:42.000Z</time>
      </trkpt>
      <trkpt lat="45.9668" lon="5.89988">
        <ele>670.79998779297</ele>
        <time>2014-04-24T16:20:49.000Z</time>
      </trkpt>
      <trkpt lat="45.96671" lon="5.89954">
        <ele>671.79998779297</ele>
        <time>2014-04-24T16:20:53.000Z</time>
      </trkpt>
      <trkpt lat="45.96675" lon="5.89934">
        <ele>671.79998779297</ele>
        <time>2014-04-24T16:20:55.000Z</time>
      </trkpt>
      <trkpt lat="45.96704" lon="5.89852">
        <ele>674</ele>
        <time>2014-04-24T16:21:04.000Z</time>
      </trkpt>
      <trkpt lat="45.96714" lon="5.89793">
        <ele>669.79998779297</ele>
        <time>2014-04-24T16:21:10.000Z</time>
      </trkpt>
      <trkpt lat="45.96717" lon="5.89707">
        <ele>665.59997558594</ele>
        <time>2014-04-24T16:21:18.000Z</time>
      </trkpt>
      <trkpt lat="45.9672" lon="5.89616">
        <ele>663.20001220703</ele>
        <time>2014-04-24T16:21:26.000Z</time>
      </trkpt>
      <trkpt lat="45.96712" lon="5.89555">
        <ele>661.20001220703</ele>
        <time>2014-04-24T16:21:31.000Z</time>
      </trkpt>
      <trkpt lat="45.96692" lon="5.89469">
        <ele>660</ele>
        <time>2014-04-24T16:21:38.000Z</time>
      </trkpt>
      <trkpt lat="45.96668" lon="5.89371">
        <ele>658.59997558594</ele>
        <time>2014-04-24T16:21:46.000Z</time>
      </trkpt>
      <trkpt lat="45.9665" lon="5.89294">
        <ele>659</ele>
        <time>2014-04-24T16:21:53.000Z</time>
      </trkpt>
      <trkpt lat="45.96626" lon="5.8919">
        <ele>659.59997558594</ele>
        <time>2014-04-24T16:22:03.000Z</time>
      </trkpt>
      <trkpt lat="45.96611" lon="5.89119">
        <ele>658.20001220703</ele>
        <time>2014-04-24T16:22:10.000Z</time>
      </trkpt>
      <trkpt lat="45.96604" lon="5.89055">
        <ele>658.40002441406</ele>
        <time>2014-04-24T16:22:16.000Z</time>
      </trkpt>
      <trkpt lat="45.96603" lon="5.88987">
        <ele>658.40002441406</ele>
        <time>2014-04-24T16:22:23.000Z</time>
      </trkpt>
      <trkpt lat="45.96607" lon="5.88931">
        <ele>659.40002441406</ele>
        <time>2014-04-24T16:22:30.000Z</time>
      </trkpt>
      <trkpt lat="45.96611" lon="5.88872">
        <ele>662</ele>
        <time>2014-04-24T16:22:38.000Z</time>
      </trkpt>
      <trkpt lat="45.96615" lon="5.88812">
        <ele>665</ele>
        <time>2014-04-24T16:22:47.000Z</time>
      </trkpt>
      <trkpt lat="45.96619" lon="5.88753">
        <ele>667.59997558594</ele>
        <time>2014-04-24T16:22:56.000Z</time>
      </trkpt>
      <trkpt lat="45.96624" lon="5.88689">
        <ele>670.40002441406</ele>
        <time>2014-04-24T16:23:06.000Z</time>
      </trkpt>
      <trkpt lat="45.96626" lon="5.88648">
        <ele>672.59997558594</ele>
        <time>2014-04-24T16:23:12.000Z</time>
      </trkpt>
      <trkpt lat="45.96625" lon="5.88583">
        <ele>675</ele>
        <time>2014-04-24T16:23:21.000Z</time>
      </trkpt>
      <trkpt lat="45.96621" lon="5.88519">
        <ele>675.79998779297</ele>
        <time>2014-04-24T16:23:28.000Z</time>
      </trkpt>
      <trkpt lat="45.96618" lon="5.8848">
        <ele>675.79998779297</ele>
        <time>2014-04-24T16:23:32.000Z</time>
      </trkpt>
      <trkpt lat="45.96606" lon="5.88445">
        <ele>675.59997558594</ele>
        <time>2014-04-24T16:23:36.000Z</time>
      </trkpt>
      <trkpt lat="45.96601" lon="5.88437">
        <ele>675.59997558594</ele>
        <time>2014-04-24T16:23:37.000Z</time>
      </trkpt>
      <trkpt lat="45.96558" lon="5.88382">
        <ele>676</ele>
        <time>2014-04-24T16:23:45.000Z</time>
      </trkpt>
      <trkpt lat="45.96512" lon="5.88322">
        <ele>677</ele>
        <time>2014-04-24T16:23:54.000Z</time>
      </trkpt>
      <trkpt lat="45.96498" lon="5.88304">
        <ele>677.40002441406</ele>
        <time>2014-04-24T16:23:57.000Z</time>
      </trkpt>
      <trkpt lat="45.96486" lon="5.88269">
        <ele>676</ele>
        <time>2014-04-24T16:24:01.000Z</time>
      </trkpt>
      <trkpt lat="45.96489" lon="5.88245">
        <ele>674.79998779297</ele>
        <time>2014-04-24T16:24:03.000Z</time>
      </trkpt>
      <trkpt lat="45.96492" lon="5.88233">
        <ele>674.40002441406</ele>
        <time>2014-04-24T16:24:04.000Z</time>
      </trkpt>
      <trkpt lat="45.96514" lon="5.88152">
        <ele>670.20001220703</ele>
        <time>2014-04-24T16:24:10.000Z</time>
      </trkpt>
      <trkpt lat="45.96547" lon="5.88026">
        <ele>663.79998779297</ele>
        <time>2014-04-24T16:24:18.000Z</time>
      </trkpt>
      <trkpt lat="45.96582" lon="5.8789">
        <ele>655.40002441406</ele>
        <time>2014-04-24T16:24:26.000Z</time>
      </trkpt>
      <trkpt lat="45.96599" lon="5.87799">
        <ele>651.59997558594</ele>
        <time>2014-04-24T16:24:31.000Z</time>
      </trkpt>
      <trkpt lat="45.96611" lon="5.87686">
        <ele>644.20001220703</ele>
        <time>2014-04-24T16:24:37.000Z</time>
      </trkpt>
      <trkpt lat="45.96638" lon="5.8762">
        <ele>638</ele>
        <time>2014-04-24T16:24:41.000Z</time>
      </trkpt>
      <trkpt lat="45.96653" lon="5.87547">
        <ele>632.20001220703</ele>
        <time>2014-04-24T16:24:45.000Z</time>
      </trkpt>
      <trkpt lat="45.9665" lon="5.87455">
        <ele>626.79998779297</ele>
        <time>2014-04-24T16:24:50.000Z</time>
      </trkpt>
      <trkpt lat="45.96633" lon="5.87385">
        <ele>621.79998779297</ele>
        <time>2014-04-24T16:24:54.000Z</time>
      </trkpt>
      <trkpt lat="45.96583" lon="5.87275">
        <ele>617.40002441406</ele>
        <time>2014-04-24T16:25:01.000Z</time>
      </trkpt>
      <trkpt lat="45.96557" lon="5.87233">
        <ele>615.20001220703</ele>
        <time>2014-04-24T16:25:04.000Z</time>
      </trkpt>
      <trkpt lat="45.96503" lon="5.87175">
        <ele>608.20001220703</ele>
        <time>2014-04-24T16:25:09.000Z</time>
      </trkpt>
      <trkpt lat="45.96492" lon="5.87164">
        <ele>606.79998779297</ele>
        <time>2014-04-24T16:25:10.000Z</time>
      </trkpt>
      <trkpt lat="45.9644" lon="5.87142">
        <ele>603.40002441406</ele>
        <time>2014-04-24T16:25:14.000Z</time>
      </trkpt>
      <trkpt lat="45.96417" lon="5.87124">
        <ele>601.79998779297</ele>
        <time>2014-04-24T16:25:16.000Z</time>
      </trkpt>
      <trkpt lat="45.96405" lon="5.87092">
        <ele>600</ele>
        <time>2014-04-24T16:25:18.000Z</time>
      </trkpt>
      <trkpt lat="45.96407" lon="5.87056">
        <ele>598.59997558594</ele>
        <time>2014-04-24T16:25:20.000Z</time>
      </trkpt>
      <trkpt lat="45.96426" lon="5.87012">
        <ele>598.79998779297</ele>
        <time>2014-04-24T16:25:23.000Z</time>
      </trkpt>
      <trkpt lat="45.96474" lon="5.86936">
        <ele>588</ele>
        <time>2014-04-24T16:25:29.000Z</time>
      </trkpt>
      <trkpt lat="45.96477" lon="5.86887">
        <ele>583.59997558594</ele>
        <time>2014-04-24T16:25:32.000Z</time>
      </trkpt>
      <trkpt lat="45.96471" lon="5.86778">
        <ele>580</ele>
        <time>2014-04-24T16:25:38.000Z</time>
      </trkpt>
      <trkpt lat="45.96455" lon="5.86688">
        <ele>576.59997558594</ele>
        <time>2014-04-24T16:25:43.000Z</time>
      </trkpt>
      <trkpt lat="45.96438" lon="5.86615">
        <ele>571</ele>
        <time>2014-04-24T16:25:47.000Z</time>
      </trkpt>
      <trkpt lat="45.96415" lon="5.86549">
        <ele>565</ele>
        <time>2014-04-24T16:25:51.000Z</time>
      </trkpt>
      <trkpt lat="45.9637" lon="5.86482">
        <ele>561.79998779297</ele>
        <time>2014-04-24T16:25:56.000Z</time>
      </trkpt>
      <trkpt lat="45.96325" lon="5.86417">
        <ele>558.79998779297</ele>
        <time>2014-04-24T16:26:01.000Z</time>
      </trkpt>
      <trkpt lat="45.96289" lon="5.86356">
        <ele>552.20001220703</ele>
        <time>2014-04-24T16:26:05.000Z</time>
      </trkpt>
      <trkpt lat="45.9628" lon="5.86341">
        <ele>550.20001220703</ele>
        <time>2014-04-24T16:26:06.000Z</time>
      </trkpt>
      <trkpt lat="45.96223" lon="5.86289">
        <ele>548</ele>
        <time>2014-04-24T16:26:11.000Z</time>
      </trkpt>
      <trkpt lat="45.96188" lon="5.86257">
        <ele>547.20001220703</ele>
        <time>2014-04-24T16:26:14.000Z</time>
      </trkpt>
      <trkpt lat="45.96146" lon="5.86203">
        <ele>539.40002441406</ele>
        <time>2014-04-24T16:26:18.000Z</time>
      </trkpt>
      <trkpt lat="45.96081" lon="5.86135">
        <ele>535</ele>
        <time>2014-04-24T16:26:24.000Z</time>
      </trkpt>
      <trkpt lat="45.96034" lon="5.86102">
        <ele>534.40002441406</ele>
        <time>2014-04-24T16:26:28.000Z</time>
      </trkpt>
      <trkpt lat="45.95946" lon="5.86052">
        <ele>530.40002441406</ele>
        <time>2014-04-24T16:26:35.000Z</time>
      </trkpt>
      <trkpt lat="45.95859" lon="5.85997">
        <ele>526.59997558594</ele>
        <time>2014-04-24T16:26:42.000Z</time>
      </trkpt>
      <trkpt lat="45.95786" lon="5.85946">
        <ele>521.59997558594</ele>
        <time>2014-04-24T16:26:48.000Z</time>
      </trkpt>
      <trkpt lat="45.95747" lon="5.85893">
        <ele>508.60000610352</ele>
        <time>2014-04-24T16:26:52.000Z</time>
      </trkpt>
      <trkpt lat="45.95731" lon="5.85862">
        <ele>504.20001220703</ele>
        <time>2014-04-24T16:26:54.000Z</time>
      </trkpt>
      <trkpt lat="45.95689" lon="5.85818">
        <ele>501</ele>
        <time>2014-04-24T16:26:58.000Z</time>
      </trkpt>
      <trkpt lat="45.95663" lon="5.85769">
        <ele>494.60000610352</ele>
        <time>2014-04-24T16:27:03.000Z</time>
      </trkpt>
      <trkpt lat="45.95679" lon="5.85757">
        <ele>490</ele>
        <time>2014-04-24T16:27:05.000Z</time>
      </trkpt>
      <trkpt lat="45.95701" lon="5.85765">
        <ele>488.60000610352</ele>
        <time>2014-04-24T16:27:07.000Z</time>
      </trkpt>
      <trkpt lat="45.95741" lon="5.85783">
        <ele>487</ele>
        <time>2014-04-24T16:27:11.000Z</time>
      </trkpt>
      <trkpt lat="45.95811" lon="5.85797">
        <ele>480.20001220703</ele>
        <time>2014-04-24T16:27:17.000Z</time>
      </trkpt>
      <trkpt lat="45.95855" lon="5.85818">
        <ele>477.20001220703</ele>
        <time>2014-04-24T16:27:21.000Z</time>
      </trkpt>
      <trkpt lat="45.95871" lon="5.85811">
        <ele>473.79998779297</ele>
        <time>2014-04-24T16:27:23.000Z</time>
      </trkpt>
      <trkpt lat="45.95874" lon="5.85788">
        <ele>469.60000610352</ele>
        <time>2014-04-24T16:27:25.000Z</time>
      </trkpt>
      <trkpt lat="45.95864" lon="5.85767">
        <ele>467.79998779297</ele>
        <time>2014-04-24T16:27:27.000Z</time>
      </trkpt>
      <trkpt lat="45.95855" lon="5.8576">
        <ele>468</ele>
        <time>2014-04-24T16:27:28.000Z</time>
      </trkpt>
      <trkpt lat="45.95828" lon="5.85736">
        <ele>468</ele>
        <time>2014-04-24T16:27:31.000Z</time>
      </trkpt>
      <trkpt lat="45.95813" lon="5.85715">
        <ele>466.60000610352</ele>
        <time>2014-04-24T16:27:33.000Z</time>
      </trkpt>
      <trkpt lat="45.95766" lon="5.85674">
        <ele>464.60000610352</ele>
        <time>2014-04-24T16:27:38.000Z</time>
      </trkpt>
      <trkpt lat="45.95756" lon="5.85666">
        <ele>464.39999389648</ele>
        <time>2014-04-24T16:27:39.000Z</time>
      </trkpt>
      <trkpt lat="45.95726" lon="5.85617">
        <ele>459.39999389648</ele>
        <time>2014-04-24T16:27:43.000Z</time>
      </trkpt>
      <trkpt lat="45.95721" lon="5.85601">
        <ele>457.60000610352</ele>
        <time>2014-04-24T16:27:44.000Z</time>
      </trkpt>
      <trkpt lat="45.95708" lon="5.85516">
        <ele>448</ele>
        <time>2014-04-24T16:27:49.000Z</time>
      </trkpt>
      <trkpt lat="45.95697" lon="5.85447">
        <ele>441.79998779297</ele>
        <time>2014-04-24T16:27:53.000Z</time>
      </trkpt>
      <trkpt lat="45.95697" lon="5.8541">
        <ele>438.60000610352</ele>
        <time>2014-04-24T16:27:55.000Z</time>
      </trkpt>
      <trkpt lat="45.95692" lon="5.85356">
        <ele>435.79998779297</ele>
        <time>2014-04-24T16:27:58.000Z</time>
      </trkpt>
      <trkpt lat="45.9567" lon="5.85322">
        <ele>438</ele>
        <time>2014-04-24T16:28:01.000Z</time>
      </trkpt>
      <trkpt lat="45.95644" lon="5.85302">
        <ele>441.39999389648</ele>
        <time>2014-04-24T16:28:04.000Z</time>
      </trkpt>
      <trkpt lat="45.95635" lon="5.85277">
        <ele>440.60000610352</ele>
        <time>2014-04-24T16:28:06.000Z</time>
      </trkpt>
      <trkpt lat="45.95636" lon="5.8526">
        <ele>439.60000610352</ele>
        <time>2014-04-24T16:28:07.000Z</time>
      </trkpt>
      <trkpt lat="45.95635" lon="5.8523">
        <ele>437.79998779297</ele>
        <time>2014-04-24T16:28:09.000Z</time>
      </trkpt>
      <trkpt lat="45.95615" lon="5.85177">
        <ele>433</ele>
        <time>2014-04-24T16:28:13.000Z</time>
      </trkpt>
      <trkpt lat="45.95596" lon="5.85162">
        <ele>432</ele>
        <time>2014-04-24T16:28:15.000Z</time>
      </trkpt>
      <trkpt lat="45.95528" lon="5.85139">
        <ele>431.60000610352</ele>
        <time>2014-04-24T16:28:21.000Z</time>
      </trkpt>
      <trkpt lat="45.95504" lon="5.85137">
        <ele>431.60000610352</ele>
        <time>2014-04-24T16:28:23.000Z</time>
      </trkpt>
      <trkpt lat="45.95469" lon="5.85119">
        <ele>428.79998779297</ele>
        <time>2014-04-24T16:28:26.000Z</time>
      </trkpt>
      <trkpt lat="45.9546" lon="5.85109">
        <ele>427.20001220703</ele>
        <time>2014-04-24T16:28:27.000Z</time>
      </trkpt>
      <trkpt lat="45.95391" lon="5.85042">
        <ele>418</ele>
        <time>2014-04-24T16:28:34.000Z</time>
      </trkpt>
      <trkpt lat="45.95327" lon="5.84993">
        <ele>415.60000610352</ele>
        <time>2014-04-24T16:28:40.000Z</time>
      </trkpt>
      <trkpt lat="45.95298" lon="5.84966">
        <ele>414</ele>
        <time>2014-04-24T16:28:43.000Z</time>
      </trkpt>
      <trkpt lat="45.95304" lon="5.84935">
        <ele>408.20001220703</ele>
        <time>2014-04-24T16:28:46.000Z</time>
      </trkpt>
      <trkpt lat="45.95322" lon="5.84931">
        <ele>406</ele>
        <time>2014-04-24T16:28:48.000Z</time>
      </trkpt>
      <trkpt lat="45.95339" lon="5.84942">
        <ele>406.60000610352</ele>
        <time>2014-04-24T16:28:50.000Z</time>
      </trkpt>
      <trkpt lat="45.95365" lon="5.84959">
        <ele>407.60000610352</ele>
        <time>2014-04-24T16:28:53.000Z</time>
      </trkpt>
      <trkpt lat="45.95406" lon="5.84966">
        <ele>405.79998779297</ele>
        <time>2014-04-24T16:28:57.000Z</time>
      </trkpt>
      <trkpt lat="45.95449" lon="5.8495">
        <ele>400.20001220703</ele>
        <time>2014-04-24T16:29:01.000Z</time>
      </trkpt>
      <trkpt lat="45.95515" lon="5.84914">
        <ele>391.39999389648</ele>
        <time>2014-04-24T16:29:07.000Z</time>
      </trkpt>
      <trkpt lat="45.95563" lon="5.84913">
        <ele>389.20001220703</ele>
        <time>2014-04-24T16:29:11.000Z</time>
      </trkpt>
      <trkpt lat="45.95587" lon="5.84898">
        <ele>384.39999389648</ele>
        <time>2014-04-24T16:29:14.000Z</time>
      </trkpt>
      <trkpt lat="45.95583" lon="5.84872">
        <ele>381.20001220703</ele>
        <time>2014-04-24T16:29:16.000Z</time>
      </trkpt>
      <trkpt lat="45.95567" lon="5.84859">
        <ele>381.39999389648</ele>
        <time>2014-04-24T16:29:18.000Z</time>
      </trkpt>
      <trkpt lat="45.95557" lon="5.84856">
        <ele>382</ele>
        <time>2014-04-24T16:29:19.000Z</time>
      </trkpt>
      <trkpt lat="45.95495" lon="5.84835">
        <ele>377.79998779297</ele>
        <time>2014-04-24T16:29:25.000Z</time>
      </trkpt>
      <trkpt lat="45.95477" lon="5.84801">
        <ele>372.60000610352</ele>
        <time>2014-04-24T16:29:28.000Z</time>
      </trkpt>
      <trkpt lat="45.95479" lon="5.84772">
        <ele>370.39999389648</ele>
        <time>2014-04-24T16:29:30.000Z</time>
      </trkpt>
      <trkpt lat="45.95495" lon="5.84752">
        <ele>369.20001220703</ele>
        <time>2014-04-24T16:29:32.000Z</time>
      </trkpt>
      <trkpt lat="45.95517" lon="5.84747">
        <ele>368.79998779297</ele>
        <time>2014-04-24T16:29:34.000Z</time>
      </trkpt>
      <trkpt lat="45.95571" lon="5.84727">
        <ele>365.79998779297</ele>
        <time>2014-04-24T16:29:39.000Z</time>
      </trkpt>
      <trkpt lat="45.95621" lon="5.84689">
        <ele>356.79998779297</ele>
        <time>2014-04-24T16:29:44.000Z</time>
      </trkpt>
      <trkpt lat="45.95634" lon="5.84657">
        <ele>350.39999389648</ele>
        <time>2014-04-24T16:29:47.000Z</time>
      </trkpt>
      <trkpt lat="45.95622" lon="5.84634">
        <ele>347.60000610352</ele>
        <time>2014-04-24T16:29:49.000Z</time>
      </trkpt>
      <trkpt lat="45.95593" lon="5.84618">
        <ele>347.20001220703</ele>
        <time>2014-04-24T16:29:52.000Z</time>
      </trkpt>
      <trkpt lat="45.95583" lon="5.84616">
        <ele>347.60000610352</ele>
        <time>2014-04-24T16:29:53.000Z</time>
      </trkpt>
      <trkpt lat="45.95541" lon="5.84603">
        <ele>347.79998779297</ele>
        <time>2014-04-24T16:29:57.000Z</time>
      </trkpt>
      <trkpt lat="45.95533" lon="5.84593">
        <ele>346.39999389648</ele>
        <time>2014-04-24T16:29:58.000Z</time>
      </trkpt>
      <trkpt lat="45.95501" lon="5.84582">
        <ele>345.39999389648</ele>
        <time>2014-04-24T16:30:01.000Z</time>
      </trkpt>
      <trkpt lat="45.95491" lon="5.84582">
        <ele>345.79998779297</ele>
        <time>2014-04-24T16:30:02.000Z</time>
      </trkpt>
      <trkpt lat="45.95453" lon="5.84564">
        <ele>344.20001220703</ele>
        <time>2014-04-24T16:30:06.000Z</time>
      </trkpt>
      <trkpt lat="45.95446" lon="5.84542">
        <ele>341.79998779297</ele>
        <time>2014-04-24T16:30:08.000Z</time>
      </trkpt>
      <trkpt lat="45.95456" lon="5.84523">
        <ele>338.79998779297</ele>
        <time>2014-04-24T16:30:10.000Z</time>
      </trkpt>
      <trkpt lat="45.95474" lon="5.84525">
        <ele>338.39999389648</ele>
        <time>2014-04-24T16:30:12.000Z</time>
      </trkpt>
      <trkpt lat="45.955" lon="5.84541">
        <ele>339.60000610352</ele>
        <time>2014-04-24T16:30:15.000Z</time>
      </trkpt>
      <trkpt lat="45.95525" lon="5.84519">
        <ele>336.20001220703</ele>
        <time>2014-04-24T16:30:18.000Z</time>
      </trkpt>
      <trkpt lat="45.95542" lon="5.845">
        <ele>332.79998779297</ele>
        <time>2014-04-24T16:30:20.000Z</time>
      </trkpt>
      <trkpt lat="45.95574" lon="5.8448">
        <ele>329</ele>
        <time>2014-04-24T16:30:23.000Z</time>
      </trkpt>
      <trkpt lat="45.95592" lon="5.84459">
        <ele>326.79998779297</ele>
        <time>2014-04-24T16:30:25.000Z</time>
      </trkpt>
      <trkpt lat="45.95642" lon="5.8441">
        <ele>319</ele>
        <time>2014-04-24T16:30:30.000Z</time>
      </trkpt>
      <trkpt lat="45.95678" lon="5.84396">
        <ele>313.39999389648</ele>
        <time>2014-04-24T16:30:33.000Z</time>
      </trkpt>
      <trkpt lat="45.957" lon="5.84392">
        <ele>310.60000610352</ele>
        <time>2014-04-24T16:30:35.000Z</time>
      </trkpt>
      <trkpt lat="45.95721" lon="5.8437">
        <ele>306.79998779297</ele>
        <time>2014-04-24T16:30:38.000Z</time>
      </trkpt>
      <trkpt lat="45.95718" lon="5.84341">
        <ele>305</ele>
        <time>2014-04-24T16:30:40.000Z</time>
      </trkpt>
      <trkpt lat="45.95714" lon="5.84328">
        <ele>304.20001220703</ele>
        <time>2014-04-24T16:30:41.000Z</time>
      </trkpt>
      <trkpt lat="45.95704" lon="5.84302">
        <ele>302.60000610352</ele>
        <time>2014-04-24T16:30:43.000Z</time>
      </trkpt>
      <trkpt lat="45.95703" lon="5.84264">
        <ele>298</ele>
        <time>2014-04-24T16:30:46.000Z</time>
      </trkpt>
      <trkpt lat="45.95722" lon="5.84251">
        <ele>296.79998779297</ele>
        <time>2014-04-24T16:30:48.000Z</time>
      </trkpt>
      <trkpt lat="45.95743" lon="5.84254">
        <ele>295</ele>
        <time>2014-04-24T16:30:50.000Z</time>
      </trkpt>
      <trkpt lat="45.95772" lon="5.8428">
        <ele>294.39999389648</ele>
        <time>2014-04-24T16:30:53.000Z</time>
      </trkpt>
      <trkpt lat="45.95794" lon="5.8432">
        <ele>296</ele>
        <time>2014-04-24T16:30:56.000Z</time>
      </trkpt>
      <trkpt lat="45.95824" lon="5.84356">
        <ele>298.60000610352</ele>
        <time>2014-04-24T16:31:00.000Z</time>
      </trkpt>
      <trkpt lat="45.95836" lon="5.8434">
        <ele>297</ele>
        <time>2014-04-24T16:31:02.000Z</time>
      </trkpt>
      <trkpt lat="45.95838" lon="5.84312">
        <ele>294.39999389648</ele>
        <time>2014-04-24T16:31:04.000Z</time>
      </trkpt>
      <trkpt lat="45.95837" lon="5.84221">
        <ele>284.60000610352</ele>
        <time>2014-04-24T16:31:10.000Z</time>
      </trkpt>
      <trkpt lat="45.95844" lon="5.84155">
        <ele>280.60000610352</ele>
        <time>2014-04-24T16:31:14.000Z</time>
      </trkpt>
      <trkpt lat="45.95861" lon="5.8405">
        <ele>272.79998779297</ele>
        <time>2014-04-24T16:31:20.000Z</time>
      </trkpt>
      <trkpt lat="45.95868" lon="5.84006">
        <ele>270.60000610352</ele>
        <time>2014-04-24T16:31:23.000Z</time>
      </trkpt>
      <trkpt lat="45.95887" lon="5.83949">
        <ele>268.39999389648</ele>
        <time>2014-04-24T16:31:28.000Z</time>
      </trkpt>
      <trkpt lat="45.95919" lon="5.83864">
        <ele>265.79998779297</ele>
        <time>2014-04-24T16:31:36.000Z</time>
      </trkpt>
      <trkpt lat="45.95941" lon="5.83804">
        <ele>264.39999389648</ele>
        <time>2014-04-24T16:31:42.000Z</time>
      </trkpt>
      <trkpt lat="45.95957" lon="5.83753">
        <ele>263.79998779297</ele>
        <time>2014-04-24T16:31:47.000Z</time>
      </trkpt>
      <trkpt lat="45.95974" lon="5.837">
        <ele>264</ele>
        <time>2014-04-24T16:31:53.000Z</time>
      </trkpt>
      <trkpt lat="45.95979" lon="5.83685">
        <ele>264.20001220703</ele>
        <time>2014-04-24T16:31:55.000Z</time>
      </trkpt>
      <trkpt lat="45.95984" lon="5.83665">
        <ele>264.60000610352</ele>
        <time>2014-04-24T16:31:58.000Z</time>
      </trkpt>
      <trkpt lat="45.95977" lon="5.83649">
        <ele>264.20001220703</ele>
        <time>2014-04-24T16:32:03.000Z</time>
      </trkpt>
      <trkpt lat="45.95974" lon="5.83649">
        <ele>264</ele>
        <time>2014-04-24T16:32:04.000Z</time>
      </trkpt>
      <trkpt lat="45.9594" lon="5.83646">
        <ele>263.60000610352</ele>
        <time>2014-04-24T16:32:10.000Z</time>
      </trkpt>
      <trkpt lat="45.95887" lon="5.83642">
        <ele>262.79998779297</ele>
        <time>2014-04-24T16:32:17.000Z</time>
      </trkpt>
      <trkpt lat="45.95831" lon="5.83634">
        <ele>261</ele>
        <time>2014-04-24T16:32:23.000Z</time>
      </trkpt>
      <trkpt lat="45.95784" lon="5.83633">
        <ele>259.39999389648</ele>
        <time>2014-04-24T16:32:28.000Z</time>
      </trkpt>
      <trkpt lat="45.95722" lon="5.83649">
        <ele>258.20001220703</ele>
        <time>2014-04-24T16:32:35.000Z</time>
      </trkpt>
      <trkpt lat="45.95656" lon="5.83677">
        <ele>257.79998779297</ele>
        <time>2014-04-24T16:32:43.000Z</time>
      </trkpt>
      <trkpt lat="45.95593" lon="5.83703">
        <ele>256.60000610352</ele>
        <time>2014-04-24T16:32:51.000Z</time>
      </trkpt>
      <trkpt lat="45.95512" lon="5.83737">
        <ele>255.39999389648</ele>
        <time>2014-04-24T16:33:01.000Z</time>
      </trkpt>
      <trkpt lat="45.95455" lon="5.8376">
        <ele>254.60000610352</ele>
        <time>2014-04-24T16:33:08.000Z</time>
      </trkpt>
      <trkpt lat="45.95424" lon="5.83754">
        <ele>254.60000610352</ele>
        <time>2014-04-24T16:33:12.000Z</time>
      </trkpt>
      <trkpt lat="45.95419" lon="5.83746">
        <ele>254.80000305176</ele>
        <time>2014-04-24T16:33:13.000Z</time>
      </trkpt>
      <trkpt lat="45.95399" lon="5.83725">
        <ele>255</ele>
        <time>2014-04-24T16:33:17.000Z</time>
      </trkpt>
      <trkpt lat="45.95383" lon="5.83738">
        <ele>255</ele>
        <time>2014-04-24T16:33:20.000Z</time>
      </trkpt>
      <trkpt lat="45.95369" lon="5.83759">
        <ele>255</ele>
        <time>2014-04-24T16:33:23.000Z</time>
      </trkpt>
      <trkpt lat="45.95363" lon="5.83763">
        <ele>255</ele>
        <time>2014-04-24T16:33:24.000Z</time>
      </trkpt>
      <trkpt lat="45.95313" lon="5.838">
        <ele>254.19999694824</ele>
        <time>2014-04-24T16:33:32.000Z</time>
      </trkpt>
      <trkpt lat="45.95258" lon="5.83843">
        <ele>254</ele>
        <time>2014-04-24T16:33:41.000Z</time>
      </trkpt>
      <trkpt lat="45.95206" lon="5.83865">
        <ele>254</ele>
        <time>2014-04-24T16:33:49.000Z</time>
      </trkpt>
      <trkpt lat="45.95145" lon="5.8389">
        <ele>255</ele>
        <time>2014-04-24T16:33:58.000Z</time>
      </trkpt>
      <trkpt lat="45.95082" lon="5.83916">
        <ele>256.79998779297</ele>
        <time>2014-04-24T16:34:07.000Z</time>
      </trkpt>
      <trkpt lat="45.94998" lon="5.83951">
        <ele>266.60000610352</ele>
        <time>2014-04-24T16:34:18.000Z</time>
      </trkpt>
      <trkpt lat="45.94929" lon="5.83975">
        <ele>277.79998779297</ele>
        <time>2014-04-24T16:34:27.000Z</time>
      </trkpt>
      <trkpt lat="45.94881" lon="5.83978">
        <ele>282</ele>
        <time>2014-04-24T16:34:33.000Z</time>
      </trkpt>
      <trkpt lat="45.94828" lon="5.83971">
        <ele>284.79998779297</ele>
        <time>2014-04-24T16:34:40.000Z</time>
      </trkpt>
      <trkpt lat="45.94776" lon="5.8395">
        <ele>286</ele>
        <time>2014-04-24T16:34:47.000Z</time>
      </trkpt>
      <trkpt lat="45.94711" lon="5.83907">
        <ele>283.60000610352</ele>
        <time>2014-04-24T16:34:56.000Z</time>
      </trkpt>
      <trkpt lat="45.94667" lon="5.83878">
        <ele>281.79998779297</ele>
        <time>2014-04-24T16:35:02.000Z</time>
      </trkpt>
      <trkpt lat="45.94596" lon="5.83831">
        <ele>276</ele>
        <time>2014-04-24T16:35:12.000Z</time>
      </trkpt>
      <trkpt lat="45.94522" lon="5.83781">
        <ele>272.20001220703</ele>
        <time>2014-04-24T16:35:22.000Z</time>
      </trkpt>
      <trkpt lat="45.94442" lon="5.83726">
        <ele>270</ele>
        <time>2014-04-24T16:35:33.000Z</time>
      </trkpt>
      <trkpt lat="45.94362" lon="5.83682">
        <ele>267</ele>
        <time>2014-04-24T16:35:44.000Z</time>
      </trkpt>
      <trkpt lat="45.94301" lon="5.83656">
        <ele>259</ele>
        <time>2014-04-24T16:35:52.000Z</time>
      </trkpt>
      <trkpt lat="45.94219" lon="5.83632">
        <ele>259.60000610352</ele>
        <time>2014-04-24T16:36:03.000Z</time>
      </trkpt>
      <trkpt lat="45.94143" lon="5.83619">
        <ele>259.60000610352</ele>
        <time>2014-04-24T16:36:13.000Z</time>
      </trkpt>
      <trkpt lat="45.9409" lon="5.83612">
        <ele>256.60000610352</ele>
        <time>2014-04-24T16:36:20.000Z</time>
      </trkpt>
      <trkpt lat="45.94015" lon="5.83604">
        <ele>254.39999389648</ele>
        <time>2014-04-24T16:36:30.000Z</time>
      </trkpt>
      <trkpt lat="45.93959" lon="5.83609">
        <ele>253.19999694824</ele>
        <time>2014-04-24T16:36:38.000Z</time>
      </trkpt>
      <trkpt lat="45.93916" lon="5.83616">
        <ele>253</ele>
        <time>2014-04-24T16:36:44.000Z</time>
      </trkpt>
      <trkpt lat="45.93859" lon="5.83624">
        <ele>253.39999389648</ele>
        <time>2014-04-24T16:36:52.000Z</time>
      </trkpt>
      <trkpt lat="45.93762" lon="5.83635">
        <ele>253.39999389648</ele>
        <time>2014-04-24T16:37:05.000Z</time>
      </trkpt>
      <trkpt lat="45.93698" lon="5.83643">
        <ele>254</ele>
        <time>2014-04-24T16:37:14.000Z</time>
      </trkpt>
      <trkpt lat="45.93637" lon="5.83648">
        <ele>253.80000305176</ele>
        <time>2014-04-24T16:37:23.000Z</time>
      </trkpt>
      <trkpt lat="45.93555" lon="5.83657">
        <ele>256.39999389648</ele>
        <time>2014-04-24T16:37:35.000Z</time>
      </trkpt>
      <trkpt lat="45.9349" lon="5.83663">
        <ele>256.20001220703</ele>
        <time>2014-04-24T16:37:44.000Z</time>
      </trkpt>
      <trkpt lat="45.93432" lon="5.83669">
        <ele>257</ele>
        <time>2014-04-24T16:37:52.000Z</time>
      </trkpt>
      <trkpt lat="45.93386" lon="5.83673">
        <ele>256.20001220703</ele>
        <time>2014-04-24T16:37:59.000Z</time>
      </trkpt>
      <trkpt lat="45.93364" lon="5.83678">
        <ele>256.39999389648</ele>
        <time>2014-04-24T16:38:03.000Z</time>
      </trkpt>
      <trkpt lat="45.93352" lon="5.83693">
        <ele>256.60000610352</ele>
        <time>2014-04-24T16:38:07.000Z</time>
      </trkpt>
      <trkpt lat="45.9335" lon="5.83707">
        <ele>256.60000610352</ele>
        <time>2014-04-24T16:38:09.000Z</time>
      </trkpt>
      <trkpt lat="45.93338" lon="5.83756">
        <ele>260.20001220703</ele>
        <time>2014-04-24T16:38:15.000Z</time>
      </trkpt>
      <trkpt lat="45.93325" lon="5.838">
        <ele>260.20001220703</ele>
        <time>2014-04-24T16:38:21.000Z</time>
      </trkpt>
      <trkpt lat="45.93312" lon="5.83844">
        <ele>262</ele>
        <time>2014-04-24T16:38:27.000Z</time>
      </trkpt>
      <trkpt lat="45.93296" lon="5.83896">
        <ele>263.39999389648</ele>
        <time>2014-04-24T16:38:33.000Z</time>
      </trkpt>
      <trkpt lat="45.93294" lon="5.83905">
        <ele>263.39999389648</ele>
        <time>2014-04-24T16:38:34.000Z</time>
      </trkpt>
      <trkpt lat="45.93288" lon="5.83962">
        <ele>265</ele>
        <time>2014-04-24T16:38:40.000Z</time>
      </trkpt>
      <trkpt lat="45.93295" lon="5.83999">
        <ele>264.79998779297</ele>
        <time>2014-04-24T16:38:44.000Z</time>
      </trkpt>
      <trkpt lat="45.93298" lon="5.84008">
        <ele>264.60000610352</ele>
        <time>2014-04-24T16:38:45.000Z</time>
      </trkpt>
      <trkpt lat="45.93315" lon="5.84042">
        <ele>266.20001220703</ele>
        <time>2014-04-24T16:38:49.000Z</time>
      </trkpt>
      <trkpt lat="45.93358" lon="5.84128">
        <ele>274</ele>
        <time>2014-04-24T16:38:59.000Z</time>
      </trkpt>
      <trkpt lat="45.93366" lon="5.84145">
        <ele>275.20001220703</ele>
        <time>2014-04-24T16:39:01.000Z</time>
      </trkpt>
      <trkpt lat="45.93408" lon="5.84228">
        <ele>278.20001220703</ele>
        <time>2014-04-24T16:39:11.000Z</time>
      </trkpt>
      <trkpt lat="45.93437" lon="5.84297">
        <ele>278</ele>
        <time>2014-04-24T16:39:19.000Z</time>
      </trkpt>
      <trkpt lat="45.93461" lon="5.8436">
        <ele>272</ele>
        <time>2014-04-24T16:39:26.000Z</time>
      </trkpt>
      <trkpt lat="45.93489" lon="5.84434">
        <ele>273.20001220703</ele>
        <time>2014-04-24T16:39:34.000Z</time>
      </trkpt>
      <trkpt lat="45.93495" lon="5.84453">
        <ele>274.60000610352</ele>
        <time>2014-04-24T16:39:36.000Z</time>
      </trkpt>
      <trkpt lat="45.93499" lon="5.84484">
        <ele>274.79998779297</ele>
        <time>2014-04-24T16:39:39.000Z</time>
      </trkpt>
      <trkpt lat="45.93498" lon="5.84587">
        <ele>277</ele>
        <time>2014-04-24T16:39:49.000Z</time>
      </trkpt>
      <trkpt lat="45.93495" lon="5.84675">
        <ele>287.79998779297</ele>
        <time>2014-04-24T16:39:58.000Z</time>
      </trkpt>
      <trkpt lat="45.93494" lon="5.84684">
        <ele>289.39999389648</ele>
        <time>2014-04-24T16:39:59.000Z</time>
      </trkpt>
      <trkpt lat="45.9348" lon="5.84736">
        <ele>293</ele>
        <time>2014-04-24T16:40:05.000Z</time>
      </trkpt>
      <trkpt lat="45.93461" lon="5.84785">
        <ele>295.60000610352</ele>
        <time>2014-04-24T16:40:12.000Z</time>
      </trkpt>
      <trkpt lat="45.93442" lon="5.8483">
        <ele>292.20001220703</ele>
        <time>2014-04-24T16:40:19.000Z</time>
      </trkpt>
      <trkpt lat="45.93425" lon="5.84866">
        <ele>289.60000610352</ele>
        <time>2014-04-24T16:40:25.000Z</time>
      </trkpt>
      <trkpt lat="45.93405" lon="5.84904">
        <ele>287</ele>
        <time>2014-04-24T16:40:32.000Z</time>
      </trkpt>
      <trkpt lat="45.93387" lon="5.84928">
        <ele>287.20001220703</ele>
        <time>2014-04-24T16:40:38.000Z</time>
      </trkpt>
      <trkpt lat="45.9337" lon="5.84951">
        <ele>288.79998779297</ele>
        <time>2014-04-24T16:40:45.000Z</time>
      </trkpt>
      <trkpt lat="45.93361" lon="5.84975">
        <ele>287.60000610352</ele>
        <time>2014-04-24T16:40:51.000Z</time>
      </trkpt>
      <trkpt lat="45.93362" lon="5.85011">
        <ele>294.79998779297</ele>
        <time>2014-04-24T16:40:58.000Z</time>
      </trkpt>
      <trkpt lat="45.93365" lon="5.85036">
        <ele>300.39999389648</ele>
        <time>2014-04-24T16:41:03.000Z</time>
      </trkpt>
      <trkpt lat="45.93364" lon="5.85068">
        <ele>305</ele>
        <time>2014-04-24T16:41:09.000Z</time>
      </trkpt>
      <trkpt lat="45.9335" lon="5.85095">
        <ele>303.20001220703</ele>
        <time>2014-04-24T16:41:14.000Z</time>
      </trkpt>
      <trkpt lat="45.93347" lon="5.85099">
        <ele>302.60000610352</ele>
        <time>2014-04-24T16:41:15.000Z</time>
      </trkpt>
      <trkpt lat="45.93335" lon="5.85121">
        <ele>300.39999389648</ele>
        <time>2014-04-24T16:41:21.000Z</time>
      </trkpt>
      <trkpt lat="45.93329" lon="5.85145">
        <ele>306.39999389648</ele>
        <time>2014-04-24T16:41:26.000Z</time>
      </trkpt>
      <trkpt lat="45.93329" lon="5.8515">
        <ele>312</ele>
        <time>2014-04-24T16:41:30.000Z</time>
      </trkpt>
      <trkpt lat="45.9331" lon="5.85335">
        <ele>295.39999389648</ele>
        <time>2014-04-24T16:41:49.000Z</time>
      </trkpt>
      <trkpt lat="45.93327" lon="5.85364">
        <ele>303.39999389648</ele>
        <time>2014-04-24T16:41:55.000Z</time>
      </trkpt>
      <trkpt lat="45.93339" lon="5.85375">
        <ele>309.60000610352</ele>
        <time>2014-04-24T16:41:58.000Z</time>
      </trkpt>
      <trkpt lat="45.93358" lon="5.85409">
        <ele>321.20001220703</ele>
        <time>2014-04-24T16:42:05.000Z</time>
      </trkpt>
      <trkpt lat="45.9336" lon="5.85414">
        <ele>322.60000610352</ele>
        <time>2014-04-24T16:42:06.000Z</time>
      </trkpt>
      <trkpt lat="45.93354" lon="5.85447">
        <ele>319.79998779297</ele>
        <time>2014-04-24T16:42:11.000Z</time>
      </trkpt>
      <trkpt lat="45.93352" lon="5.85451">
        <ele>319</ele>
        <time>2014-04-24T16:42:12.000Z</time>
      </trkpt>
      <trkpt lat="45.93336" lon="5.85485">
        <ele>312</ele>
        <time>2014-04-24T16:42:21.000Z</time>
      </trkpt>
      <trkpt lat="45.93335" lon="5.85493">
        <ele>313.20001220703</ele>
        <time>2014-04-24T16:42:25.000Z</time>
      </trkpt>
      <trkpt lat="45.93331" lon="5.85492">
        <ele>310.39999389648</ele>
        <time>2014-04-24T16:42:28.000Z</time>
      </trkpt>
      <trkpt lat="45.93321" lon="5.85534">
        <ele>305.79998779297</ele>
        <time>2014-04-24T16:42:32.000Z</time>
      </trkpt>
      <trkpt lat="45.93328" lon="5.8554">
        <ele>311.39999389648</ele>
        <time>2014-04-24T16:42:33.000Z</time>
      </trkpt>
      <trkpt lat="45.93334" lon="5.85568">
        <ele>315.79998779297</ele>
        <time>2014-04-24T16:42:36.000Z</time>
      </trkpt>
      <trkpt lat="45.93339" lon="5.85576">
        <ele>318.79998779297</ele>
        <time>2014-04-24T16:42:38.000Z</time>
      </trkpt>
      <trkpt lat="45.93327" lon="5.85606">
        <ele>315.20001220703</ele>
        <time>2014-04-24T16:42:45.000Z</time>
      </trkpt>
      <trkpt lat="45.93327" lon="5.85638">
        <ele>320.79998779297</ele>
        <time>2014-04-24T16:42:51.000Z</time>
      </trkpt>
      <trkpt lat="45.93334" lon="5.85663">
        <ele>326.20001220703</ele>
        <time>2014-04-24T16:42:55.000Z</time>
      </trkpt>
      <trkpt lat="45.93332" lon="5.85693">
        <ele>349.20001220703</ele>
        <time>2014-04-24T16:43:00.000Z</time>
      </trkpt>
      <trkpt lat="45.9332" lon="5.85732">
        <ele>383.60000610352</ele>
        <time>2014-04-24T16:43:08.000Z</time>
      </trkpt>
      <trkpt lat="45.93319" lon="5.85744">
        <ele>389</ele>
        <time>2014-04-24T16:43:12.000Z</time>
      </trkpt>
      <trkpt lat="45.93319" lon="5.85746">
        <ele>390</ele>
        <time>2014-04-24T16:43:13.000Z</time>
      </trkpt>
      <trkpt lat="45.93315" lon="5.85753">
        <ele>392.60000610352</ele>
        <time>2014-04-24T16:43:17.000Z</time>
      </trkpt>
      <trkpt lat="45.93314" lon="5.85755">
        <ele>393.20001220703</ele>
        <time>2014-04-24T16:43:18.000Z</time>
      </trkpt>
      <trkpt lat="45.93312" lon="5.8576">
        <ele>395.20001220703</ele>
        <time>2014-04-24T16:43:25.000Z</time>
      </trkpt>
      <trkpt lat="45.93311" lon="5.85765">
        <ele>397.20001220703</ele>
        <time>2014-04-24T16:43:46.000Z</time>
      </trkpt>
      <trkpt lat="45.93311" lon="5.85778">
        <ele>402.20001220703</ele>
        <time>2014-04-24T16:43:51.000Z</time>
      </trkpt>
      <trkpt lat="45.93305" lon="5.85804">
        <ele>410.79998779297</ele>
        <time>2014-04-24T16:43:56.000Z</time>
      </trkpt>
      <trkpt lat="45.933" lon="5.85817">
        <ele>416.60000610352</ele>
        <time>2014-04-24T16:44:00.000Z</time>
      </trkpt>
      <trkpt lat="45.93295" lon="5.85826">
        <ele>419.60000610352</ele>
        <time>2014-04-24T16:44:04.000Z</time>
      </trkpt>
      <trkpt lat="45.93291" lon="5.8586">
        <ele>429.39999389648</ele>
        <time>2014-04-24T16:44:08.000Z</time>
      </trkpt>
      <trkpt lat="45.93287" lon="5.85907">
        <ele>438</ele>
        <time>2014-04-24T16:44:12.000Z</time>
      </trkpt>
      <trkpt lat="45.93286" lon="5.8592">
        <ele>439</ele>
        <time>2014-04-24T16:44:13.000Z</time>
      </trkpt>
      <trkpt lat="45.93286" lon="5.85987">
        <ele>439.20001220703</ele>
        <time>2014-04-24T16:44:18.000Z</time>
      </trkpt>
      <trkpt lat="45.93283" lon="5.8601">
        <ele>435.39999389648</ele>
        <time>2014-04-24T16:44:20.000Z</time>
      </trkpt>
      <trkpt lat="45.93284" lon="5.86059">
        <ele>424</ele>
        <time>2014-04-24T16:44:25.000Z</time>
      </trkpt>
      <trkpt lat="45.93288" lon="5.86112">
        <ele>381.79998779297</ele>
        <time>2014-04-24T16:44:31.000Z</time>
      </trkpt>
      <trkpt lat="45.93286" lon="5.86172">
        <ele>349.39999389648</ele>
        <time>2014-04-24T16:44:39.000Z</time>
      </trkpt>
      <trkpt lat="45.93291" lon="5.862">
        <ele>352.60000610352</ele>
        <time>2014-04-24T16:44:43.000Z</time>
      </trkpt>
      <trkpt lat="45.93298" lon="5.86218">
        <ele>356.79998779297</ele>
        <time>2014-04-24T16:44:46.000Z</time>
      </trkpt>
      <trkpt lat="45.93299" lon="5.86252">
        <ele>355.39999389648</ele>
        <time>2014-04-24T16:44:51.000Z</time>
      </trkpt>
      <trkpt lat="45.93293" lon="5.86262">
        <ele>350.60000610352</ele>
        <time>2014-04-24T16:44:53.000Z</time>
      </trkpt>
      <trkpt lat="45.9327" lon="5.86289">
        <ele>339.39999389648</ele>
        <time>2014-04-24T16:44:59.000Z</time>
      </trkpt>
      <trkpt lat="45.93254" lon="5.86327">
        <ele>340.39999389648</ele>
        <time>2014-04-24T16:45:05.000Z</time>
      </trkpt>
      <trkpt lat="45.93248" lon="5.86345">
        <ele>341.60000610352</ele>
        <time>2014-04-24T16:45:08.000Z</time>
      </trkpt>
      <trkpt lat="45.9325" lon="5.86379">
        <ele>349</ele>
        <time>2014-04-24T16:45:13.000Z</time>
      </trkpt>
      <trkpt lat="45.93254" lon="5.86393">
        <ele>352.60000610352</ele>
        <time>2014-04-24T16:45:15.000Z</time>
      </trkpt>
      <trkpt lat="45.93253" lon="5.86433">
        <ele>354.20001220703</ele>
        <time>2014-04-24T16:45:21.000Z</time>
      </trkpt>
      <trkpt lat="45.93253" lon="5.86439">
        <ele>353.60000610352</ele>
        <time>2014-04-24T16:45:22.000Z</time>
      </trkpt>
      <trkpt lat="45.93254" lon="5.86461">
        <ele>352</ele>
        <time>2014-04-24T16:45:25.000Z</time>
      </trkpt>
      <trkpt lat="45.93266" lon="5.86537">
        <ele>350.39999389648</ele>
        <time>2014-04-24T16:45:36.000Z</time>
      </trkpt>
      <trkpt lat="45.9328" lon="5.86594">
        <ele>354.20001220703</ele>
        <time>2014-04-24T16:45:45.000Z</time>
      </trkpt>
      <trkpt lat="45.93283" lon="5.86632">
        <ele>352</ele>
        <time>2014-04-24T16:45:51.000Z</time>
      </trkpt>
      <trkpt lat="45.93293" lon="5.86681">
        <ele>356.39999389648</ele>
        <time>2014-04-24T16:45:58.000Z</time>
      </trkpt>
      <trkpt lat="45.93294" lon="5.86688">
        <ele>357.20001220703</ele>
        <time>2014-04-24T16:45:59.000Z</time>
      </trkpt>
      <trkpt lat="45.93295" lon="5.8672">
        <ele>359.79998779297</ele>
        <time>2014-04-24T16:46:03.000Z</time>
      </trkpt>
      <trkpt lat="45.93296" lon="5.86773">
        <ele>361.39999389648</ele>
        <time>2014-04-24T16:46:10.000Z</time>
      </trkpt>
      <trkpt lat="45.93292" lon="5.86827">
        <ele>356</ele>
        <time>2014-04-24T16:46:17.000Z</time>
      </trkpt>
      <trkpt lat="45.9329" lon="5.86879">
        <ele>347.39999389648</ele>
        <time>2014-04-24T16:46:24.000Z</time>
      </trkpt>
      <trkpt lat="45.93292" lon="5.86895">
        <ele>347.39999389648</ele>
        <time>2014-04-24T16:46:26.000Z</time>
      </trkpt>
      <trkpt lat="45.93302" lon="5.86941">
        <ele>344</ele>
        <time>2014-04-24T16:46:32.000Z</time>
      </trkpt>
      <trkpt lat="45.93318" lon="5.86996">
        <ele>375.39999389648</ele>
        <time>2014-04-24T16:46:40.000Z</time>
      </trkpt>
      <trkpt lat="45.93338" lon="5.87042">
        <ele>433.20001220703</ele>
        <time>2014-04-24T16:46:47.000Z</time>
      </trkpt>
      <trkpt lat="45.93344" lon="5.87054">
        <ele>451.39999389648</ele>
        <time>2014-04-24T16:46:49.000Z</time>
      </trkpt>
      <trkpt lat="45.9335" lon="5.87084">
        <ele>478</ele>
        <time>2014-04-24T16:46:53.000Z</time>
      </trkpt>
      <trkpt lat="45.93351" lon="5.87157">
        <ele>475</ele>
        <time>2014-04-24T16:47:02.000Z</time>
      </trkpt>
      <trkpt lat="45.93353" lon="5.87224">
        <ele>481.60000610352</ele>
        <time>2014-04-24T16:47:10.000Z</time>
      </trkpt>
      <trkpt lat="45.93352" lon="5.87284">
        <ele>472.79998779297</ele>
        <time>2014-04-24T16:47:17.000Z</time>
      </trkpt>
      <trkpt lat="45.93352" lon="5.87293">
        <ele>473.20001220703</ele>
        <time>2014-04-24T16:47:18.000Z</time>
      </trkpt>
      <trkpt lat="45.93341" lon="5.87361">
        <ele>381</ele>
        <time>2014-04-24T16:47:25.000Z</time>
      </trkpt>
      <trkpt lat="45.93334" lon="5.8739">
        <ele>398.79998779297</ele>
        <time>2014-04-24T16:47:28.000Z</time>
      </trkpt>
      <trkpt lat="45.93331" lon="5.87448">
        <ele>382.79998779297</ele>
        <time>2014-04-24T16:47:34.000Z</time>
      </trkpt>
      <trkpt lat="45.93325" lon="5.8754">
        <ele>382.20001220703</ele>
        <time>2014-04-24T16:47:43.000Z</time>
      </trkpt>
      <trkpt lat="45.93325" lon="5.87622">
        <ele>388.20001220703</ele>
        <time>2014-04-24T16:47:51.000Z</time>
      </trkpt>
      <trkpt lat="45.93333" lon="5.87681">
        <ele>384</ele>
        <time>2014-04-24T16:47:57.000Z</time>
      </trkpt>
      <trkpt lat="45.93337" lon="5.877">
        <ele>380.79998779297</ele>
        <time>2014-04-24T16:47:59.000Z</time>
      </trkpt>
      <trkpt lat="45.93352" lon="5.87768">
        <ele>372.60000610352</ele>
        <time>2014-04-24T16:48:06.000Z</time>
      </trkpt>
      <trkpt lat="45.93372" lon="5.87842">
        <ele>368</ele>
        <time>2014-04-24T16:48:14.000Z</time>
      </trkpt>
      <trkpt lat="45.93387" lon="5.87902">
        <ele>367.20001220703</ele>
        <time>2014-04-24T16:48:20.000Z</time>
      </trkpt>
      <trkpt lat="45.93402" lon="5.87969">
        <ele>363.60000610352</ele>
        <time>2014-04-24T16:48:27.000Z</time>
      </trkpt>
      <trkpt lat="45.93412" lon="5.88027">
        <ele>359.60000610352</ele>
        <time>2014-04-24T16:48:33.000Z</time>
      </trkpt>
      <trkpt lat="45.93433" lon="5.88093">
        <ele>378</ele>
        <time>2014-04-24T16:48:40.000Z</time>
      </trkpt>
      <trkpt lat="45.9344" lon="5.88112">
        <ele>385.39999389648</ele>
        <time>2014-04-24T16:48:42.000Z</time>
      </trkpt>
      <trkpt lat="45.93445" lon="5.88155">
        <ele>388.79998779297</ele>
        <time>2014-04-24T16:48:46.000Z</time>
      </trkpt>
      <trkpt lat="45.93439" lon="5.88183">
        <ele>385.39999389648</ele>
        <time>2014-04-24T16:48:49.000Z</time>
      </trkpt>
      <trkpt lat="45.93428" lon="5.88215">
        <ele>374.20001220703</ele>
        <time>2014-04-24T16:48:53.000Z</time>
      </trkpt>
      <trkpt lat="45.93428" lon="5.88226">
        <ele>373.79998779297</ele>
        <time>2014-04-24T16:48:54.000Z</time>
      </trkpt>
      <trkpt lat="45.93426" lon="5.88249">
        <ele>379.20001220703</ele>
        <time>2014-04-24T16:48:56.000Z</time>
      </trkpt>
      <trkpt lat="45.93408" lon="5.88289">
        <ele>373.20001220703</ele>
        <time>2014-04-24T16:49:00.000Z</time>
      </trkpt>
      <trkpt lat="45.93382" lon="5.88341">
        <ele>365.20001220703</ele>
        <time>2014-04-24T16:49:05.000Z</time>
      </trkpt>
      <trkpt lat="45.93364" lon="5.88419">
        <ele>366.79998779297</ele>
        <time>2014-04-24T16:49:11.000Z</time>
      </trkpt>
      <trkpt lat="45.93348" lon="5.88496">
        <ele>366</ele>
        <time>2014-04-24T16:49:17.000Z</time>
      </trkpt>
      <trkpt lat="45.93329" lon="5.88555">
        <ele>360.79998779297</ele>
        <time>2014-04-24T16:49:22.000Z</time>
      </trkpt>
      <trkpt lat="45.93308" lon="5.88621">
        <ele>357.20001220703</ele>
        <time>2014-04-24T16:49:28.000Z</time>
      </trkpt>
      <trkpt lat="45.93283" lon="5.88695">
        <ele>369.39999389648</ele>
        <time>2014-04-24T16:49:35.000Z</time>
      </trkpt>
      <trkpt lat="45.93251" lon="5.88762">
        <ele>377.39999389648</ele>
        <time>2014-04-24T16:49:42.000Z</time>
      </trkpt>
      <trkpt lat="45.93207" lon="5.88818">
        <ele>369.60000610352</ele>
        <time>2014-04-24T16:49:49.000Z</time>
      </trkpt>
      <trkpt lat="45.93201" lon="5.88824">
        <ele>368.39999389648</ele>
        <time>2014-04-24T16:49:50.000Z</time>
      </trkpt>
      <trkpt lat="45.93178" lon="5.88856">
        <ele>365.20001220703</ele>
        <time>2014-04-24T16:49:54.000Z</time>
      </trkpt>
      <trkpt lat="45.93141" lon="5.88943">
        <ele>351.60000610352</ele>
        <time>2014-04-24T16:50:03.000Z</time>
      </trkpt>
      <trkpt lat="45.93115" lon="5.89025">
        <ele>358</ele>
        <time>2014-04-24T16:50:11.000Z</time>
      </trkpt>
      <trkpt lat="45.93079" lon="5.89099">
        <ele>362.60000610352</ele>
        <time>2014-04-24T16:50:19.000Z</time>
      </trkpt>
      <trkpt lat="45.93046" lon="5.89152">
        <ele>354.60000610352</ele>
        <time>2014-04-24T16:50:25.000Z</time>
      </trkpt>
      <trkpt lat="45.93018" lon="5.89196">
        <ele>345.39999389648</ele>
        <time>2014-04-24T16:50:30.000Z</time>
      </trkpt>
      <trkpt lat="45.93011" lon="5.89239">
        <ele>340.60000610352</ele>
        <time>2014-04-24T16:50:34.000Z</time>
      </trkpt>
      <trkpt lat="45.93009" lon="5.89274">
        <ele>337.20001220703</ele>
        <time>2014-04-24T16:50:37.000Z</time>
      </trkpt>
      <trkpt lat="45.93003" lon="5.89308">
        <ele>335.60000610352</ele>
        <time>2014-04-24T16:50:40.000Z</time>
      </trkpt>
      <trkpt lat="45.92998" lon="5.89344">
        <ele>329.20001220703</ele>
        <time>2014-04-24T16:50:43.000Z</time>
      </trkpt>
      <trkpt lat="45.93007" lon="5.8939">
        <ele>329</ele>
        <time>2014-04-24T16:50:47.000Z</time>
      </trkpt>
      <trkpt lat="45.93018" lon="5.8941">
        <ele>331.39999389648</ele>
        <time>2014-04-24T16:50:49.000Z</time>
      </trkpt>
      <trkpt lat="45.93027" lon="5.89432">
        <ele>332.79998779297</ele>
        <time>2014-04-24T16:50:51.000Z</time>
      </trkpt>
      <trkpt lat="45.93041" lon="5.89507">
        <ele>330.79998779297</ele>
        <time>2014-04-24T16:50:57.000Z</time>
      </trkpt>
      <trkpt lat="45.93051" lon="5.89591">
        <ele>326.20001220703</ele>
        <time>2014-04-24T16:51:04.000Z</time>
      </trkpt>
      <trkpt lat="45.93051" lon="5.89602">
        <ele>325.60000610352</ele>
        <time>2014-04-24T16:51:05.000Z</time>
      </trkpt>
      <trkpt lat="45.93045" lon="5.89609">
        <ele>323.79998779297</ele>
        <time>2014-04-24T16:51:08.000Z</time>
      </trkpt>
      <trkpt lat="45.93036" lon="5.8959">
        <ele>323.39999389648</ele>
        <time>2014-04-24T16:51:11.000Z</time>
      </trkpt>
      <trkpt lat="45.93014" lon="5.89516">
        <ele>321.60000610352</ele>
        <time>2014-04-24T16:51:18.000Z</time>
      </trkpt>
      <trkpt lat="45.92992" lon="5.89446">
        <ele>321</ele>
        <time>2014-04-24T16:51:24.000Z</time>
      </trkpt>
      <trkpt lat="45.92972" lon="5.89391">
        <ele>317.60000610352</ele>
        <time>2014-04-24T16:51:29.000Z</time>
      </trkpt>
      <trkpt lat="45.92941" lon="5.89331">
        <ele>314.39999389648</ele>
        <time>2014-04-24T16:51:34.000Z</time>
      </trkpt>
      <trkpt lat="45.92908" lon="5.89304">
        <ele>308.39999389648</ele>
        <time>2014-04-24T16:51:38.000Z</time>
      </trkpt>
      <trkpt lat="45.92899" lon="5.89302">
        <ele>306.60000610352</ele>
        <time>2014-04-24T16:51:39.000Z</time>
      </trkpt>
      <trkpt lat="45.92859" lon="5.89302">
        <ele>307</ele>
        <time>2014-04-24T16:51:44.000Z</time>
      </trkpt>
      <trkpt lat="45.92827" lon="5.89312">
        <ele>306.79998779297</ele>
        <time>2014-04-24T16:51:49.000Z</time>
      </trkpt>
      <trkpt lat="45.92795" lon="5.89341">
        <ele>307</ele>
        <time>2014-04-24T16:51:55.000Z</time>
      </trkpt>
      <trkpt lat="45.92764" lon="5.89357">
        <ele>310</ele>
        <time>2014-04-24T16:52:00.000Z</time>
      </trkpt>
      <trkpt lat="45.92716" lon="5.89371">
        <ele>311.60000610352</ele>
        <time>2014-04-24T16:52:07.000Z</time>
      </trkpt>
      <trkpt lat="45.92658" lon="5.89394">
        <ele>309.79998779297</ele>
        <time>2014-04-24T16:52:15.000Z</time>
      </trkpt>
      <trkpt lat="45.92619" lon="5.89433">
        <ele>309.39999389648</ele>
        <time>2014-04-24T16:52:21.000Z</time>
      </trkpt>
      <trkpt lat="45.92582" lon="5.89481">
        <ele>307.20001220703</ele>
        <time>2014-04-24T16:52:27.000Z</time>
      </trkpt>
      <trkpt lat="45.92549" lon="5.8954">
        <ele>306</ele>
        <time>2014-04-24T16:52:34.000Z</time>
      </trkpt>
      <trkpt lat="45.92519" lon="5.89603">
        <ele>305.60000610352</ele>
        <time>2014-04-24T16:52:41.000Z</time>
      </trkpt>
      <trkpt lat="45.92489" lon="5.89636">
        <ele>307.60000610352</ele>
        <time>2014-04-24T16:52:46.000Z</time>
      </trkpt>
      <trkpt lat="45.92405" lon="5.89714">
        <ele>308.60000610352</ele>
        <time>2014-04-24T16:52:59.000Z</time>
      </trkpt>
      <trkpt lat="45.92363" lon="5.89764">
        <ele>308.79998779297</ele>
        <time>2014-04-24T16:53:06.000Z</time>
      </trkpt>
      <trkpt lat="45.92338" lon="5.89792">
        <ele>309.20001220703</ele>
        <time>2014-04-24T16:53:10.000Z</time>
      </trkpt>
      <trkpt lat="45.92294" lon="5.89825">
        <ele>310</ele>
        <time>2014-04-24T16:53:17.000Z</time>
      </trkpt>
      <trkpt lat="45.92248" lon="5.89855">
        <ele>309.79998779297</ele>
        <time>2014-04-24T16:53:24.000Z</time>
      </trkpt>
      <trkpt lat="45.92197" lon="5.89887">
        <ele>309.79998779297</ele>
        <time>2014-04-24T16:53:32.000Z</time>
      </trkpt>
      <trkpt lat="45.9215" lon="5.89934">
        <ele>310.39999389648</ele>
        <time>2014-04-24T16:53:40.000Z</time>
      </trkpt>
      <trkpt lat="45.92118" lon="5.89964">
        <ele>311.20001220703</ele>
        <time>2014-04-24T16:53:45.000Z</time>
      </trkpt>
      <trkpt lat="45.9207" lon="5.90011">
        <ele>313</ele>
        <time>2014-04-24T16:53:53.000Z</time>
      </trkpt>
      <trkpt lat="45.92022" lon="5.9006">
        <ele>312.39999389648</ele>
        <time>2014-04-24T16:54:01.000Z</time>
      </trkpt>
      <trkpt lat="45.91948" lon="5.90136">
        <ele>313.60000610352</ele>
        <time>2014-04-24T16:54:13.000Z</time>
      </trkpt>
      <trkpt lat="45.91912" lon="5.90173">
        <ele>313.60000610352</ele>
        <time>2014-04-24T16:54:19.000Z</time>
      </trkpt>
      <trkpt lat="45.91857" lon="5.90228">
        <ele>311.79998779297</ele>
        <time>2014-04-24T16:54:28.000Z</time>
      </trkpt>
      <trkpt lat="45.91851" lon="5.90234">
        <ele>312</ele>
        <time>2014-04-24T16:54:29.000Z</time>
      </trkpt>
      <trkpt lat="45.91831" lon="5.90245">
        <ele>312.39999389648</ele>
        <time>2014-04-24T16:54:32.000Z</time>
      </trkpt>
      <trkpt lat="45.918" lon="5.90249">
        <ele>312.60000610352</ele>
        <time>2014-04-24T16:54:37.000Z</time>
      </trkpt>
      <trkpt lat="45.91754" lon="5.90228">
        <ele>314.20001220703</ele>
        <time>2014-04-24T16:54:45.000Z</time>
      </trkpt>
      <trkpt lat="45.91726" lon="5.90221">
        <ele>315</ele>
        <time>2014-04-24T16:54:50.000Z</time>
      </trkpt>
      <trkpt lat="45.91698" lon="5.9023">
        <ele>316.79998779297</ele>
        <time>2014-04-24T16:54:55.000Z</time>
      </trkpt>
      <trkpt lat="45.91669" lon="5.90253">
        <ele>318.60000610352</ele>
        <time>2014-04-24T16:55:01.000Z</time>
      </trkpt>
      <trkpt lat="45.91633" lon="5.90293">
        <ele>317.79998779297</ele>
        <time>2014-04-24T16:55:09.000Z</time>
      </trkpt>
      <trkpt lat="45.91602" lon="5.90338">
        <ele>318.39999389648</ele>
        <time>2014-04-24T16:55:16.000Z</time>
      </trkpt>
      <trkpt lat="45.91564" lon="5.90371">
        <ele>317.79998779297</ele>
        <time>2014-04-24T16:55:22.000Z</time>
      </trkpt>
      <trkpt lat="45.91505" lon="5.90409">
        <ele>318.79998779297</ele>
        <time>2014-04-24T16:55:31.000Z</time>
      </trkpt>
      <trkpt lat="45.91454" lon="5.90437">
        <ele>320.79998779297</ele>
        <time>2014-04-24T16:55:39.000Z</time>
      </trkpt>
      <trkpt lat="45.91407" lon="5.90449">
        <ele>322.39999389648</ele>
        <time>2014-04-24T16:55:46.000Z</time>
      </trkpt>
      <trkpt lat="45.91334" lon="5.90452">
        <ele>324.60000610352</ele>
        <time>2014-04-24T16:55:57.000Z</time>
      </trkpt>
      <trkpt lat="45.91314" lon="5.90457">
        <ele>325</ele>
        <time>2014-04-24T16:56:00.000Z</time>
      </trkpt>
      <trkpt lat="45.91269" lon="5.9049">
        <ele>325.60000610352</ele>
        <time>2014-04-24T16:56:07.000Z</time>
      </trkpt>
      <trkpt lat="45.91237" lon="5.90528">
        <ele>325.20001220703</ele>
        <time>2014-04-24T16:56:13.000Z</time>
      </trkpt>
      <trkpt lat="45.91193" lon="5.90584">
        <ele>323</ele>
        <time>2014-04-24T16:56:21.000Z</time>
      </trkpt>
      <trkpt lat="45.91131" lon="5.90664">
        <ele>322.20001220703</ele>
        <time>2014-04-24T16:56:32.000Z</time>
      </trkpt>
      <trkpt lat="45.91089" lon="5.90719">
        <ele>323.60000610352</ele>
        <time>2014-04-24T16:56:40.000Z</time>
      </trkpt>
      <trkpt lat="45.91071" lon="5.90742">
        <ele>322.39999389648</ele>
        <time>2014-04-24T16:56:44.000Z</time>
      </trkpt>
      <trkpt lat="45.91039" lon="5.90786">
        <ele>325.79998779297</ele>
        <time>2014-04-24T16:56:53.000Z</time>
      </trkpt>
      <trkpt lat="45.91007" lon="5.90831">
        <ele>326.39999389648</ele>
        <time>2014-04-24T16:57:02.000Z</time>
      </trkpt>
      <trkpt lat="45.90985" lon="5.9086">
        <ele>325.60000610352</ele>
        <time>2014-04-24T16:57:08.000Z</time>
      </trkpt>
      <trkpt lat="45.90951" lon="5.90897">
        <ele>323.20001220703</ele>
        <time>2014-04-24T16:57:15.000Z</time>
      </trkpt>
      <trkpt lat="45.90945" lon="5.90901">
        <ele>322.79998779297</ele>
        <time>2014-04-24T16:57:16.000Z</time>
      </trkpt>
      <trkpt lat="45.90903" lon="5.90921">
        <ele>323</ele>
        <time>2014-04-24T16:57:22.000Z</time>
      </trkpt>
      <trkpt lat="45.9085" lon="5.90938">
        <ele>322.79998779297</ele>
        <time>2014-04-24T16:57:28.000Z</time>
      </trkpt>
      <trkpt lat="45.90815" lon="5.90965">
        <ele>320.79998779297</ele>
        <time>2014-04-24T16:57:32.000Z</time>
      </trkpt>
      <trkpt lat="45.90769" lon="5.91015">
        <ele>327.79998779297</ele>
        <time>2014-04-24T16:57:38.000Z</time>
      </trkpt>
      <trkpt lat="45.90732" lon="5.91057">
        <ele>325.39999389648</ele>
        <time>2014-04-24T16:57:44.000Z</time>
      </trkpt>
      <trkpt lat="45.90696" lon="5.91105">
        <ele>330.20001220703</ele>
        <time>2014-04-24T16:57:51.000Z</time>
      </trkpt>
      <trkpt lat="45.9066" lon="5.91159">
        <ele>325.79998779297</ele>
        <time>2014-04-24T16:57:58.000Z</time>
      </trkpt>
      <trkpt lat="45.90622" lon="5.91208">
        <ele>324.60000610352</ele>
        <time>2014-04-24T16:58:05.000Z</time>
      </trkpt>
      <trkpt lat="45.9058" lon="5.91245">
        <ele>321</ele>
        <time>2014-04-24T16:58:12.000Z</time>
      </trkpt>
      <trkpt lat="45.90528" lon="5.9128">
        <ele>319.79998779297</ele>
        <time>2014-04-24T16:58:20.000Z</time>
      </trkpt>
      <trkpt lat="45.9045" lon="5.91333">
        <ele>319</ele>
        <time>2014-04-24T16:58:32.000Z</time>
      </trkpt>
      <trkpt lat="45.90402" lon="5.91366">
        <ele>319</ele>
        <time>2014-04-24T16:58:39.000Z</time>
      </trkpt>
      <trkpt lat="45.90362" lon="5.91406">
        <ele>319.20001220703</ele>
        <time>2014-04-24T16:58:45.000Z</time>
      </trkpt>
      <trkpt lat="45.90329" lon="5.91459">
        <ele>318.79998779297</ele>
        <time>2014-04-24T16:58:51.000Z</time>
      </trkpt>
      <trkpt lat="45.90294" lon="5.91529">
        <ele>316.79998779297</ele>
        <time>2014-04-24T16:58:58.000Z</time>
      </trkpt>
      <trkpt lat="45.90252" lon="5.91606">
        <ele>319</ele>
        <time>2014-04-24T16:59:06.000Z</time>
      </trkpt>
      <trkpt lat="45.90211" lon="5.91663">
        <ele>317.39999389648</ele>
        <time>2014-04-24T16:59:13.000Z</time>
      </trkpt>
      <trkpt lat="45.90164" lon="5.91711">
        <ele>317.20001220703</ele>
        <time>2014-04-24T16:59:20.000Z</time>
      </trkpt>
      <trkpt lat="45.90095" lon="5.91781">
        <ele>319.60000610352</ele>
        <time>2014-04-24T16:59:31.000Z</time>
      </trkpt>
      <trkpt lat="45.90037" lon="5.91839">
        <ele>319.39999389648</ele>
        <time>2014-04-24T16:59:41.000Z</time>
      </trkpt>
      <trkpt lat="45.89979" lon="5.91898">
        <ele>318.60000610352</ele>
        <time>2014-04-24T16:59:51.000Z</time>
      </trkpt>
      <trkpt lat="45.89922" lon="5.91946">
        <ele>318.60000610352</ele>
        <time>2014-04-24T17:00:00.000Z</time>
      </trkpt>
      <trkpt lat="45.8986" lon="5.91982">
        <ele>319.20001220703</ele>
        <time>2014-04-24T17:00:09.000Z</time>
      </trkpt>
      <trkpt lat="45.8981" lon="5.92012">
        <ele>319.60000610352</ele>
        <time>2014-04-24T17:00:17.000Z</time>
      </trkpt>
      <trkpt lat="45.89789" lon="5.9202">
        <ele>320.60000610352</ele>
        <time>2014-04-24T17:00:21.000Z</time>
      </trkpt>
      <trkpt lat="45.89769" lon="5.9202">
        <ele>322</ele>
        <time>2014-04-24T17:00:25.000Z</time>
      </trkpt>
      <trkpt lat="45.89726" lon="5.92009">
        <ele>323.39999389648</ele>
        <time>2014-04-24T17:00:34.000Z</time>
      </trkpt>
      <trkpt lat="45.89693" lon="5.92006">
        <ele>324</ele>
        <time>2014-04-24T17:00:41.000Z</time>
      </trkpt>
      <trkpt lat="45.89684" lon="5.92006">
        <ele>324.20001220703</ele>
        <time>2014-04-24T17:00:43.000Z</time>
      </trkpt>
      <trkpt lat="45.89642" lon="5.92012">
        <ele>325.20001220703</ele>
        <time>2014-04-24T17:00:51.000Z</time>
      </trkpt>
      <trkpt lat="45.89584" lon="5.92025">
        <ele>327.60000610352</ele>
        <time>2014-04-24T17:01:00.000Z</time>
      </trkpt>
      <trkpt lat="45.89531" lon="5.92035">
        <ele>329.20001220703</ele>
        <time>2014-04-24T17:01:08.000Z</time>
      </trkpt>
      <trkpt lat="45.89473" lon="5.9205">
        <ele>329</ele>
        <time>2014-04-24T17:01:17.000Z</time>
      </trkpt>
      <trkpt lat="45.89419" lon="5.92076">
        <ele>331.39999389648</ele>
        <time>2014-04-24T17:01:26.000Z</time>
      </trkpt>
      <trkpt lat="45.89355" lon="5.92111">
        <ele>332.39999389648</ele>
        <time>2014-04-24T17:01:37.000Z</time>
      </trkpt>
      <trkpt lat="45.89308" lon="5.92128">
        <ele>332.79998779297</ele>
        <time>2014-04-24T17:01:45.000Z</time>
      </trkpt>
      <trkpt lat="45.89277" lon="5.92133">
        <ele>333.39999389648</ele>
        <time>2014-04-24T17:01:50.000Z</time>
      </trkpt>
      <trkpt lat="45.89238" lon="5.92134">
        <ele>335.20001220703</ele>
        <time>2014-04-24T17:01:57.000Z</time>
      </trkpt>
      <trkpt lat="45.89198" lon="5.92127">
        <ele>336.60000610352</ele>
        <time>2014-04-24T17:02:05.000Z</time>
      </trkpt>
      <trkpt lat="45.8917" lon="5.92117">
        <ele>337.20001220703</ele>
        <time>2014-04-24T17:02:12.000Z</time>
      </trkpt>
      <trkpt lat="45.89136" lon="5.92099">
        <ele>339.79998779297</ele>
        <time>2014-04-24T17:02:22.000Z</time>
      </trkpt>
      <trkpt lat="45.89114" lon="5.92085">
        <ele>344.20001220703</ele>
        <time>2014-04-24T17:02:29.000Z</time>
      </trkpt>
      <trkpt lat="45.89094" lon="5.92076">
        <ele>347.39999389648</ele>
        <time>2014-04-24T17:02:35.000Z</time>
      </trkpt>
      <trkpt lat="45.89075" lon="5.9207">
        <ele>350</ele>
        <time>2014-04-24T17:02:41.000Z</time>
      </trkpt>
      <trkpt lat="45.89054" lon="5.92069">
        <ele>350.79998779297</ele>
        <time>2014-04-24T17:02:47.000Z</time>
      </trkpt>
      <trkpt lat="45.89036" lon="5.92069">
        <ele>352.20001220703</ele>
        <time>2014-04-24T17:02:53.000Z</time>
      </trkpt>
      <trkpt lat="45.89022" lon="5.92071">
        <ele>353</ele>
        <time>2014-04-24T17:02:58.000Z</time>
      </trkpt>
      <trkpt lat="45.89008" lon="5.92076">
        <ele>352.60000610352</ele>
        <time>2014-04-24T17:03:02.000Z</time>
      </trkpt>
      <trkpt lat="45.89001" lon="5.92078">
        <ele>352.79998779297</ele>
        <time>2014-04-24T17:03:04.000Z</time>
      </trkpt>
      <trkpt lat="45.8898" lon="5.92085">
        <ele>351.39999389648</ele>
        <time>2014-04-24T17:03:09.000Z</time>
      </trkpt>
      <trkpt lat="45.88975" lon="5.92087">
        <ele>351</ele>
        <time>2014-04-24T17:03:10.000Z</time>
      </trkpt>
      <trkpt lat="45.88948" lon="5.92089">
        <ele>350.39999389648</ele>
        <time>2014-04-24T17:03:15.000Z</time>
      </trkpt>
      <trkpt lat="45.88907" lon="5.92096">
        <ele>350.60000610352</ele>
        <time>2014-04-24T17:03:21.000Z</time>
      </trkpt>
      <trkpt lat="45.88858" lon="5.92104">
        <ele>348.79998779297</ele>
        <time>2014-04-24T17:03:27.000Z</time>
      </trkpt>
      <trkpt lat="45.88793" lon="5.92118">
        <ele>347</ele>
        <time>2014-04-24T17:03:34.000Z</time>
      </trkpt>
      <trkpt lat="45.88716" lon="5.92132">
        <ele>340</ele>
        <time>2014-04-24T17:03:42.000Z</time>
      </trkpt>
      <trkpt lat="45.88651" lon="5.92146">
        <ele>336.60000610352</ele>
        <time>2014-04-24T17:03:49.000Z</time>
      </trkpt>
      <trkpt lat="45.88633" lon="5.92151">
        <ele>336.60000610352</ele>
        <time>2014-04-24T17:03:51.000Z</time>
      </trkpt>
      <trkpt lat="45.88607" lon="5.92163">
        <ele>338.39999389648</ele>
        <time>2014-04-24T17:03:54.000Z</time>
      </trkpt>
      <trkpt lat="45.8857" lon="5.92199">
        <ele>338.79998779297</ele>
        <time>2014-04-24T17:03:59.000Z</time>
      </trkpt>
      <trkpt lat="45.88515" lon="5.92289">
        <ele>342.39999389648</ele>
        <time>2014-04-24T17:04:08.000Z</time>
      </trkpt>
      <trkpt lat="45.88501" lon="5.92327">
        <ele>341.20001220703</ele>
        <time>2014-04-24T17:04:11.000Z</time>
      </trkpt>
      <trkpt lat="45.88484" lon="5.92396">
        <ele>337.20001220703</ele>
        <time>2014-04-24T17:04:16.000Z</time>
      </trkpt>
      <trkpt lat="45.88483" lon="5.92456">
        <ele>336.79998779297</ele>
        <time>2014-04-24T17:04:21.000Z</time>
      </trkpt>
      <trkpt lat="45.88486" lon="5.92509">
        <ele>337.60000610352</ele>
        <time>2014-04-24T17:04:26.000Z</time>
      </trkpt>
      <trkpt lat="45.8849" lon="5.9255">
        <ele>338.20001220703</ele>
        <time>2014-04-24T17:04:30.000Z</time>
      </trkpt>
      <trkpt lat="45.88494" lon="5.92569">
        <ele>338</ele>
        <time>2014-04-24T17:04:32.000Z</time>
      </trkpt>
      <trkpt lat="45.8851" lon="5.92644">
        <ele>336.39999389648</ele>
        <time>2014-04-24T17:04:39.000Z</time>
      </trkpt>
      <trkpt lat="45.88512" lon="5.92665">
        <ele>336.20001220703</ele>
        <time>2014-04-24T17:04:41.000Z</time>
      </trkpt>
      <trkpt lat="45.88511" lon="5.92685">
        <ele>336</ele>
        <time>2014-04-24T17:04:43.000Z</time>
      </trkpt>
      <trkpt lat="45.88495" lon="5.92731">
        <ele>333.60000610352</ele>
        <time>2014-04-24T17:04:48.000Z</time>
      </trkpt>
      <trkpt lat="45.8848" lon="5.92749">
        <ele>333</ele>
        <time>2014-04-24T17:04:51.000Z</time>
      </trkpt>
      <trkpt lat="45.88465" lon="5.92763">
        <ele>332.20001220703</ele>
        <time>2014-04-24T17:04:54.000Z</time>
      </trkpt>
      <trkpt lat="45.88427" lon="5.92779">
        <ele>333</ele>
        <time>2014-04-24T17:05:02.000Z</time>
      </trkpt>
      <trkpt lat="45.88406" lon="5.92788">
        <ele>332.79998779297</ele>
        <time>2014-04-24T17:05:07.000Z</time>
      </trkpt>
      <trkpt lat="45.88376" lon="5.92807">
        <ele>333</ele>
        <time>2014-04-24T17:05:15.000Z</time>
      </trkpt>
      <trkpt lat="45.88353" lon="5.92827">
        <ele>336</ele>
        <time>2014-04-24T17:05:22.000Z</time>
      </trkpt>
      <trkpt lat="45.8833" lon="5.9285">
        <ele>338.79998779297</ele>
        <time>2014-04-24T17:05:29.000Z</time>
      </trkpt>
      <trkpt lat="45.88308" lon="5.92873">
        <ele>341.20001220703</ele>
        <time>2014-04-24T17:05:36.000Z</time>
      </trkpt>
      <trkpt lat="45.88282" lon="5.92903">
        <ele>343.60000610352</ele>
        <time>2014-04-24T17:05:44.000Z</time>
      </trkpt>
      <trkpt lat="45.88251" lon="5.92938">
        <ele>347</ele>
        <time>2014-04-24T17:05:53.000Z</time>
      </trkpt>
      <trkpt lat="45.8823" lon="5.92972">
        <ele>348.39999389648</ele>
        <time>2014-04-24T17:06:00.000Z</time>
      </trkpt>
      <trkpt lat="45.88217" lon="5.9299">
        <ele>348.39999389648</ele>
        <time>2014-04-24T17:06:04.000Z</time>
      </trkpt>
      <trkpt lat="45.88194" lon="5.93025">
        <ele>346.79998779297</ele>
        <time>2014-04-24T17:06:11.000Z</time>
      </trkpt>
      <trkpt lat="45.88177" lon="5.93049">
        <ele>345.60000610352</ele>
        <time>2014-04-24T17:06:15.000Z</time>
      </trkpt>
      <trkpt lat="45.88153" lon="5.9307">
        <ele>343</ele>
        <time>2014-04-24T17:06:19.000Z</time>
      </trkpt>
      <trkpt lat="45.88122" lon="5.93078">
        <ele>341.20001220703</ele>
        <time>2014-04-24T17:06:23.000Z</time>
      </trkpt>
      <trkpt lat="45.88114" lon="5.93078">
        <ele>340.60000610352</ele>
        <time>2014-04-24T17:06:24.000Z</time>
      </trkpt>
      <trkpt lat="45.88061" lon="5.93064">
        <ele>337.79998779297</ele>
        <time>2014-04-24T17:06:30.000Z</time>
      </trkpt>
      <trkpt lat="45.88016" lon="5.93057">
        <ele>336.60000610352</ele>
        <time>2014-04-24T17:06:35.000Z</time>
      </trkpt>
      <trkpt lat="45.87983" lon="5.93071">
        <ele>334.20001220703</ele>
        <time>2014-04-24T17:06:39.000Z</time>
      </trkpt>
      <trkpt lat="45.87943" lon="5.93103">
        <ele>333.79998779297</ele>
        <time>2014-04-24T17:06:45.000Z</time>
      </trkpt>
      <trkpt lat="45.87896" lon="5.93141">
        <ele>333.79998779297</ele>
        <time>2014-04-24T17:06:53.000Z</time>
      </trkpt>
      <trkpt lat="45.87851" lon="5.93178">
        <ele>333.20001220703</ele>
        <time>2014-04-24T17:07:01.000Z</time>
      </trkpt>
      <trkpt lat="45.87789" lon="5.93229">
        <ele>332.20001220703</ele>
        <time>2014-04-24T17:07:12.000Z</time>
      </trkpt>
      <trkpt lat="45.87726" lon="5.93278">
        <ele>333</ele>
        <time>2014-04-24T17:07:23.000Z</time>
      </trkpt>
      <trkpt lat="45.87672" lon="5.93308">
        <ele>334.20001220703</ele>
        <time>2014-04-24T17:07:32.000Z</time>
      </trkpt>
      <trkpt lat="45.87611" lon="5.93333">
        <ele>335.39999389648</ele>
        <time>2014-04-24T17:07:42.000Z</time>
      </trkpt>
      <trkpt lat="45.87548" lon="5.93355">
        <ele>336.60000610352</ele>
        <time>2014-04-24T17:07:52.000Z</time>
      </trkpt>
      <trkpt lat="45.87492" lon="5.93377">
        <ele>338.20001220703</ele>
        <time>2014-04-24T17:08:01.000Z</time>
      </trkpt>
      <trkpt lat="45.87431" lon="5.934">
        <ele>338.79998779297</ele>
        <time>2014-04-24T17:08:11.000Z</time>
      </trkpt>
      <trkpt lat="45.87403" lon="5.93414">
        <ele>338.39999389648</ele>
        <time>2014-04-24T17:08:16.000Z</time>
      </trkpt>
      <trkpt lat="45.87383" lon="5.93429">
        <ele>338</ele>
        <time>2014-04-24T17:08:20.000Z</time>
      </trkpt>
      <trkpt lat="45.87361" lon="5.93438">
        <ele>337.60000610352</ele>
        <time>2014-04-24T17:08:24.000Z</time>
      </trkpt>
      <trkpt lat="45.87327" lon="5.93449">
        <ele>337.79998779297</ele>
        <time>2014-04-24T17:08:31.000Z</time>
      </trkpt>
      <trkpt lat="45.87314" lon="5.93456">
        <ele>338</ele>
        <time>2014-04-24T17:08:34.000Z</time>
      </trkpt>
      <trkpt lat="45.873" lon="5.93461">
        <ele>338</ele>
        <time>2014-04-24T17:08:37.000Z</time>
      </trkpt>
      <trkpt lat="45.87282" lon="5.9347">
        <ele>338.20001220703</ele>
        <time>2014-04-24T17:08:41.000Z</time>
      </trkpt>
      <trkpt lat="45.87273" lon="5.93473">
        <ele>338.39999389648</ele>
        <time>2014-04-24T17:08:43.000Z</time>
      </trkpt>
      <trkpt lat="45.87261" lon="5.93478">
        <ele>338.60000610352</ele>
        <time>2014-04-24T17:08:46.000Z</time>
      </trkpt>
      <trkpt lat="45.87244" lon="5.9348">
        <ele>338.60000610352</ele>
        <time>2014-04-24T17:08:50.000Z</time>
      </trkpt>
      <trkpt lat="45.87221" lon="5.93486">
        <ele>339</ele>
        <time>2014-04-24T17:08:55.000Z</time>
      </trkpt>
      <trkpt lat="45.872" lon="5.93495">
        <ele>339.79998779297</ele>
        <time>2014-04-24T17:09:00.000Z</time>
      </trkpt>
      <trkpt lat="45.87159" lon="5.93513">
        <ele>341.39999389648</ele>
        <time>2014-04-24T17:09:08.000Z</time>
      </trkpt>
      <trkpt lat="45.87116" lon="5.93531">
        <ele>342.60000610352</ele>
        <time>2014-04-24T17:09:16.000Z</time>
      </trkpt>
      <trkpt lat="45.87076" lon="5.93555">
        <ele>342.79998779297</ele>
        <time>2014-04-24T17:09:24.000Z</time>
      </trkpt>
      <trkpt lat="45.87044" lon="5.93572">
        <ele>342.60000610352</ele>
        <time>2014-04-24T17:09:31.000Z</time>
      </trkpt>
      <trkpt lat="45.8704" lon="5.93573">
        <ele>342.60000610352</ele>
        <time>2014-04-24T17:09:32.000Z</time>
      </trkpt>
      <trkpt lat="45.87027" lon="5.93576">
        <ele>342.60000610352</ele>
        <time>2014-04-24T17:09:36.000Z</time>
      </trkpt>
      <trkpt lat="45.87015" lon="5.93575">
        <ele>342.60000610352</ele>
        <time>2014-04-24T17:09:40.000Z</time>
      </trkpt>
      <trkpt lat="45.86995" lon="5.93576">
        <ele>342.60000610352</ele>
        <time>2014-04-24T17:09:45.000Z</time>
      </trkpt>
      <trkpt lat="45.86979" lon="5.9357">
        <ele>342.79998779297</ele>
        <time>2014-04-24T17:09:49.000Z</time>
      </trkpt>
      <trkpt lat="45.86962" lon="5.93572">
        <ele>343.39999389648</ele>
        <time>2014-04-24T17:09:53.000Z</time>
      </trkpt>
      <trkpt lat="45.86942" lon="5.93574">
        <ele>344.20001220703</ele>
        <time>2014-04-24T17:09:58.000Z</time>
      </trkpt>
      <trkpt lat="45.86934" lon="5.93574">
        <ele>344.39999389648</ele>
        <time>2014-04-24T17:10:00.000Z</time>
      </trkpt>
      <trkpt lat="45.8692" lon="5.93577">
        <ele>345</ele>
        <time>2014-04-24T17:10:04.000Z</time>
      </trkpt>
      <trkpt lat="45.86907" lon="5.93557">
        <ele>345.39999389648</ele>
        <time>2014-04-24T17:10:09.000Z</time>
      </trkpt>
      <trkpt lat="45.86907" lon="5.93534">
        <ele>346</ele>
        <time>2014-04-24T17:10:13.000Z</time>
      </trkpt>
      <trkpt lat="45.86907" lon="5.93513">
        <ele>346.39999389648</ele>
        <time>2014-04-24T17:10:17.000Z</time>
      </trkpt>
      <trkpt lat="45.86907" lon="5.93491">
        <ele>347</ele>
        <time>2014-04-24T17:10:24.000Z</time>
      </trkpt>
      <trkpt lat="45.86913" lon="5.93488">
        <ele>346.79998779297</ele>
        <time>2014-04-24T17:10:28.000Z</time>
      </trkpt>
      <trkpt lat="45.86917" lon="5.93486">
        <ele>346.79998779297</ele>
        <time>2014-04-24T17:10:33.000Z</time>
      </trkpt>
      <trkpt lat="45.86918" lon="5.93489">
        <ele>346.60000610352</ele>
        <time>2014-04-24T17:10:58.000Z</time>
      </trkpt>
      <trkpt lat="45.86922" lon="5.93488">
        <ele>346.60000610352</ele>
        <time>2014-04-24T17:11:09.000Z</time>
      </trkpt>
    </trkseg>
  </trk>
</gpx>